Provisional Data: South Branch Codorus Creek near Leader Heights, PA


Please select a monitoring station.
Please select start date.
Please select start date.

Toggle Unit: C/F Toggle Unit: C/F
Sample Time Temperature (C) Temperature (F) Specific Conductivity (mS/cm) pH   Turbidity (NTU+) DO (mg/L)
3/7/2021 12:00:00 AM 3.84 38.912 0.219 7.56 6.68 13.01
3/7/2021 12:15:00 AM 3.81 38.858 0.22 7.58 7.1 12.99
3/7/2021 12:30:00 AM 3.8 38.84 0.214 7.57 8.42 13
3/7/2021 12:45:00 AM 3.77 38.786 0.214 7.57 6.06 13.01
3/7/2021 1:00:00 AM 3.75 38.75 0.214 7.57 6.54 12.99
3/7/2021 1:15:00 AM 3.73 38.714 0.213 7.56 6.53 13
3/7/2021 1:30:00 AM 3.71 38.678 0.21 7.57 7.96 13.02
3/7/2021 1:45:00 AM 3.68 38.624 0.212 7.56 7 13.04
3/7/2021 2:00:00 AM 3.66 38.588 0.211 7.54 6.89 13.03
3/7/2021 2:15:00 AM 3.63 38.534 0.214 7.52 6.6 13.04
3/7/2021 2:30:00 AM 3.61 38.498 0.214 7.54 6.6 13.05
3/7/2021 2:45:00 AM 3.58 38.444 0.213 7.54 7.07 13.06
3/7/2021 3:00:00 AM 3.56 38.408 0.212 7.55 6.03 13.07
3/7/2021 3:15:00 AM 3.54 38.372 0.212 7.55 6.73 13.07
3/7/2021 3:30:00 AM 3.51 38.318 0.212 7.56 7.47 13.09
3/7/2021 3:45:00 AM 3.5 38.3 0.212 7.58 6.98 13.08
3/7/2021 4:00:00 AM 3.46 38.228 0.211 7.56 7.13 13.1
3/7/2021 4:15:00 AM 3.44 38.192 0.211 7.54 6.99 13.11
3/7/2021 4:30:00 AM 3.42 38.156 0.211 7.54 6.81 13.13
3/7/2021 4:45:00 AM 3.39 38.102 0.212 7.55 6.86 13.14
3/7/2021 5:00:00 AM 3.38 38.084 0.21 7.51 6.44 13.15
3/7/2021 5:15:00 AM 3.34 38.012 0.212 7.51 7.28 13.16
3/7/2021 5:30:00 AM 3.3 37.94 0.21 7.52 6.47 13.17
3/7/2021 5:45:00 AM 3.28 37.904 0.211 7.55 8.36 13.19
3/7/2021 6:00:00 AM 3.25 37.85 0.211 7.54 6.01 13.21
3/7/2021 6:15:00 AM 3.23 37.814 0.211 7.54 6.31 13.23
3/7/2021 6:30:00 AM 3.18 37.724 0.209 7.54 6.78 13.23
3/7/2021 6:45:00 AM 3.16 37.688 0.21 7.55 6.09 13.25
3/7/2021 7:00:00 AM 3.12 37.616 0.21 7.53 8.4 13.3
3/7/2021 7:15:00 AM 3.08 37.544 0.21 7.54 6.55 13.35
3/7/2021 7:30:00 AM 3.08 37.544 0.21 7.53 6.51 13.42
3/7/2021 7:45:00 AM 3.08 37.544 0.21 7.56 5.95 13.47
3/7/2021 8:00:00 AM 3.14 37.652 0.211 7.56 6.6 13.53
3/7/2021 8:15:00 AM 3.15 37.67 0.211 7.55 5.7 13.6
3/7/2021 8:30:00 AM 3.17 37.706 0.21 7.54 6.47 13.66
3/7/2021 8:45:00 AM 3.23 37.814 0.211 7.55 6.69 13.7
3/7/2021 9:00:00 AM 3.29 37.922 0.21 7.56 5.67 13.75
3/7/2021 9:15:00 AM 3.36 38.048 0.211 7.58 5.75 13.8
3/7/2021 9:30:00 AM 3.41 38.138 0.211 7.58 5.48 13.81
3/7/2021 9:45:00 AM 3.52 38.336 0.211 7.58 6.28 13.85
3/7/2021 10:00:00 AM 3.6 38.48 0.21 7.59 6.48 13.88
3/7/2021 10:15:00 AM 3.68 38.624 0.21 7.62 6.04 13.88
3/7/2021 10:30:00 AM 3.77 38.786 0.21 7.62 6.24 13.9
3/7/2021 10:45:00 AM 3.86 38.948 0.209 7.64 7.4 13.93
3/7/2021 11:00:00 AM 3.96 39.128 0.21 7.64 7 13.94
3/7/2021 11:15:00 AM 4.04 39.272 0.21 7.65 6.76 13.93
3/7/2021 11:30:00 AM 4.13 39.434 0.21 7.64 6.32 13.96
3/7/2021 11:45:00 AM 4.22 39.596 0.21 7.64 6.27 13.95
3/7/2021 12:00:00 PM 4.31 39.758 0.21 7.67 6.67 13.96
3/7/2021 12:15:00 PM 4.4 39.92 0.211 7.68 5.7 13.95
3/7/2021 12:30:00 PM 4.47 40.046 0.209 7.67 5.72 13.94
3/7/2021 12:45:00 PM 4.55 40.19 0.21 7.67 5.76 13.94
3/7/2021 1:00:00 PM 4.62 40.316 0.21 7.68 6.03 13.93
3/7/2021 1:15:00 PM 4.69 40.442 0.21 7.68 6.85 13.92
3/7/2021 1:30:00 PM 4.75 40.55 0.21 7.67 5.98 13.91
3/7/2021 1:45:00 PM 4.8 40.64 0.209 7.66 5.64 13.9
3/7/2021 2:00:00 PM 4.84 40.712 0.209 7.66 6.39 13.88
3/7/2021 2:15:00 PM 4.87 40.766 0.21 7.66 7 13.84
3/7/2021 2:30:00 PM 4.89 40.802 0.21 7.66 7.73 13.84
3/7/2021 2:45:00 PM 4.89 40.802 0.209 7.64 5.97 13.81
3/7/2021 3:00:00 PM 4.89 40.802 0.209 7.66 8.6 13.81
3/7/2021 3:15:00 PM 4.9 40.82 0.208 7.65 5.67 13.77
3/7/2021 3:30:00 PM 4.87 40.766 0.209 7.67 6.54 13.77
3/7/2021 3:45:00 PM 4.9 40.82 0.207 7.67 5.42 13.76
3/7/2021 4:00:00 PM 5.03 41.054 0.203 7.66 6.8 13.77
3/7/2021 4:15:00 PM 5.14 41.252 0.2 7.66 8.93 13.8
3/7/2021 4:30:00 PM 5.2 41.36 0.2 7.65 7.58 13.78
3/7/2021 4:45:00 PM 5.23 41.414 0.201 7.63 9.4 13.72
3/7/2021 5:00:00 PM 5.24 41.432 0.203 7.64 7 13.64
3/7/2021 5:15:00 PM 5.22 41.396 0.204 7.63 6.26 13.59
3/7/2021 5:30:00 PM 5.18 41.324 0.205 7.61 6.67 13.51
3/7/2021 5:45:00 PM 5.14 41.252 0.205 7.62 5.83 13.45
3/7/2021 6:00:00 PM 5.11 41.198 0.205 7.63 6.93 13.37
3/7/2021 6:15:00 PM 5.06 41.108 0.206 7.62 7.03 13.29
3/7/2021 6:30:00 PM 4.99 40.982 0.207 7.61 7.27 13.21
3/7/2021 6:45:00 PM 4.97 40.946 0.185 7.62 6.07 13.13
3/7/2021 7:00:00 PM 4.92 40.856 0.199 7.62 7.47 13.06
3/7/2021 7:15:00 PM 4.88 40.784 0.194 7.61 6.02 13.01
3/7/2021 7:30:00 PM 4.83 40.694 0.197 7.61 5.77 12.96
3/7/2021 7:45:00 PM 4.83 40.694 0.201 7.62 6.23 12.9
3/7/2021 8:00:00 PM 4.83 40.694 0.205 7.61 5.78 12.88
3/7/2021 8:15:00 PM 4.77 40.586 0.204 7.61 6.03 12.86
3/7/2021 8:30:00 PM 4.73 40.514 0.2 7.6 6.21 12.84
3/7/2021 8:45:00 PM 4.68 40.424 0.198 7.59 6.79 12.84
3/7/2021 9:00:00 PM 4.65 40.37 0.201 7.6 6.74 12.82
3/7/2021 9:15:00 PM 4.63 40.334 0.203 7.6 6.29 12.84
3/7/2021 9:30:00 PM 4.58 40.244 0.199 7.59 6.61 12.83
3/7/2021 9:45:00 PM 4.55 40.19 0.201 7.59 6.15 12.84
3/7/2021 10:00:00 PM 4.5 40.1 0.202 7.59 6.76 12.84
3/7/2021 10:15:00 PM 4.46 40.028 0.2 7.6 6.31 12.84
3/7/2021 10:30:00 PM 4.45 40.01 0.2 7.6 7.55 12.84
3/7/2021 10:45:00 PM 4.34 39.812 0.2 7.59 7.36 12.84
3/7/2021 11:00:00 PM 4.32 39.776 0.204 7.59 7.44 12.85
3/7/2021 11:15:00 PM 4.28 39.704 0.204 7.59 7.71 12.86
3/7/2021 11:30:00 PM 4.22 39.596 0.202 7.59 8.17 12.86
3/7/2021 11:45:00 PM 4.17 39.506 0.203 7.6 8.35 12.87
3/8/2021 12:00:00 AM 4.14 39.452 0.203 7.6 6.89 12.88
3/8/2021 12:15:00 AM 4.09 39.362 0.204 7.58 6.94 12.88
3/8/2021 12:30:00 AM 4.06 39.308 0.203 7.59 7.11 12.9
3/8/2021 12:45:00 AM 4.01 39.218 0.208 7.58 6.29 12.9
3/8/2021 1:00:00 AM 4 39.2 0.202 7.58 6.72 12.89
3/8/2021 1:15:00 AM 3.96 39.128 0.204 7.58 6.99 12.91
3/8/2021 1:30:00 AM 3.93 39.074 0.207 7.59 6.35 12.92
3/8/2021 1:45:00 AM 3.88 38.984 0.187 7.6 6.67 12.93
3/8/2021 2:00:00 AM 3.83 38.894 0.188 7.61 6.09 12.95
3/8/2021 2:15:00 AM 3.8 38.84 0.189 7.6 6.89 12.96
3/8/2021 2:30:00 AM 3.78 38.804 0.19 7.6 6.84 12.96
3/8/2021 2:45:00 AM 3.74 38.732 0.195 7.61 7.73 12.99
3/8/2021 3:00:00 AM 3.72 38.696 0.191 7.61 7.05 13
3/8/2021 3:15:00 AM 3.69 38.642 0.189 7.61 6.44 13
3/8/2021 3:30:00 AM 3.67 38.606 0.189 7.61 6.92 13.01
3/8/2021 3:45:00 AM 3.62 38.516 0.19 7.63 7.09 13.02
3/8/2021 4:00:00 AM 3.6 38.48 0.189 7.62 7.29 13.03
3/8/2021 4:15:00 AM 3.57 38.426 0.189 7.63 9.94 13.05
3/8/2021 4:30:00 AM 3.53 38.354 0.199 7.63 6.9 13.07
3/8/2021 4:45:00 AM 3.5 38.3 0.196 7.64 6.97 13.08
3/8/2021 5:00:00 AM 3.48 38.264 0.195 7.64 6.86 13.1
3/8/2021 5:15:00 AM 3.45 38.21 0.197 7.65 6.34 13.11
3/8/2021 5:30:00 AM 3.43 38.174 0.195 7.65 6.86 13.11
3/8/2021 5:45:00 AM 3.4 38.12 0.195 7.65 6.76 13.14
3/8/2021 6:00:00 AM 3.37 38.066 0.194 7.66 6.78 13.16
3/8/2021 6:15:00 AM 3.34 38.012 0.195 7.67 6.44 13.16
3/8/2021 6:30:00 AM 3.3 37.94 0.195 7.67 6.87 13.18
3/8/2021 6:45:00 AM 3.26 37.868 0.196 7.66 7.93 13.2
3/8/2021 7:00:00 AM 3.23 37.814 0.197 7.67 6.62 13.26
3/8/2021 7:15:00 AM 3.21 37.778 0.198 7.68 6.43 13.3
3/8/2021 7:30:00 AM 3.21 37.778 0.198 7.69 6.12 13.36
3/8/2021 7:45:00 AM 3.21 37.778 0.197 7.67 6.76 13.44
3/8/2021 8:00:00 AM 3.23 37.814 0.197 7.68 5.67 13.53
3/8/2021 8:15:00 AM 3.26 37.868 0.198 7.69 6.35 13.58
3/8/2021 8:30:00 AM 3.27 37.886 0.197 7.71 6.41 13.67
3/8/2021 8:45:00 AM 3.33 37.994 0.197 7.69 5.8 13.7
3/8/2021 9:00:00 AM 3.39 38.102 0.197 7.7 6.4 13.77
3/8/2021 9:15:00 AM 3.46 38.228 0.198 7.74 5.68 13.83
3/8/2021 9:30:00 AM 3.53 38.354 0.197 7.74 5.58 13.88
3/8/2021 9:45:00 AM 3.59 38.462 0.198 7.77 6.32 13.92
3/8/2021 10:00:00 AM 3.68 38.624 0.197 7.78 6.41 13.95
3/8/2021 10:15:00 AM 3.8 38.84 0.198 7.82 6.28 13.97
3/8/2021 10:30:00 AM 3.9 39.02 0.197 7.83 5.79 13.97
3/8/2021 10:45:00 AM 4 39.2 0.197 7.82 6.18 13.99
3/8/2021 11:00:00 AM 4.09 39.362 0.197 7.83 5.59 14.03
3/8/2021 11:15:00 AM 4.21 39.578 0.195 7.85 5.72 14.03
3/8/2021 11:30:00 AM 4.29 39.722 0.196 7.85 5.66 14.04
3/8/2021 11:45:00 AM 4.37 39.866 0.196 7.84 5.95 14.03
3/8/2021 12:00:00 PM 4.47 40.046 0.197 7.85 6.06 14.06
3/8/2021 12:15:00 PM 4.59 40.262 0.197 7.85 5.09 14.05
3/8/2021 12:30:00 PM 4.7 40.46 0.197 7.86 5.13 14.05
3/8/2021 12:45:00 PM 4.77 40.586 0.197 7.87 5.69 14.05
3/8/2021 1:00:00 PM 4.82 40.676 0.195 7.85 5.51 14.04
3/8/2021 1:15:00 PM 4.92 40.856 0.197 7.86 5.66 14.03
3/8/2021 1:30:00 PM 4.98 40.964 0.197 7.86 5.34 14.03
3/8/2021 1:45:00 PM 5.04 41.072 0.198 7.86 5.36 14
3/8/2021 2:00:00 PM 5.09 41.162 0.198 7.86 5.46 13.99
3/8/2021 2:15:00 PM 5.14 41.252 0.198 7.86 5.48 13.97
3/8/2021 2:30:00 PM 5.18 41.324 0.198 7.87 5.47 13.95
3/8/2021 2:45:00 PM 5.19 41.342 0.198 7.86 5.36 13.94
3/8/2021 3:00:00 PM 5.2 41.36 0.198 7.87 7.01 13.92
3/8/2021 3:15:00 PM 5.19 41.342 0.2 7.85 5.4 13.91
3/8/2021 3:30:00 PM 5.2 41.36 0.199 7.85 5.58 13.89
3/8/2021 3:45:00 PM 5.21 41.378 0.198 7.85 5.77 13.86
3/8/2021 4:00:00 PM 5.19 41.342 0.199 7.87 5.81 13.84
3/8/2021 4:15:00 PM 5.17 41.306 0.197 7.82 5.82 13.82
3/8/2021 4:30:00 PM 5.16 41.288 0.198 7.79 6.23 13.77
3/8/2021 4:45:00 PM 5.17 41.306 0.198 7.8 6.66 13.72
3/8/2021 5:00:00 PM 5.16 41.288 0.198 7.78 5.12 13.69
3/8/2021 5:15:00 PM 5.15 41.27 0.198 7.8 4.95 13.62
3/8/2021 5:30:00 PM 5.13 41.234 0.199 7.81 6.85 13.59
3/8/2021 5:45:00 PM 5.1 41.18 0.198 7.8 5.39 13.5
3/8/2021 6:00:00 PM 5.08 41.144 0.198 7.8 4.82 13.42
3/8/2021 6:15:00 PM 5.05 41.09 0.195 7.79 6.64 13.35
3/8/2021 6:30:00 PM 5.02 41.036 0.205 7.8 5.16 13.26
3/8/2021 6:45:00 PM 4.97 40.946 0.2 7.79 5.36 13.2
3/8/2021 7:00:00 PM 4.97 40.946 0.199 7.78 5.67 13.13
3/8/2021 7:15:00 PM 4.94 40.892 0.201 7.78 5.05 13.1
3/8/2021 7:30:00 PM 4.98 40.964 0.199 7.78 5.89 13.05
3/8/2021 7:45:00 PM 4.9 40.82 0.209 7.79 5.61 13.02
3/8/2021 8:00:00 PM 4.9 40.82 0.206 7.76 5.25 13
3/8/2021 8:15:00 PM 4.92 40.856 0.206 7.76 5.8 12.96
3/8/2021 8:30:00 PM 4.91 40.838 0.206 7.75 5.77 12.93
3/8/2021 8:45:00 PM 4.9 40.82 0.206 7.76 6.95 12.92
3/8/2021 9:00:00 PM 4.86 40.748 0.208 7.77 5.76 12.89
3/8/2021 9:15:00 PM 4.84 40.712 0.208 7.75 5.82 12.87
3/8/2021 9:30:00 PM 4.85 40.73 0.201 7.76 8.71 12.85
3/8/2021 9:45:00 PM 4.78 40.604 0.208 7.73 5.67 12.86
3/8/2021 10:00:00 PM 4.78 40.604 0.208 7.75 5.54 12.85
3/8/2021 10:15:00 PM 4.78 40.604 0.208 7.74 5.87 12.81
3/8/2021 10:30:00 PM 4.72 40.496 0.208 7.75 6.26 12.82
3/8/2021 10:45:00 PM 4.72 40.496 0.205 7.76 5.58 12.81
3/8/2021 11:00:00 PM 4.72 40.496 0.208 7.73 5.36 12.81
3/8/2021 11:15:00 PM 4.74 40.532 0.205 7.74 5.99 12.79
3/8/2021 11:30:00 PM 4.68 40.424 0.203 7.75 5.93 12.78
3/8/2021 11:45:00 PM 4.65 40.37 0.203 7.73 5.55 12.79
3/9/2021 12:00:00 AM 4.63 40.334 0.212 7.75 6.4 12.78
3/9/2021 12:15:00 AM 4.64 40.352 0.195 7.74 5.78 12.75
3/9/2021 12:30:00 AM 4.56 40.208 0.198 7.74 7.84 12.76
3/9/2021 12:45:00 AM 4.54 40.172 0.197 7.73 5.56 12.76
3/9/2021 1:00:00 AM 4.54 40.172 0.2 7.74 5.59 12.75
3/9/2021 1:15:00 AM 4.54 40.172 0.199 7.73 5.6 12.76
3/9/2021 1:30:00 AM 4.49 40.082 0.204 7.73 5.99 12.76
3/9/2021 1:45:00 AM 4.5 40.1 0.203 7.73 6.11 12.76
3/9/2021 2:00:00 AM 4.46 40.028 0.206 7.74 6.36 12.77
3/9/2021 2:15:00 AM 4.43 39.974 0.193 7.74 5.83 12.77
3/9/2021 2:30:00 AM 4.43 39.974 0.193 7.73 6.06 12.74
3/9/2021 2:45:00 AM 4.43 39.974 0.196 7.74 6.79 12.75
3/9/2021 3:00:00 AM 4.42 39.956 0.196 7.73 5.94 12.73
3/9/2021 3:15:00 AM 4.4 39.92 0.199 7.74 6.04 12.75
3/9/2021 3:30:00 AM 4.38 39.884 0.199 7.73 5.61 12.73
3/9/2021 3:45:00 AM 4.39 39.902 0.192 7.74 5.26 12.74
3/9/2021 4:00:00 AM 4.37 39.866 0.198 7.74 5.98 12.74
3/9/2021 4:15:00 AM 4.38 39.884 0.196 7.71 6.15 12.73
3/9/2021 4:30:00 AM 4.39 39.902 0.195 7.72 5.93 12.74
3/9/2021 4:45:00 AM 4.37 39.866 0.196 7.72 5.72 12.74
3/9/2021 5:00:00 AM 4.38 39.884 0.196 7.73 5.92 12.75
3/9/2021 5:15:00 AM 4.38 39.884 0.192 7.73 5.59 12.75
3/9/2021 5:30:00 AM 4.39 39.902 0.196 7.74 5.7 12.75
3/9/2021 5:45:00 AM 4.4 39.92 0.193 7.73 5.85 12.75
3/9/2021 6:00:00 AM 4.39 39.902 0.191 7.74 6.03 12.75
3/9/2021 6:15:00 AM 4.38 39.884 0.191 7.72 5.84 12.75
3/9/2021 6:30:00 AM 4.36 39.848 0.191 7.73 6.44 12.77
3/9/2021 6:45:00 AM 4.33 39.794 0.191 7.74 5.68 12.79
3/9/2021 7:00:00 AM 4.3 39.74 0.189 7.72 5.63 12.83
3/9/2021 7:15:00 AM 4.31 39.758 0.191 7.73 5.96 12.87
3/9/2021 7:30:00 AM 4.3 39.74 0.191 7.73 5.82 12.94
3/9/2021 7:45:00 AM 4.31 39.758 0.194 7.75 5.56 13.02
3/9/2021 8:00:00 AM 4.32 39.776 0.198 7.76 6.08 13.11
3/9/2021 8:15:00 AM 4.38 39.884 0.2 7.76 5.66 13.21
3/9/2021 8:30:00 AM 4.45 40.01 0.198 7.76 6.11 13.28
3/9/2021 8:45:00 AM 4.52 40.136 0.196 7.76 5.25 13.33
3/9/2021 9:00:00 AM 4.59 40.262 0.197 7.76 5.12 13.4
3/9/2021 9:15:00 AM 4.69 40.442 0.197 7.8 5.44 13.45
3/9/2021 9:30:00 AM 4.8 40.64 0.196 7.83 5.01 13.5
3/9/2021 9:45:00 AM 4.92 40.856 0.196 7.83 5.4 13.53
3/9/2021 10:00:00 AM 5.04 41.072 0.196 7.85 8.56 13.55
3/9/2021 10:15:00 AM 5.17 41.306 0.196 7.86 5.34 13.59
3/9/2021 10:30:00 AM 5.3 41.54 0.192 7.88 5.44 13.61
3/9/2021 10:45:00 AM 5.4 41.72 0.192 7.88 5.48 13.63
3/9/2021 11:00:00 AM 5.53 41.954 0.197 7.89 5.61 13.65
3/9/2021 11:15:00 AM 5.66 42.188 0.197 7.91 4.95 13.66
3/9/2021 11:30:00 AM 5.78 42.404 0.198 7.89 5.77 13.67
3/9/2021 11:45:00 AM 5.89 42.602 0.198 7.91 4.97 13.68
3/9/2021 12:00:00 PM 6 42.8 0.198 7.91 5.55 13.68
3/9/2021 12:15:00 PM 6.12 43.016 0.198 7.92 6.17 13.67
3/9/2021 12:30:00 PM 6.23 43.214 0.198 7.92 7.54 13.7
3/9/2021 12:45:00 PM 6.35 43.43 0.198 7.92 5.08 13.66
3/9/2021 1:00:00 PM 6.44 43.592 0.199 7.93 5.43 13.66
3/9/2021 1:15:00 PM 6.5 43.7 0.198 7.92 6.63 13.65
3/9/2021 1:30:00 PM 6.62 43.916 0.198 7.93 5.68 13.65
3/9/2021 1:45:00 PM 6.66 43.988 0.195 7.94 5.5 13.66
3/9/2021 2:00:00 PM 6.72 44.096 0.197 7.94 5.25 13.65
3/9/2021 2:15:00 PM 6.77 44.186 0.198 7.93 4.98 13.63
3/9/2021 2:30:00 PM 6.78 44.204 0.198 7.92 5.15 13.6
3/9/2021 2:45:00 PM 6.81 44.258 0.198 7.93 5.44 13.6
3/9/2021 3:00:00 PM 6.83 44.294 0.199 7.95 5.55 13.56
3/9/2021 3:15:00 PM 6.86 44.348 0.2 7.94 5.2 13.56
3/9/2021 3:30:00 PM 6.83 44.294 0.2 7.93 5.8 13.51
3/9/2021 3:45:00 PM 6.84 44.312 0.199 7.95 5.33 13.49
3/9/2021 4:00:00 PM 6.86 44.348 0.199 7.94 5.76 13.46
3/9/2021 4:15:00 PM 6.81 44.258 0.198 7.95 5.41 13.41
3/9/2021 4:30:00 PM 6.84 44.312 0.199 7.94 6.38 13.37
3/9/2021 4:45:00 PM 6.79 44.222 0.199 7.94 5.37 13.32
3/9/2021 5:00:00 PM 6.81 44.258 0.201 7.93 5.86 13.28
3/9/2021 5:15:00 PM 6.72 44.096 0.2 7.93 5.94 13.23
3/9/2021 5:30:00 PM 6.7 44.06 0.2 7.94 5.45 13.17
3/9/2021 5:45:00 PM 6.69 44.042 0.199 7.93 5.26 13.07
3/9/2021 6:00:00 PM 6.64 43.952 0.199 7.92 8.22 12.97
3/9/2021 6:15:00 PM 6.54 43.772 0.2 7.92 6.06 12.89
3/9/2021 6:30:00 PM 6.44 43.592 0.195 7.9 6.73 12.79
3/9/2021 6:45:00 PM 6.47 43.646 0.194 7.88 5.84 12.73
3/9/2021 7:00:00 PM 6.42 43.556 0.195 7.88 6.12 12.63
3/9/2021 7:15:00 PM 6.45 43.61 0.197 7.88 7.02 12.57
3/9/2021 7:30:00 PM 6.44 43.592 0.221 7.86 6.18 12.51
3/9/2021 7:45:00 PM 6.44 43.592 0.197 7.85 6.07 12.47
3/9/2021 8:00:00 PM 6.41 43.538 0.21 7.85 6.46 12.46
3/9/2021 8:15:00 PM 6.35 43.43 0.21 7.84 6.52 12.43
3/9/2021 8:30:00 PM 6.32 43.376 0.206 7.84 6.58 12.4
3/9/2021 8:45:00 PM 6.36 43.448 0.209 7.83 7.21 12.38
3/9/2021 9:00:00 PM 6.37 43.466 0.212 7.8 6.33 12.37
3/9/2021 9:15:00 PM 6.35 43.43 0.205 7.81 6.06 12.33
3/9/2021 9:30:00 PM 6.32 43.376 0.205 7.81 6.8 12.33
3/9/2021 9:45:00 PM 6.29 43.322 0.201 7.81 5.78 12.3
3/9/2021 10:00:00 PM 6.34 43.412 0.2 7.82 6.68 12.3
3/9/2021 10:15:00 PM 6.28 43.304 0.209 7.83 6.16 12.29
3/9/2021 10:30:00 PM 6.27 43.286 0.212 7.8 6.16 12.26
3/9/2021 10:45:00 PM 6.34 43.412 0.207 7.8 5.47 12.25
3/9/2021 11:00:00 PM 6.18 43.124 0.187 7.79 6.32 12.29
3/9/2021 11:15:00 PM 6.14 43.052 0.19 7.79 6.78 12.27
3/9/2021 11:30:00 PM 6.16 43.088 0.19 7.81 5.66 12.27
3/9/2021 11:45:00 PM 6.19 43.142 0.197 7.81 6.23 12.26
3/10/2021 12:00:00 AM 6.17 43.106 0.192 7.79 6.08 12.21
3/10/2021 12:15:00 AM 6.05 42.89 0.192 7.79 6.19 12.25
3/10/2021 12:30:00 AM 6.13 43.034 0.192 7.81 6.55 12.22
3/10/2021 12:45:00 AM 6.09 42.962 0.209 7.8 5.75 12.21
3/10/2021 1:00:00 AM 6.05 42.89 0.213 7.8 6.25 12.21
3/10/2021 1:15:00 AM 6.03 42.854 0.224 7.81 6.31 12.21
3/10/2021 1:30:00 AM 5.94 42.692 0.215 7.81 6.94 12.22
3/10/2021 1:45:00 AM 6.01 42.818 0.229 7.77 6.17 12.21
3/10/2021 2:00:00 AM 5.96 42.728 0.229 7.79 7.75 12.2
3/10/2021 2:15:00 AM 5.93 42.674 0.226 7.77 5.94 12.21
3/10/2021 2:30:00 AM 5.91 42.638 0.227 7.76 5.93 12.22
3/10/2021 2:45:00 AM 5.98 42.764 0.226 7.76 6.56 12.18
3/10/2021 3:00:00 AM 5.84 42.512 0.224 7.76 10.05 12.22
3/10/2021 3:15:00 AM 5.77 42.386 0.23 7.75 6.82 12.22
3/10/2021 3:30:00 AM 5.75 42.35 0.208 7.75 6.26 12.22
3/10/2021 3:45:00 AM 5.86 42.548 0.203 7.75 5.73 12.17
3/10/2021 4:00:00 AM 5.8 42.44 0.198 7.75 5.93 12.21
3/10/2021 4:15:00 AM 5.74 42.332 0.202 7.75 6.33 12.22
3/10/2021 4:30:00 AM 5.71 42.278 0.196 7.74 6.61 12.25
3/10/2021 4:45:00 AM 5.67 42.206 0.195 7.76 6.1 12.23
3/10/2021 5:00:00 AM 5.65 42.17 0.198 7.74 6.05 12.26
3/10/2021 5:15:00 AM 5.59 42.062 0.209 7.75 6.25 12.26
3/10/2021 5:30:00 AM 5.6 42.08 0.204 7.74 6.11 12.27
3/10/2021 5:45:00 AM 5.61 42.098 0.207 7.75 5.46 12.28
3/10/2021 6:00:00 AM 5.56 42.008 0.203 7.75 6.74 12.29
3/10/2021 6:15:00 AM 5.52 41.936 0.207 7.71 6.8 12.29
3/10/2021 6:30:00 AM 5.45 41.81 0.205 7.72 6.48 12.35
3/10/2021 6:45:00 AM 5.41 41.738 0.206 7.73 7.7 12.34
3/10/2021 7:00:00 AM 5.48 41.864 0.205 7.74 6.1 12.36
3/10/2021 7:15:00 AM 5.4 41.72 0.206 7.75 6.07 12.44
3/10/2021 7:30:00 AM 5.41 41.738 0.202 7.74 6.28 12.52
3/10/2021 7:45:00 AM 5.42 41.756 0.203 7.74 5.81 12.62
3/10/2021 8:00:00 AM 5.49 41.882 0.201 7.74 6.76 12.7
3/10/2021 8:15:00 AM 5.48 41.864 0.202 7.76 6.05 12.81
3/10/2021 8:30:00 AM 5.63 42.134 0.206 7.77 7.14 12.86
3/10/2021 8:45:00 AM 5.64 42.152 0.205 7.78 6.77 12.95
3/10/2021 9:00:00 AM 5.65 42.17 0.206 7.79 6.16 13.04
3/10/2021 9:15:00 AM 5.81 42.458 0.206 7.8 5.74 13.11
3/10/2021 9:30:00 AM 5.87 42.566 0.207 7.84 5.39 13.16
3/10/2021 9:45:00 AM 5.96 42.728 0.205 7.86 5.28 13.23
3/10/2021 10:00:00 AM 6.08 42.944 0.204 7.88 5.75 13.27
3/10/2021 10:15:00 AM 6.19 43.142 0.199 7.89 5.49 13.33
3/10/2021 10:30:00 AM 6.33 43.394 0.201 7.89 5.55 13.36
3/10/2021 10:45:00 AM 6.47 43.646 0.202 7.9 5.28 13.36
3/10/2021 11:00:00 AM 6.61 43.898 0.201 7.91 5.56 13.4
3/10/2021 11:15:00 AM 6.67 44.006 0.199 7.93 5.43 13.44
3/10/2021 11:30:00 AM 6.86 44.348 0.199 7.93 5.43 13.44
3/10/2021 11:45:00 AM 6.96 44.528 0.205 7.94 5.32 13.46
3/10/2021 12:00:00 PM 7.1 44.78 0.206 7.94 5.43 13.47
3/10/2021 12:15:00 PM 7.25 45.05 0.219 7.96 5.35 13.46
3/10/2021 12:30:00 PM 7.36 45.248 0.208 7.96 5.05 13.47
3/10/2021 12:45:00 PM 7.42 45.356 0.206 7.96 6.76 13.47
3/10/2021 1:00:00 PM 7.61 45.698 0.208 7.97 5.24 13.47
3/10/2021 1:15:00 PM 7.62 45.716 0.208 7.97 5.08 13.45
3/10/2021 1:30:00 PM 7.72 45.896 0.208 7.96 5.07 13.46
3/10/2021 1:45:00 PM 7.8 46.04 0.206 7.97 5.89 13.45
3/10/2021 2:00:00 PM 7.87 46.166 0.202 7.96 4.92 13.44
3/10/2021 2:15:00 PM 7.95 46.31 0.203 7.98 4.9 13.39
3/10/2021 2:30:00 PM 7.99 46.382 0.203 7.98 4.88 13.41
3/10/2021 2:45:00 PM 8.03 46.454 0.204 7.99 4.93 13.37
3/10/2021 3:00:00 PM 8.07 46.526 0.204 8.01 5.55 13.34
3/10/2021 3:15:00 PM 8.12 46.616 0.204 7.99 5.12 13.31
3/10/2021 3:30:00 PM 8.14 46.652 0.203 8 5.22 13.28
3/10/2021 3:45:00 PM 8.11 46.598 0.201 8.01 6.56 13.22
3/10/2021 4:00:00 PM 8.12 46.616 0.199 8 5.13 13.2
3/10/2021 4:15:00 PM 8.07 46.526 0.204 7.99 5.17 13.17
3/10/2021 4:30:00 PM 8.05 46.49 0.208 8 5.5 13.1
3/10/2021 4:45:00 PM 8 46.4 0.207 8.01 4.92 13.02
3/10/2021 5:00:00 PM 8 46.4 0.205 8.01 5.47 12.95
3/10/2021 5:15:00 PM 8.05 46.49 0.203 7.99 5.3 12.84
3/10/2021 5:30:00 PM 8.03 46.454 0.199 8 4.98 12.8
3/10/2021 5:45:00 PM 7.97 46.346 0.194 7.99 5.44 12.73
3/10/2021 6:00:00 PM 7.97 46.346 0.199 7.99 5.12 12.62
3/10/2021 6:15:00 PM 7.88 46.184 0.203 7.98 5.72 12.55
3/10/2021 6:30:00 PM 7.84 46.112 0.223 7.96 5.45 12.44
3/10/2021 6:45:00 PM 7.81 46.058 0.212 7.95 8.4 12.34
3/10/2021 7:00:00 PM 7.79 46.022 0.212 7.95 5.42 12.27
3/10/2021 7:15:00 PM 7.82 46.076 0.213 7.94 5.8 12.2
3/10/2021 7:30:00 PM 7.79 46.022 0.223 7.93 5.36 12.14
3/10/2021 7:45:00 PM 7.81 46.058 0.216 7.91 5.34 12.08
3/10/2021 8:00:00 PM 7.72 45.896 0.211 7.9 6.17 12.04
3/10/2021 8:15:00 PM 7.75 45.95 0.214 7.87 5.63 12.01
3/10/2021 8:30:00 PM 7.63 45.734 0.23 7.87 5.88 11.99
3/10/2021 8:45:00 PM 7.67 45.806 0.224 7.86 5.58 11.96
3/10/2021 9:00:00 PM 7.73 45.914 0.219 7.85 5.66 11.9
3/10/2021 9:15:00 PM 7.65 45.77 0.211 7.85 5.96 11.9
3/10/2021 9:30:00 PM 7.65 45.77 0.206 7.83 5.54 11.86
3/10/2021 9:45:00 PM 7.65 45.77 0.211 7.82 5.96 11.86
3/10/2021 10:00:00 PM 7.62 45.716 0.208 7.83 5.48 11.84
3/10/2021 10:15:00 PM 7.67 45.806 0.203 7.83 5.9 11.82
3/10/2021 10:30:00 PM 7.59 45.662 0.193 7.83 5.6 11.8
3/10/2021 10:45:00 PM 7.57 45.626 0.187 7.81 5.87 11.78
3/10/2021 11:00:00 PM 7.59 45.662 0.186 7.82 6.61 11.8
3/10/2021 11:15:00 PM 7.56 45.608 0.192 7.8 10.17 11.79
3/10/2021 11:30:00 PM 7.49 45.482 0.189 7.8 6.49 11.78
3/10/2021 11:45:00 PM 7.58 45.644 0.196 7.8 5.75 11.74
3/11/2021 12:00:00 AM 7.44 45.392 0.194 7.81 6.76 11.77
3/11/2021 12:15:00 AM 7.4 45.32 0.197 7.79 6.36 11.74
3/11/2021 12:30:00 AM 7.39 45.302 0.197 7.79 6.44 11.71
3/11/2021 12:45:00 AM 7.31 45.158 0.198 7.79 5.93 11.75
3/11/2021 1:00:00 AM 7.33 45.194 0.195 7.79 9.15 11.71
3/11/2021 1:15:00 AM 7.31 45.158 0.205 7.79 6.9 11.72
3/11/2021 1:30:00 AM 7.23 45.014 0.206 7.79 5.85 11.7
3/11/2021 1:45:00 AM 7.19 44.942 0.209 7.79 6.07 11.72
3/11/2021 2:00:00 AM 7.13 44.834 0.198 7.76 5.85 11.74
3/11/2021 2:15:00 AM 7.13 44.834 0.197 7.77 5.94 11.72
3/11/2021 2:30:00 AM 7.04 44.672 0.195 7.78 6.47 11.72
3/11/2021 2:45:00 AM 7.15 44.87 0.192 7.77 5.95 11.72
3/11/2021 3:00:00 AM 7.08 44.744 0.205 7.79 9.32 11.73
3/11/2021 3:15:00 AM 7.01 44.618 0.21 7.79 5.9 11.71
3/11/2021 3:30:00 AM 6.97 44.546 0.211 7.79 6.29 11.72
3/11/2021 3:45:00 AM 6.97 44.546 0.223 7.78 6.3 11.73
3/11/2021 4:00:00 AM 6.93 44.474 0.219 7.78 5.81 11.72
3/11/2021 4:15:00 AM 6.92 44.456 0.209 7.77 6.28 11.72
3/11/2021 4:30:00 AM 6.89 44.402 0.211 7.78 6.99 11.74
3/11/2021 4:45:00 AM 6.86 44.348 0.21 7.76 6.6 11.73
3/11/2021 5:00:00 AM 6.86 44.348 0.204 7.75 6.22 11.72
3/11/2021 5:15:00 AM 6.79 44.222 0.21 7.76 6.99 11.74
3/11/2021 5:30:00 AM 6.83 44.294 0.215 7.75 6.32 11.74
3/11/2021 5:45:00 AM 6.76 44.168 0.211 7.76 6.19 11.75
3/11/2021 6:00:00 AM 6.83 44.294 0.207 7.75 5.87 11.75
3/11/2021 6:15:00 AM 6.76 44.168 0.208 7.76 5.49 11.76
3/11/2021 6:30:00 AM 6.76 44.168 0.214 7.75 6.39 11.74
3/11/2021 6:45:00 AM 6.7 44.06 0.21 7.75 5.82 11.78
3/11/2021 7:00:00 AM 6.74 44.132 0.206 7.75 7.49 11.8
3/11/2021 7:15:00 AM 6.74 44.132 0.208 7.74 6.11 11.88
3/11/2021 7:30:00 AM 6.74 44.132 0.207 7.75 5.85 11.96
3/11/2021 7:45:00 AM 6.79 44.222 0.205 7.76 6.05 12.13
3/11/2021 8:00:00 AM 6.83 44.294 0.206 7.77 5.6 12.24
3/11/2021 8:15:00 AM 6.83 44.294 0.205 7.76 6.25 12.37
3/11/2021 8:30:00 AM 6.91 44.438 0.205 7.77 5.61 12.46
3/11/2021 8:45:00 AM 6.87 44.366 0.205 7.78 5.89 12.47
3/11/2021 9:00:00 AM 6.94 44.492 0.205 7.78 5.55 12.56
3/11/2021 9:15:00 AM 6.99 44.582 0.205 7.75 5.41 12.71
3/11/2021 9:30:00 AM 7.2 44.96 0.206 7.76 5.25 12.77
3/11/2021 9:45:00 AM 7.22 44.996 0.207 7.81 5.7 12.85
3/11/2021 10:00:00 AM 7.41 45.338 0.206 7.83 6.2 12.9
3/11/2021 10:15:00 AM 7.46 45.428 0.205 7.86 5.59 12.97
3/11/2021 10:30:00 AM 7.61 45.698 0.204 7.89 5.39 13.01
3/11/2021 10:45:00 AM 7.8 46.04 0.204 7.91 5.33 13.05
3/11/2021 11:00:00 AM 7.92 46.256 0.204 7.92 5.3 13.12
3/11/2021 11:15:00 AM 8.11 46.598 0.203 7.94 6.17 13.13
3/11/2021 11:30:00 AM 8.3 46.94 0.202 7.96 5.44 13.13
3/11/2021 11:45:00 AM 8.41 47.138 0.195 7.98 5.2 13.17
3/11/2021 12:00:00 PM 8.5 47.3 0.204 7.99 5.16 13.19
3/11/2021 12:15:00 PM 8.62 47.516 0.205 7.99 5.88 13.21
3/11/2021 12:30:00 PM 8.72 47.696 0.206 8.01 5.58 13.21
3/11/2021 12:45:00 PM 8.87 47.966 0.206 8.02 4.86 13.24
3/11/2021 1:00:00 PM 8.97 48.146 0.205 8.02 5.22 13.24
3/11/2021 1:15:00 PM 9.18 48.524 0.205 8.05 5.06 13.21
3/11/2021 1:30:00 PM 9.16 48.488 0.206 8.06 5.24 13.22
3/11/2021 1:45:00 PM 9.23 48.614 0.2 8.06 5.19 13.18
3/11/2021 2:00:00 PM 9.22 48.596 0.202 8.07 5.31 13.21
3/11/2021 2:15:00 PM 9.31 48.758 0.202 8.09 5.62 13.19
3/11/2021 2:30:00 PM 9.29 48.722 0.201 8.09 5.32 13.15
3/11/2021 2:45:00 PM 9.5 49.1 0.203 8.1 5.23 13.12
3/11/2021 3:00:00 PM 9.39 48.902 0.209 8.1 5.5 13.09
3/11/2021 3:15:00 PM 9.26 48.668 0.203 8.12 5.59 13.08
3/11/2021 3:30:00 PM 9.15 48.47 0.208 8.12 5.32 13.05
3/11/2021 3:45:00 PM 9.13 48.434 0.208 8.13 5.33 13.04
3/11/2021 4:00:00 PM 8.99 48.182 0.211 8.13 5.72 12.99
3/11/2021 4:15:00 PM 8.69 47.642 0.209 8.13 5.82 12.94
3/11/2021 4:30:00 PM 8.63 47.534 0.208 8.11 6.75 12.92
3/11/2021 4:45:00 PM 8.33 46.994 0.21 8.13 5.92 12.94
3/11/2021 5:00:00 PM 8.39 47.102 0.208 8.13 5.75 12.92
3/11/2021 5:15:00 PM 8.36 47.048 0.208 8.12 6.14 12.86
3/11/2021 5:30:00 PM 8.43 47.174 0.21 8.12 7.53 12.74
3/11/2021 5:45:00 PM 8.21 46.778 0.211 8.11 5.86 12.66
3/11/2021 6:00:00 PM 8.22 46.796 0.21 8.09 5.65 12.6
3/11/2021 6:15:00 PM 8.32 46.976 0.211 8.07 5.38 12.45
3/11/2021 6:30:00 PM 8.35 47.03 0.208 8.05 5.58 12.35
3/11/2021 6:45:00 PM 8.4 47.12 0.211 8.04 5.83 12.23
3/11/2021 7:00:00 PM 8.28 46.904 0.214 8 5.55 12.2
3/11/2021 7:15:00 PM 8.27 46.886 0.214 7.99 5.98 12.11
3/11/2021 7:30:00 PM 8.45 47.21 0.213 7.97 6.24 12.02
3/11/2021 7:45:00 PM 8.27 46.886 0.209 7.95 6.33 11.97
3/11/2021 8:00:00 PM 8.24 46.832 0.214 7.96 6.45 11.93
3/11/2021 8:15:00 PM 8.33 46.994 0.22 7.94 7.32 11.9
3/11/2021 8:30:00 PM 8.36 47.048 0.218 7.94 5.9 11.84
3/11/2021 8:45:00 PM 8.3 46.94 0.214 7.92 5.76 11.79
3/11/2021 9:00:00 PM 8.48 47.264 0.216 7.9 5.85 11.73
3/11/2021 9:15:00 PM 8.32 46.976 0.215 7.89 6.94 11.74
3/11/2021 9:30:00 PM 8.22 46.796 0.215 7.9 6.15 11.73
3/11/2021 9:45:00 PM 8.18 46.724 0.218 7.89 6.04 11.69
3/11/2021 10:00:00 PM 8.39 47.102 0.211 7.89 6.61 11.66
3/11/2021 10:15:00 PM 8.22 46.796 0.213 7.88 6.43 11.65
3/11/2021 10:30:00 PM 8.21 46.778 0.212 7.88 7.03 11.61
3/11/2021 10:45:00 PM 8.31 46.958 0.211 7.86 8.61 11.61
3/11/2021 11:00:00 PM 8.23 46.814 0.229 7.87 6.31 11.61
3/11/2021 11:15:00 PM 8.07 46.526 0.215 7.85 6.1 11.63
3/11/2021 11:30:00 PM 8.16 46.688 0.219 7.84 6.32 11.59
3/11/2021 11:45:00 PM 8.19 46.742 0.22 7.81 6.66 11.56
3/12/2021 12:00:00 AM 8.31 46.958 0.217 7.82 5.83 11.52
3/12/2021 12:15:00 AM 8.29 46.922 0.22 7.8 7.45 11.5
3/12/2021 12:30:00 AM 8.25 46.85 0.23 7.81 6.59 11.47
3/12/2021 12:45:00 AM 8.46 47.228 0.221 7.81 6.72 11.43
3/12/2021 1:00:00 AM 8.46 47.228 0.21 7.8 7.81 11.38
3/12/2021 1:15:00 AM 8.41 47.138 0.211 7.81 7.05 11.41
3/12/2021 1:30:00 AM 8.36 47.048 0.214 7.79 6.34 11.39
3/12/2021 1:45:00 AM 8.52 47.336 0.212 7.8 6.3 11.38
3/12/2021 2:00:00 AM 8.42 47.156 0.212 7.76 6.59 11.42
3/12/2021 2:15:00 AM 8.42 47.156 0.213 7.78 6.33 11.37
3/12/2021 2:30:00 AM 8.38 47.084 0.213 7.77 6.08 11.36
3/12/2021 2:45:00 AM 8.45 47.21 0.211 7.76 6.18 11.36
3/12/2021 3:00:00 AM 8.53 47.354 0.212 7.76 6.09 11.31
3/12/2021 3:15:00 AM 8.41 47.138 0.213 7.78 6.45 11.31
3/12/2021 3:30:00 AM 8.51 47.318 0.206 7.77 6.87 11.3
3/12/2021 3:45:00 AM 8.57 47.426 0.212 7.76 6.34 11.24
3/12/2021 4:00:00 AM 8.49 47.282 0.212 7.76 6.27 11.29
3/12/2021 4:15:00 AM 8.45 47.21 0.212 7.77 7.73 11.26
3/12/2021 4:30:00 AM 8.35 47.03 0.21 7.77 6.07 11.28
3/12/2021 4:45:00 AM 8.38 47.084 0.211 7.77 6.22 11.26
3/12/2021 5:00:00 AM 8.49 47.282 0.211 7.77 6.08 11.26
3/12/2021 5:15:00 AM 8.38 47.084 0.211 7.76 6.8 11.27
3/12/2021 5:30:00 AM 8.36 47.048 0.209 7.76 6.01 11.24
3/12/2021 5:45:00 AM 8.4 47.12 0.207 7.76 5.98 11.23
3/12/2021 6:00:00 AM 8.39 47.102 0.206 7.77 6.16 11.25
3/12/2021 6:15:00 AM 8.33 46.994 0.206 7.78 6.01 11.25
3/12/2021 6:30:00 AM 8.27 46.886 0.208 7.77 7.63 11.27
3/12/2021 6:45:00 AM 8.25 46.85 0.209 7.76 6.71 11.31
3/12/2021 7:00:00 AM 8.3 46.94 0.209 7.74 6.1 11.31
3/12/2021 7:15:00 AM 8.34 47.012 0.209 7.76 6.52 11.31
3/12/2021 7:30:00 AM 8.32 46.976 0.208 7.74 6.3 11.32
3/12/2021 7:45:00 AM 8.39 47.102 0.208 7.75 6.1 11.38
3/12/2021 8:00:00 AM 8.29 46.922 0.208 7.76 6.48 11.46
3/12/2021 8:15:00 AM 8.41 47.138 0.206 7.75 5.59 11.52
3/12/2021 8:30:00 AM 8.41 47.138 0.208 7.75 5.99 11.51
3/12/2021 8:45:00 AM 8.28 46.904 0.208 7.75 5.58 11.64
3/12/2021 9:00:00 AM 8.37 47.066 0.207 7.77 6.79 11.76
3/12/2021 9:15:00 AM 8.35 47.03 0.206 7.77 6 11.93
3/12/2021 9:30:00 AM 8.52 47.336 0.208 7.78 5.5 11.99
3/12/2021 9:45:00 AM 8.49 47.282 0.206 7.8 5.64 12.1
3/12/2021 10:00:00 AM 8.35 47.03 0.206 7.79 5.93 12.15
3/12/2021 10:15:00 AM 8.51 47.318 0.207 7.8 5.61 12.27
3/12/2021 10:30:00 AM 8.46 47.228 0.206 7.81 5.96 12.41
3/12/2021 10:45:00 AM 8.51 47.318 0.205 7.85 5.63 12.56
3/12/2021 11:00:00 AM 8.67 47.606 0.204 7.86 5.63 12.67
3/12/2021 11:15:00 AM 8.72 47.696 0.205 7.89 6.37 12.76
3/12/2021 11:30:00 AM 8.76 47.768 0.204 7.9 5.11 12.87
3/12/2021 11:45:00 AM 9.02 48.236 0.204 7.94 5.46 12.89
3/12/2021 12:00:00 PM 9 48.2 0.205 7.97 5.62 12.99
3/12/2021 12:15:00 PM 9.06 48.308 0.206 8 5.48 13.04
3/12/2021 12:30:00 PM 9.28 48.704 0.206 8.01 10.82 13.08
3/12/2021 12:45:00 PM 9.31 48.758 0.206 8.02 5.43 13.11
3/12/2021 1:00:00 PM 9.44 48.992 0.206 8.05 5.5 13.13
3/12/2021 1:15:00 PM 9.4 48.92 0.205 8.08 5.57 13.17
3/12/2021 1:30:00 PM 9.54 49.172 0.204 8.09 6.12 13.19
3/12/2021 1:45:00 PM 9.54 49.172 0.203 8.08 5.58 13.19
3/12/2021 2:00:00 PM 9.54 49.172 0.202 8.12 5.21 13.23
3/12/2021 2:15:00 PM 9.41 48.938 0.204 8.13 5.48 13.25
3/12/2021 2:30:00 PM 9.31 48.758 0.2 8.15 5.37 13.27
3/12/2021 2:45:00 PM 9.24 48.632 0.202 8.16 5.64 13.26
3/12/2021 3:00:00 PM 9.41 48.938 0.2 8.18 5.41 13.26
3/12/2021 3:15:00 PM 9.28 48.704 0.204 8.2 5.38 13.26
3/12/2021 3:30:00 PM 9.29 48.722 0.204 8.21 5.22 13.24
3/12/2021 3:45:00 PM 9.15 48.47 0.203 8.2 5.47 13.24
3/12/2021 4:00:00 PM 9.11 48.398 0.203 8.22 5.6 13.25
3/12/2021 4:15:00 PM 8.92 48.056 0.204 8.22 6.35 13.2
3/12/2021 4:30:00 PM 9.06 48.308 0.201 8.23 5.44 13.08
3/12/2021 4:45:00 PM 8.79 47.822 0.2 8.23 5.25 13.02
3/12/2021 5:00:00 PM 8.89 48.002 0.201 8.22 5.47 12.91
3/12/2021 5:15:00 PM 8.87 47.966 0.206 8.2 5.38 12.75
3/12/2021 5:30:00 PM 8.74 47.732 0.205 8.19 5.25 12.72
3/12/2021 5:45:00 PM 8.74 47.732 0.205 8.19 5.6 12.61
3/12/2021 6:00:00 PM 8.8 47.84 0.203 8.16 5.23 12.46
3/12/2021 6:15:00 PM 8.52 47.336 0.205 8.16 6.78 12.41
3/12/2021 6:30:00 PM 8.62 47.516 0.206 8.13 6.22 12.25
3/12/2021 6:45:00 PM 8.63 47.534 0.214 8.12 5.5 12.15
3/12/2021 7:00:00 PM 8.39 47.102 0.212 8.1 6.28 12.1
3/12/2021 7:15:00 PM 8.51 47.318 0.211 8.08 6.36 12
3/12/2021 7:30:00 PM 8.65 47.57 0.207 8.06 6.2 11.87
3/12/2021 7:45:00 PM 8.59 47.462 0.21 8.04 6.36 11.85
3/12/2021 8:00:00 PM 8.58 47.444 0.218 8.03 5.94 11.83
3/12/2021 8:15:00 PM 8.5 47.3 0.212 8.03 5.63 11.78
3/12/2021 8:30:00 PM 8.47 47.246 0.208 8.02 6.85 11.74
3/12/2021 8:45:00 PM 8.42 47.156 0.21 8 5.92 11.68
3/12/2021 9:00:00 PM 8.27 46.886 0.21 7.98 5.94 11.72
3/12/2021 9:15:00 PM 8.41 47.138 0.21 7.96 5.89 11.64
3/12/2021 9:30:00 PM 8.26 46.868 0.21 7.94 5.67 11.66
3/12/2021 9:45:00 PM 8.32 46.976 0.21 7.93 6.31 11.61
3/12/2021 10:00:00 PM 8.46 47.228 0.209 7.92 5.9 11.55
3/12/2021 10:15:00 PM 8.49 47.282 0.207 7.91 6.1 11.56
3/12/2021 10:30:00 PM 8.3 46.94 0.214 7.9 6.46 11.57
3/12/2021 10:45:00 PM 8.29 46.922 0.212 7.89 5.8 11.56
3/12/2021 11:00:00 PM 8.27 46.886 0.206 7.89 6.1 11.52
3/12/2021 11:15:00 PM 8.33 46.994 0.21 7.92 6.12 11.47
3/12/2021 11:30:00 PM 8.09 46.562 0.21 7.89 5.93 11.52
3/12/2021 11:45:00 PM 8.04 46.472 0.212 7.9 6.16 11.52
3/13/2021 12:00:00 AM 8 46.4 0.211 7.9 6.65 11.51
3/13/2021 12:15:00 AM 7.99 46.382 0.21 7.89 6.03 11.48
3/13/2021 12:30:00 AM 8.1 46.58 0.21 7.85 6.36 11.47
3/13/2021 12:45:00 AM 8.01 46.418 0.211 7.85 6.51 11.49
3/13/2021 1:00:00 AM 7.89 46.202 0.211 7.85 6.77 11.49
3/13/2021 1:15:00 AM 7.84 46.112 0.213 7.84 6.37 11.49
3/13/2021 1:30:00 AM 7.95 46.31 0.21 7.84 6.32 11.44
3/13/2021 1:45:00 AM 7.81 46.058 0.212 7.82 6.98 11.47
3/13/2021 2:00:00 AM 7.82 46.076 0.212 7.83 6.72 11.42
3/13/2021 2:15:00 AM 7.69 45.842 0.214 7.83 7.07 11.44
3/13/2021 2:30:00 AM 7.67 45.806 0.213 7.82 6.03 11.45
3/13/2021 2:45:00 AM 7.72 45.896 0.211 7.81 6.86 11.43
3/13/2021 3:00:00 AM 7.6 45.68 0.212 7.8 7.82 11.47
3/13/2021 3:15:00 AM 7.59 45.662 0.206 7.8 6.15 11.45
3/13/2021 3:30:00 AM 7.62 45.716 0.207 7.79 6.64 11.46
3/13/2021 3:45:00 AM 7.54 45.572 0.205 7.79 6.6 11.48
3/13/2021 4:00:00 AM 7.41 45.338 0.207 7.76 6.91 11.5
3/13/2021 4:15:00 AM 7.32 45.176 0.211 7.79 6.55 11.53
3/13/2021 4:30:00 AM 7.23 45.014 0.209 7.79 6.46 11.54
3/13/2021 4:45:00 AM 7.21 44.978 0.21 7.78 7.12 11.55
3/13/2021 5:00:00 AM 7.23 45.014 0.211 7.76 6.36 11.54
3/13/2021 5:15:00 AM 7.18 44.924 0.213 7.77 6.62 11.54
3/13/2021 5:30:00 AM 6.99 44.582 0.207 7.77 10.64 11.58
3/13/2021 5:45:00 AM 6.99 44.582 0.209 7.77 6.79 11.59
3/13/2021 6:00:00 AM 6.84 44.312 0.208 7.77 6.9 11.64
3/13/2021 6:15:00 AM 6.87 44.366 0.209 7.77 6.51 11.65
3/13/2021 6:30:00 AM 6.88 44.384 0.203 7.76 6.23 11.67
3/13/2021 6:45:00 AM 6.68 44.024 0.203 7.76 6.26 11.77
3/13/2021 7:00:00 AM 6.74 44.132 0.203 7.77 6.23 11.79
3/13/2021 7:15:00 AM 6.75 44.15 0.203 7.76 6.41 11.9
3/13/2021 7:30:00 AM 6.71 44.078 0.204 7.77 6.01 12
3/13/2021 7:45:00 AM 6.61 43.898 0.204 7.77 6.66 12.18
3/13/2021 8:00:00 AM 6.7 44.06 0.203 7.78 6.12 12.3
3/13/2021 8:15:00 AM 6.68 44.024 0.203 7.81 6.33 12.44
3/13/2021 8:30:00 AM 6.77 44.186 0.202 7.79 6.19 12.54
3/13/2021 8:45:00 AM 6.75 44.15 0.203 7.81 6.52 12.68
3/13/2021 9:00:00 AM 6.84 44.312 0.203 7.82 7 12.77
3/13/2021 9:15:00 AM 6.93 44.474 0.202 7.85 6.12 12.88
3/13/2021 9:30:00 AM 7.08 44.744 0.201 7.87 6.31 12.93
3/13/2021 9:45:00 AM 7.11 44.798 0.202 7.91 6.58 13.01
3/13/2021 10:00:00 AM 7.13 44.834 0.202 7.93 6.16 13.11
3/13/2021 10:15:00 AM 7.22 44.996 0.203 7.94 5.62 13.18
3/13/2021 10:30:00 AM 7.37 45.266 0.202 7.96 5.69 13.22
3/13/2021 10:45:00 AM 7.48 45.464 0.202 7.98 7.32 13.27
3/13/2021 11:00:00 AM 7.55 45.59 0.201 7.99 5.59 13.34
3/13/2021 11:15:00 AM 7.65 45.77 0.202 7.98 5.71 13.4
3/13/2021 11:30:00 AM 7.82 46.076 0.2 8.01 5.74 13.44
3/13/2021 11:45:00 AM 7.91 46.238 0.2 8.02 5.4 13.49
3/13/2021 12:00:00 PM 7.97 46.346 0.202 8.04 6.87 13.52
3/13/2021 12:15:00 PM 8.08 46.544 0.202 8.06 5.2 13.56
3/13/2021 12:30:00 PM 8.14 46.652 0.202 8.07 5.74 13.56
3/13/2021 12:45:00 PM 8.36 47.048 0.201 8.07 5.35 13.57
3/13/2021 1:00:00 PM 8.39 47.102 0.201 8.08 5.41 13.6
3/13/2021 1:15:00 PM 8.47 47.246 0.201 8.11 5.67 13.62
3/13/2021 1:30:00 PM 8.47 47.246 0.203 8.13 5.52 13.65
3/13/2021 1:45:00 PM 8.54 47.372 0.201 8.13 5.37 13.63
3/13/2021 2:00:00 PM 8.65 47.57 0.201 8.13 6.04 13.63
3/13/2021 2:15:00 PM 8.7 47.66 0.2 8.13 5.94 13.61
3/13/2021 2:30:00 PM 8.53 47.354 0.203 8.14 5.51 13.59
3/13/2021 2:45:00 PM 8.56 47.408 0.203 8.16 5.81 13.59
3/13/2021 3:00:00 PM 8.5 47.3 0.205 8.17 5.46 13.57
3/13/2021 3:15:00 PM 8.5 47.3 0.205 8.18 5.84 13.56
3/13/2021 3:30:00 PM 8.48 47.264 0.205 8.19 5.78 13.55
3/13/2021 3:45:00 PM 8.57 47.426 0.205 8.19 5.61 13.5
3/13/2021 4:00:00 PM 8.45 47.21 0.206 8.2 5.37 13.49
3/13/2021 4:15:00 PM 8.39 47.102 0.205 8.21 5.98 13.42
3/13/2021 4:30:00 PM 8.14 46.652 0.206 8.22 5.34 13.34
3/13/2021 4:45:00 PM 8.14 46.652 0.205 8.21 5.36 13.27
3/13/2021 5:00:00 PM 8.09 46.562 0.206 8.2 7.83 13.16
3/13/2021 5:15:00 PM 7.96 46.328 0.207 8.2 6.08 13.11
3/13/2021 5:30:00 PM 8.03 46.454 0.207 7.74 5.53 13.02
3/13/2021 5:45:00 PM 7.83 46.094 0.209 8.08 5.84 12.93
3/13/2021 6:00:00 PM 7.84 46.112 0.208 8.12 5.64 12.81
3/13/2021 6:15:00 PM 7.74 45.932 0.209 8.13 5.23 12.68
3/13/2021 6:30:00 PM 7.55 45.59 0.209 8.12 6.01 12.64
3/13/2021 6:45:00 PM 7.59 45.662 0.209 8.1 5.77 12.48
3/13/2021 7:00:00 PM 7.52 45.536 0.218 8.07 5.7 12.38
3/13/2021 7:15:00 PM 7.55 45.59 0.218 8.06 5.92 12.28
3/13/2021 7:30:00 PM 7.4 45.32 0.211 8.05 5.78 12.24
3/13/2021 7:45:00 PM 7.33 45.194 0.219 8.03 5.75 12.19
3/13/2021 8:00:00 PM 7.39 45.302 0.219 8.02 6.53 12.14
3/13/2021 8:15:00 PM 7.36 45.248 0.22 8.02 5.82 12.07
3/13/2021 8:30:00 PM 7.34 45.212 0.218 8 6.2 12.06
3/13/2021 8:45:00 PM 7.29 45.122 0.218 8.01 6.18 12.01
3/13/2021 9:00:00 PM 7.15 44.87 0.219 8 6.11 12.02
3/13/2021 9:15:00 PM 7.15 44.87 0.216 7.98 6.07 11.99
3/13/2021 9:30:00 PM 7.22 44.996 0.216 7.98 6.11 11.95
3/13/2021 9:45:00 PM 7.15 44.87 0.217 7.96 6.2 11.94
3/13/2021 10:00:00 PM 7.02 44.636 0.22 7.97 6.12 11.93
3/13/2021 10:15:00 PM 7.07 44.726 0.218 7.94 6.44 11.92
3/13/2021 10:30:00 PM 7.12 44.816 0.221 7.95 7.08 11.9
3/13/2021 10:45:00 PM 7.01 44.618 0.218 7.95 6.57 11.91
3/13/2021 11:00:00 PM 6.98 44.564 0.219 7.92 6.3 11.9
3/13/2021 11:15:00 PM 6.93 44.474 0.217 7.93 6.16 11.88
3/13/2021 11:30:00 PM 6.94 44.492 0.212 7.92 5.93 11.87
3/13/2021 11:45:00 PM 6.9 44.42 0.214 7.91 6.31 11.86
3/14/2021 12:00:00 AM 6.8 44.24 0.216 7.91 6.65 11.88
3/14/2021 12:15:00 AM 6.85 44.33 0.217 7.78 6.39 11.83
3/14/2021 12:30:00 AM 6.74 44.132 0.217 7.79 6.76 11.85
3/14/2021 12:45:00 AM 6.73 44.114 0.217 7.8 7.05 11.87
3/14/2021 1:00:00 AM 6.64 43.952 0.217 7.81 6.41 11.84
3/14/2021 1:15:00 AM 6.52 43.736 0.218 7.82 6.26 11.85
3/14/2021 1:30:00 AM 6.49 43.682 0.217 7.82 6.42 11.82
3/14/2021 1:45:00 AM 6.49 43.682 0.216 7.82 6.81 11.81
3/14/2021 3:00:00 AM 6.39 43.502 0.217 7.81 6.48 11.77
3/14/2021 3:15:00 AM 6.27 43.286 0.217 7.79 6.37 11.82
3/14/2021 3:30:00 AM 6.17 43.106 0.219 7.81 6.75 11.82
3/14/2021 3:45:00 AM 6.33 43.394 0.218 7.79 6.49 11.79
3/14/2021 5:00:00 AM 6.29 43.322 0.215 7.81 6.5 11.81
3/14/2021 5:15:00 AM 6.19 43.142 0.218 7.81 6.9 11.82
3/14/2021 5:30:00 AM 6.13 43.034 0.22 7.8 6.37 11.84
3/14/2021 5:45:00 AM 6.13 43.034 0.218 7.79 7.37 11.85
3/14/2021 6:00:00 AM 6.1 42.98 0.22 7.75 6.51 11.84
3/14/2021 6:15:00 AM 6.17 43.106 0.219 7.69 7.03 11.84
3/14/2021 6:30:00 AM 6.1 42.98 0.218 7.73 6.64 11.86
3/14/2021 6:45:00 AM 6.08 42.944 0.219 7.74 6.66 11.87
3/14/2021 7:00:00 AM 6.01 42.818 0.219 7.7 6.39 11.89
3/14/2021 7:15:00 AM 6 42.8 0.218 7.72 12.59 11.87
3/14/2021 7:30:00 AM 5.97 42.746 0.218 7.74 6.97 11.89
3/14/2021 7:45:00 AM 5.94 42.692 0.219 7.72 6.36 11.95
3/14/2021 8:00:00 AM 5.92 42.656 0.218 7.73 6.61 12.02
3/14/2021 8:15:00 AM 5.96 42.728 0.218 7.74 7.63 12.12
3/14/2021 8:30:00 AM 5.97 42.746 0.22 7.71 6.05 12.22
3/14/2021 8:45:00 AM 6 42.8 0.22 7.74 5.95 12.34
3/14/2021 9:00:00 AM 6.02 42.836 0.218 7.75 6.13 12.48
3/14/2021 9:15:00 AM 6.11 42.998 0.218 7.78 6.61 12.58
3/14/2021 9:30:00 AM 6.17 43.106 0.216 7.81 5.73 12.69
3/14/2021 9:45:00 AM 6.19 43.142 0.21 7.83 5.76 12.82
3/14/2021 10:00:00 AM 6.28 43.304 0.211 7.84 5.86 12.9
3/14/2021 10:15:00 AM 6.36 43.448 0.211 7.84 6.12 13.01
3/14/2021 10:30:00 AM 6.49 43.682 0.211 7.87 5.69 13.1
3/14/2021 10:45:00 AM 6.61 43.898 0.219 7.88 5.76 13.17
3/14/2021 11:00:00 AM 6.73 44.114 0.219 7.87 5.75 13.25
3/14/2021 11:15:00 AM 6.82 44.276 0.221 7.9 5.37 13.31
3/14/2021 11:30:00 AM 6.95 44.51 0.214 7.94 5.69 13.37
3/14/2021 11:45:00 AM 7.09 44.762 0.223 7.95 5.47 13.42
3/14/2021 12:00:00 PM 7.18 44.924 0.225 7.93 5.6 13.45
3/14/2021 12:15:00 PM 7.27 45.086 0.222 7.95 5.59 13.47
3/14/2021 12:30:00 PM 7.43 45.374 0.217 7.98 5.54 13.51
3/14/2021 12:45:00 PM 7.52 45.536 0.223 8 5.26 13.55
3/14/2021 1:00:00 PM 7.6 45.68 0.218 8.03 5.73 13.56
3/14/2021 1:15:00 PM 7.73 45.914 0.221 8.05 7.13 13.59
3/14/2021 1:30:00 PM 7.83 46.094 0.223 8.08 6.79 13.62
3/14/2021 1:45:00 PM 7.87 46.166 0.223 8.09 6.93 13.63
3/14/2021 2:00:00 PM 7.94 46.292 0.223 8.1 6.08 13.64
3/14/2021 2:15:00 PM 7.96 46.328 0.217 8.12 6.27 13.62
3/14/2021 2:30:00 PM 8 46.4 0.218 8.13 5.86 13.63
3/14/2021 2:45:00 PM 8.07 46.526 0.218 8.11 5.74 13.62
3/14/2021 3:00:00 PM 8.06 46.508 0.218 8.12 5.38 13.62
3/14/2021 3:15:00 PM 8.07 46.526 0.218 8.13 5.57 13.62
3/14/2021 3:30:00 PM 8.13 46.634 0.22 8.15 5.67 13.63
3/14/2021 3:45:00 PM 8.15 46.67 0.22 8.15 5.65 13.6
3/14/2021 4:00:00 PM 8.04 46.472 0.221 8.15 6.17 13.59
3/14/2021 4:15:00 PM 8.06 46.508 0.22 8.16 5.45 13.56
3/14/2021 4:30:00 PM 8.1 46.58 0.22 8.16 5.57 13.52
3/14/2021 4:45:00 PM 7.98 46.364 0.22 8.15 5.57 13.5
3/14/2021 5:00:00 PM 7.9 46.22 0.219 8.16 5.48 13.45
3/14/2021 5:15:00 PM 7.86 46.148 0.218 8.18 5.76 13.46
3/14/2021 5:30:00 PM 7.7 45.86 0.218 8.16 5.41 13.38
3/14/2021 5:45:00 PM 7.57 45.626 0.218 8.17 5.8 13.32
3/14/2021 6:00:00 PM 7.45 45.41 0.219 8.16 5.26 13.25
3/14/2021 6:15:00 PM 7.54 45.572 0.219 8.17 6 13.14
3/14/2021 6:30:00 PM 7.43 45.374 0.219 8.18 5.66 13.07
3/14/2021 6:45:00 PM 7.27 45.086 0.222 8.17 5.77 13
3/14/2021 7:00:00 PM 7.34 45.212 0.22 8.18 6.15 12.87
3/14/2021 7:15:00 PM 7.31 45.158 0.22 8.15 5.72 12.76
3/14/2021 7:30:00 PM 7.21 44.978 0.219 8.13 5.3 12.62
3/14/2021 7:45:00 PM 7.14 44.852 0.221 8.1 5.15 12.53
3/14/2021 8:00:00 PM 7.03 44.654 0.221 8.08 5.61 12.43
3/14/2021 8:15:00 PM 6.99 44.582 0.22 8.07 6.71 12.34
3/14/2021 8:30:00 PM 7 44.6 0.218 8.06 5.49 12.28
3/14/2021 8:45:00 PM 6.88 44.384 0.221 8.05 5.42 12.21
3/14/2021 9:00:00 PM 6.85 44.33 0.226 8.05 6.11 12.17
3/14/2021 9:15:00 PM 6.82 44.276 0.227 8.02 6.74 12.13
3/14/2021 9:30:00 PM 6.81 44.258 0.225 7.98 5.82 12.09
3/14/2021 9:45:00 PM 6.59 43.862 0.226 7.98 5.81 12.09
3/14/2021 10:00:00 PM 6.75 44.15 0.222 7.97 5.71 12.04
3/14/2021 10:15:00 PM 6.81 44.258 0.22 7.93 6.09 12.02
3/14/2021 10:30:00 PM 6.65 43.97 0.222 7.94 5.9 12.02
3/14/2021 10:45:00 PM 6.78 44.204 0.223 7.91 6.25 11.97
3/14/2021 11:00:00 PM 6.74 44.132 0.224 7.9 8.32 11.98
3/14/2021 11:15:00 PM 6.68 44.024 0.223 7.9 6.17 11.96
3/14/2021 11:30:00 PM 6.68 44.024 0.221 7.87 6.47 11.95
3/14/2021 11:45:00 PM 6.66 43.988 0.223 7.89 5.67 11.92
3/15/2021 12:00:00 AM 6.62 43.916 0.216 7.87 7.28 11.91
3/15/2021 12:15:00 AM 6.45 43.61 0.219 7.86 6.45 11.9
3/15/2021 12:30:00 AM 6.49 43.682 0.218 7.86 7.12 11.89
3/15/2021 12:45:00 AM 6.38 43.484 0.216 7.82 6.58 11.91
3/15/2021 1:00:00 AM 6.33 43.394 0.218 7.79 7.62 11.92
3/15/2021 1:15:00 AM 6.31 43.358 0.218 7.81 7.09 11.94
3/15/2021 1:30:00 AM 6.24 43.232 0.219 7.82 7.36 11.93
3/15/2021 1:45:00 AM 6.22 43.196 0.218 7.81 6.83 11.95
3/15/2021 2:00:00 AM 6.2 43.16 0.22 7.81 7.98 11.97
3/15/2021 2:15:00 AM 6.17 43.106 0.219 7.8 6.33 11.97
3/15/2021 2:30:00 AM 6.16 43.088 0.22 7.79 6.68 11.97
3/15/2021 2:45:00 AM 6.02 42.836 0.218 7.8 6.7 11.99
3/15/2021 3:00:00 AM 6 42.8 0.234 7.79 7.08 11.99
3/15/2021 3:15:00 AM 5.97 42.746 0.228 7.79 6.74 12
3/15/2021 3:30:00 AM 5.91 42.638 0.228 7.78 6.63 12.02
3/15/2021 3:45:00 AM 5.88 42.584 0.227 7.78 7.45 12.01
3/15/2021 4:00:00 AM 5.82 42.476 0.224 7.77 6.85 12.05
3/15/2021 4:15:00 AM 5.77 42.386 0.224 7.83 7.04 12.04
3/15/2021 4:30:00 AM 5.7 42.26 0.227 7.83 6.8 12.07
3/15/2021 4:45:00 AM 5.72 42.296 0.224 7.81 6.81 12.07
3/15/2021 5:00:00 AM 5.61 42.098 0.226 7.82 7.45 12.09
3/15/2021 5:15:00 AM 5.58 42.044 0.225 7.79 9.4 12.1
3/15/2021 5:30:00 AM 5.55 41.99 0.224 7.78 8.3 12.1
3/15/2021 5:45:00 AM 5.53 41.954 0.225 7.78 7.18 12.12
3/15/2021 6:00:00 AM 5.45 41.81 0.226 7.79 6.83 12.17
3/15/2021 6:15:00 AM 5.41 41.738 0.224 7.82 6.63 12.17
3/15/2021 6:30:00 AM 5.37 41.666 0.224 7.83 7.03 12.2
3/15/2021 6:45:00 AM 5.35 41.63 0.226 7.82 7.71 12.19
3/15/2021 7:00:00 AM 5.29 41.522 0.226 7.82 10.29 12.21
3/15/2021 7:15:00 AM 5.27 41.486 0.223 7.82 6.23 12.23
3/15/2021 7:30:00 AM 5.22 41.396 0.224 7.82 6.53 12.24
3/15/2021 7:45:00 AM 5.19 41.342 0.224 7.83 6.61 12.3
3/15/2021 8:00:00 AM 5.17 41.306 0.224 7.83 6.43 12.39
3/15/2021 8:15:00 AM 5.14 41.252 0.224 7.82 6.11 12.48
3/15/2021 8:30:00 AM 5.11 41.198 0.223 7.83 6.48 12.62
3/15/2021 8:45:00 AM 5.09 41.162 0.223 7.84 5.8 12.77
3/15/2021 9:00:00 AM 5.1 41.18 0.223 7.85 6.36 12.9
3/15/2021 9:15:00 AM 5.14 41.252 0.223 7.86 5.92 13.03
3/15/2021 9:30:00 AM 5.17 41.306 0.224 7.87 6.93 13.13
3/15/2021 9:45:00 AM 5.21 41.378 0.223 7.87 6.08 13.27
3/15/2021 10:00:00 AM 5.27 41.486 0.224 7.89 5.73 13.36
3/15/2021 10:15:00 AM 5.34 41.612 0.224 7.92 5.78 13.45
3/15/2021 10:30:00 AM 5.43 41.774 0.224 7.93 5.94 13.53
3/15/2021 10:45:00 AM 5.5 41.9 0.224 7.97 5.96 13.62
3/15/2021 11:00:00 AM 5.6 42.08 0.223 7.98 5.73 13.7
3/15/2021 11:15:00 AM 5.72 42.296 0.223 8 6.01 13.76
3/15/2021 11:30:00 AM 5.85 42.53 0.223 8.02 5.65 13.83
3/15/2021 11:45:00 AM 5.98 42.764 0.223 8.04 5.57 13.87
3/15/2021 12:00:00 PM 6.11 42.998 0.226 8.04 5.75 13.92
3/15/2021 12:15:00 PM 6.24 43.232 0.224 8.07 6.72 13.94
3/15/2021 12:30:00 PM 6.38 43.484 0.223 8.08 5.72 13.97
3/15/2021 12:45:00 PM 6.49 43.682 0.223 8.09 6.21 14.01
3/15/2021 1:00:00 PM 6.6 43.88 0.222 8.1 6.29 14.04
3/15/2021 1:15:00 PM 6.7 44.06 0.223 8.11 5.44 14.07
3/15/2021 1:30:00 PM 6.81 44.258 0.224 8.12 5.44 14.07
3/15/2021 1:45:00 PM 6.9 44.42 0.224 8.13 20.12 14.09
3/15/2021 2:00:00 PM 6.98 44.564 0.225 8.15 6.97 14.1
3/15/2021 2:15:00 PM 7.06 44.708 0.223 8.15 8.5 14.11
3/15/2021 2:30:00 PM 7.1 44.78 0.218 8.15 7.55 14.09
3/15/2021 2:45:00 PM 7.12 44.816 0.218 8.16 34.85 14.12
3/15/2021 3:00:00 PM 7.15 44.87 0.217 8.16 35.27 14.12
3/15/2021 3:15:00 PM 7.14 44.852 0.218 8.16 20.81 14.11
3/15/2021 3:30:00 PM 7.12 44.816 0.219 8.18 21.27 14.09
3/15/2021 3:45:00 PM 7.12 44.816 0.22 8.18 12.12 14.08
3/15/2021 4:00:00 PM 7.11 44.798 0.22 8.19 24.78 14.05
3/15/2021 4:15:00 PM 7.05 44.69 0.221 8.21 6.15 14.03
3/15/2021 4:30:00 PM 7.03 44.654 0.221 8.19 80.3 14.01
3/15/2021 4:45:00 PM 6.99 44.582 0.22 8.19 5.64 14
3/15/2021 5:00:00 PM 6.9 44.42 0.221 8.2 5.99 14.01
3/15/2021 5:15:00 PM 6.89 44.402 0.219 8.2 6.72 13.95
3/15/2021 5:30:00 PM 6.75 44.15 0.222 8.21 5.55 13.93
3/15/2021 5:45:00 PM 6.74 44.132 0.223 8.2 6.48 13.87
3/15/2021 6:00:00 PM 6.71 44.078 0.223 8.19 5.71 13.78
3/15/2021 6:15:00 PM 6.68 44.024 0.224 8.16 5.44 13.72
3/15/2021 6:30:00 PM 6.66 43.988 0.224 8.17 5.41 13.63
3/15/2021 6:45:00 PM 6.6 43.88 0.226 8.17 5.68 13.53
3/15/2021 7:00:00 PM 6.54 43.772 0.225 8.15 5.49 13.4
3/15/2021 7:15:00 PM 6.5 43.7 0.225 8.16 5.88 13.27
3/15/2021 7:30:00 PM 6.46 43.628 0.224 8.16 5.93 13.13
3/15/2021 7:45:00 PM 6.44 43.592 0.224 8.13 5.57 13.01
3/15/2021 8:00:00 PM 6.42 43.556 0.223 8.05 5.53 12.91
3/15/2021 8:15:00 PM 6.39 43.502 0.225 8.07 5.54 12.83
3/15/2021 8:30:00 PM 6.42 43.556 0.22 8.04 5.69 12.76
3/15/2021 8:45:00 PM 6.41 43.538 0.219 8.03 5.7 12.67
3/15/2021 9:00:00 PM 6.41 43.538 0.22 8.03 6.22 12.64
3/15/2021 9:15:00 PM 6.41 43.538 0.219 8 6.15 12.59
3/15/2021 9:30:00 PM 6.41 43.538 0.222 7.98 6.06 12.53
3/15/2021 9:45:00 PM 6.44 43.592 0.221 7.97 5.45 12.5
3/15/2021 10:00:00 PM 6.42 43.556 0.222 7.96 5.82 12.49
3/15/2021 10:15:00 PM 6.45 43.61 0.221 7.94 5.55 12.44
3/15/2021 10:30:00 PM 6.46 43.628 0.222 7.93 6.33 12.41
3/15/2021 10:45:00 PM 6.51 43.718 0.221 7.92 5.85 12.38
3/15/2021 11:00:00 PM 6.52 43.736 0.224 7.92 5.6 12.36
3/15/2021 11:15:00 PM 6.5 43.7 0.224 7.93 6.34 12.35
3/15/2021 11:30:00 PM 6.5 43.7 0.225 7.92 5.94 12.3
3/15/2021 11:45:00 PM 6.54 43.772 0.223 7.93 5.94 12.28
3/16/2021 12:00:00 AM 6.54 43.772 0.223 7.92 6.04 12.28
3/16/2021 12:15:00 AM 6.53 43.754 0.222 7.92 5.99 12.28
3/16/2021 12:30:00 AM 6.51 43.718 0.222 7.9 5.86 12.26
3/16/2021 12:45:00 AM 6.49 43.682 0.222 7.89 6.03 12.25
3/16/2021 1:00:00 AM 6.46 43.628 0.222 7.89 5.79 12.25
3/16/2021 1:15:00 AM 6.44 43.592 0.222 7.87 5.54 12.24
3/16/2021 1:30:00 AM 6.39 43.502 0.225 7.87 6.1 12.23
3/16/2021 1:45:00 AM 6.35 43.43 0.225 7.86 6.23 12.22
3/16/2021 2:00:00 AM 6.3 43.34 0.224 7.87 5.74 12.2
3/16/2021 2:15:00 AM 6.26 43.268 0.225 7.87 5.88 12.2
3/16/2021 2:30:00 AM 6.23 43.214 0.223 7.87 6.66 12.2
3/16/2021 2:45:00 AM 6.19 43.142 0.223 7.86 6.48 12.19
3/16/2021 3:00:00 AM 6.1 42.98 0.223 7.85 7.78 12.19
3/16/2021 3:15:00 AM 6 42.8 0.223 7.85 5.86 12.18
3/16/2021 3:30:00 AM 5.93 42.674 0.225 7.82 6.01 12.14
3/16/2021 3:45:00 AM 5.87 42.566 0.224 7.82 6.06 12.14
3/16/2021 4:00:00 AM 5.83 42.494 0.225 7.82 6.16 12.14
3/16/2021 4:15:00 AM 5.79 42.422 0.224 7.8 6.46 12.12
3/16/2021 4:30:00 AM 5.77 42.386 0.226 7.8 6.08 12.1
3/16/2021 4:45:00 AM 5.75 42.35 0.225 7.8 6.32 12.11
3/16/2021 5:00:00 AM 5.74 42.332 0.224 7.79 6.18 12.13
3/16/2021 5:15:00 AM 5.73 42.314 0.224 7.77 6.08 12.12
3/16/2021 5:30:00 AM 5.72 42.296 0.222 7.77 6.86 12.14
3/16/2021 5:45:00 AM 5.7 42.26 0.222 7.76 6.44 12.13
3/16/2021 6:00:00 AM 5.69 42.242 0.223 7.79 6.52 12.13
3/16/2021 6:15:00 AM 5.68 42.224 0.223 7.79 6.69 12.13
3/16/2021 6:30:00 AM 5.67 42.206 0.223 7.78 6.59 12.11
3/16/2021 6:45:00 AM 5.66 42.188 0.224 7.79 5.98 12.13
3/16/2021 7:00:00 AM 5.67 42.206 0.225 7.79 6.17 12.13
3/16/2021 7:15:00 AM 5.67 42.206 0.226 7.81 6.4 12.12
3/16/2021 7:30:00 AM 5.69 42.242 0.227 7.81 6.01 12.15
3/16/2021 7:45:00 AM 5.71 42.278 0.228 7.8 5.87 12.15
3/16/2021 8:00:00 AM 5.73 42.314 0.227 7.81 6.36 12.2
3/16/2021 8:15:00 AM 5.75 42.35 0.227 7.82 6.1 12.23
3/16/2021 8:30:00 AM 5.78 42.404 0.226 7.82 6.51 12.3
3/16/2021 8:45:00 AM 5.82 42.476 0.226 7.82 6.1 12.42
3/16/2021 9:00:00 AM 5.83 42.494 0.225 7.81 5.6 12.57
3/16/2021 9:15:00 AM 5.82 42.476 0.222 7.81 5.31 12.62
3/16/2021 9:30:00 AM 5.78 42.404 0.22 7.81 5.98 12.65
3/16/2021 9:45:00 AM 5.76 42.368 0.219 7.79 5.79 12.75
3/16/2021 10:00:00 AM 5.77 42.386 0.219 7.8 6.19 12.87
3/16/2021 10:15:00 AM 5.77 42.386 0.221 7.8 5.53 13.02
3/16/2021 10:30:00 AM 5.85 42.53 0.223 7.82 5.62 13.14
3/16/2021 10:45:00 AM 5.95 42.71 0.223 7.85 5.79 13.24
3/16/2021 11:00:00 AM 6.06 42.908 0.222 7.86 5.59 13.42
3/16/2021 11:15:00 AM 6.15 43.07 0.223 7.89 5.62 13.56
3/16/2021 11:30:00 AM 6.2 43.16 0.22 7.93 5.63 13.63
3/16/2021 11:45:00 AM 6.21 43.178 0.221 7.94 5.51 13.69
3/16/2021 12:00:00 PM 6.26 43.268 0.221 7.94 5.26 13.74
3/16/2021 12:15:00 PM 6.32 43.376 0.221 7.97 5.48 13.83
3/16/2021 12:30:00 PM 6.32 43.376 0.221 7.97 5.24 13.9
3/16/2021 12:45:00 PM 6.35 43.43 0.223 7.99 5.34 13.93
3/16/2021 1:00:00 PM 6.38 43.484 0.223 8.01 5.29 13.93
3/16/2021 1:15:00 PM 6.43 43.574 0.222 8.03 5.36 14.01
3/16/2021 1:30:00 PM 6.46 43.628 0.222 8.05 5.12 14.06
3/16/2021 1:45:00 PM 6.49 43.682 0.221 8.06 5.24 14.08
3/16/2021 2:00:00 PM 6.52 43.736 0.226 8.07 5.32 14.09
3/16/2021 2:15:00 PM 6.54 43.772 0.226 8.1 5.5 14.11
3/16/2021 2:30:00 PM 6.54 43.772 0.229 8.12 5.41 14.11
3/16/2021 2:45:00 PM 6.52 43.736 0.228 8.14 5.19 14.06
3/16/2021 3:00:00 PM 6.49 43.682 0.226 8.14 5.15 13.96
3/16/2021 3:15:00 PM 6.49 43.682 0.226 8.13 5.27 13.83
3/16/2021 3:30:00 PM 6.48 43.664 0.228 8.13 5.35 13.84
3/16/2021 3:45:00 PM 6.48 43.664 0.228 8.14 5.47 13.91
3/16/2021 4:00:00 PM 6.46 43.628 0.227 8.14 5.01 13.94
3/16/2021 4:15:00 PM 6.46 43.628 0.228 8.16 5.05 13.92
3/16/2021 4:30:00 PM 6.44 43.592 0.227 8.16 5.15 13.97
3/16/2021 4:45:00 PM 6.45 43.61 0.229 8.17 6.66 13.9
3/16/2021 5:00:00 PM 6.44 43.592 0.229 8.18 5.43 13.83
3/16/2021 5:15:00 PM 6.43 43.574 0.229 8.18 5.78 13.71
3/16/2021 5:30:00 PM 6.41 43.538 0.229 8.18 6.04 13.62
3/16/2021 5:45:00 PM 6.39 43.502 0.227 8.17 5.28 13.54
3/16/2021 6:00:00 PM 6.36 43.448 0.227 8.16 5.42 13.49
3/16/2021 6:15:00 PM 6.37 43.466 0.228 8.14 5.34 13.39
3/16/2021 6:30:00 PM 6.35 43.43 0.228 8.12 5.49 13.29
3/16/2021 6:45:00 PM 6.33 43.394 0.228 8.1 5.44 13.2
3/16/2021 7:00:00 PM 6.3 43.34 0.229 8.09 5.52 13.14
3/16/2021 7:15:00 PM 6.3 43.34 0.229 8.07 7.56 13.01
3/16/2021 7:30:00 PM 6.27 43.286 0.229 8.04 6.24 12.95
3/16/2021 7:45:00 PM 6.24 43.232 0.224 8.02 5.62 12.88
3/16/2021 8:00:00 PM 6.23 43.214 0.225 8.01 5.5 12.8
3/16/2021 8:15:00 PM 6.22 43.196 0.219 8.01 5.59 12.75
3/16/2021 8:30:00 PM 6.23 43.214 0.219 8.03 5.41 12.68
3/16/2021 8:45:00 PM 6.2 43.16 0.219 8.02 5.49 12.63
3/16/2021 9:00:00 PM 6.17 43.106 0.219 8 5.48 12.59
3/16/2021 9:15:00 PM 6.15 43.07 0.219 7.99 5.52 12.54
3/16/2021 9:30:00 PM 6.13 43.034 0.218 7.97 5.91 12.51
3/16/2021 9:45:00 PM 6.11 42.998 0.215 7.93 5.55 12.49
3/16/2021 10:00:00 PM 6.1 42.98 0.22 7.93 5.85 12.46
3/16/2021 10:15:00 PM 6.08 42.944 0.213 7.91 5.63 12.45
3/16/2021 10:30:00 PM 6.08 42.944 0.224 7.89 5.97 12.42
3/16/2021 10:45:00 PM 6.07 42.926 0.22 7.88 5.48 12.4
3/16/2021 11:00:00 PM 6.06 42.908 0.217 7.86 6.24 12.4
3/16/2021 11:15:00 PM 6.05 42.89 0.217 7.88 5.78 12.35
3/16/2021 11:30:00 PM 6.04 42.872 0.219 7.87 6.99 12.34
3/16/2021 11:45:00 PM 6.02 42.836 0.22 7.89 5.72 12.32
3/17/2021 12:00:00 AM 6 42.8 0.215 7.87 5.59 12.3
3/17/2021 12:15:00 AM 5.99 42.782 0.209 7.86 5.62 12.27
3/17/2021 12:30:00 AM 5.98 42.764 0.21 7.85 5.82 12.27
3/17/2021 12:45:00 AM 5.96 42.728 0.212 7.84 5.93 12.24
3/17/2021 1:00:00 AM 5.96 42.728 0.215 7.83 5.89 12.24
3/17/2021 1:15:00 AM 5.94 42.692 0.223 7.82 5.54 12.21
3/17/2021 1:30:00 AM 5.94 42.692 0.223 7.81 6.06 12.2
3/17/2021 1:45:00 AM 5.92 42.656 0.224 7.8 5.63 12.19
3/17/2021 2:00:00 AM 5.91 42.638 0.223 7.79 7.59 12.16
3/17/2021 2:15:00 AM 5.89 42.602 0.226 7.79 5.78 12.15
3/17/2021 2:30:00 AM 5.87 42.566 0.224 7.79 5.57 12.15
3/17/2021 2:45:00 AM 5.87 42.566 0.227 7.79 5.52 12.14
3/17/2021 3:00:00 AM 5.87 42.566 0.225 7.78 5.83 12.13
3/17/2021 3:15:00 AM 5.87 42.566 0.221 7.77 5.88 12.12
3/17/2021 3:30:00 AM 5.86 42.548 0.217 7.77 7.25 12.12
3/17/2021 3:45:00 AM 5.87 42.566 0.221 7.76 5.81 12.09
3/17/2021 4:00:00 AM 5.86 42.548 0.224 7.77 5.62 12.1
3/17/2021 4:15:00 AM 5.86 42.548 0.222 7.79 6.38 12.09
3/17/2021 4:30:00 AM 5.85 42.53 0.224 7.79 5.97 12.08
3/17/2021 4:45:00 AM 5.84 42.512 0.225 7.79 5.78 12.07
3/17/2021 5:00:00 AM 5.83 42.494 0.217 7.8 6.19 12.08
3/17/2021 5:15:00 AM 5.83 42.494 0.217 7.8 10.54 12.05
3/17/2021 5:30:00 AM 5.83 42.494 0.219 7.79 6 12.06
3/17/2021 5:45:00 AM 5.83 42.494 0.22 7.78 5.91 12.06
3/17/2021 6:00:00 AM 5.81 42.458 0.22 7.76 6.32 12.05
3/17/2021 6:15:00 AM 5.8 42.44 0.218 7.72 6.13 12.03
3/17/2021 6:30:00 AM 5.77 42.386 0.214 7.74 6.23 12.03
3/17/2021 6:45:00 AM 5.75 42.35 0.217 7.74 6.32 12.02
3/17/2021 7:00:00 AM 5.73 42.314 0.214 7.73 5.81 12.03
3/17/2021 7:15:00 AM 5.72 42.296 0.214 7.71 6 12.01
3/17/2021 7:30:00 AM 5.71 42.278 0.214 7.7 5.75 12.03
3/17/2021 7:45:00 AM 5.7 42.26 0.216 7.67 6.34 12.07
3/17/2021 8:00:00 AM 5.71 42.278 0.215 7.69 6.08 12.17
3/17/2021 8:15:00 AM 5.72 42.296 0.209 7.69 5.67 12.26
3/17/2021 8:30:00 AM 5.75 42.35 0.211 7.69 5.87 12.34
3/17/2021 8:45:00 AM 5.76 42.368 0.213 7.69 5.78 12.45
3/17/2021 9:00:00 AM 5.78 42.404 0.214 7.7 5.72 12.54
3/17/2021 9:15:00 AM 5.79 42.422 0.213 7.69 6.03 12.66
3/17/2021 9:30:00 AM 5.81 42.458 0.213 7.71 5.61 12.79
3/17/2021 9:45:00 AM 5.85 42.53 0.213 7.72 5.8 12.92
3/17/2021 10:00:00 AM 5.88 42.584 0.213 7.72 5.62 13.04
3/17/2021 10:15:00 AM 5.91 42.638 0.211 7.74 5.5 13.15
3/17/2021 10:30:00 AM 5.95 42.71 0.211 7.75 6.02 13.25
3/17/2021 10:45:00 AM 5.99 42.782 0.212 7.74 5.71 13.33
3/17/2021 11:00:00 AM 6.02 42.836 0.212 7.76 5.92 13.42
3/17/2021 11:15:00 AM 6.06 42.908 0.211 7.78 5.94 13.51
3/17/2021 11:30:00 AM 6.1 42.98 0.209 7.82 5.6 13.59
3/17/2021 11:45:00 AM 6.14 43.052 0.208 7.85 5.8 13.66
3/17/2021 12:00:00 PM 6.19 43.142 0.206 7.87 8.8 13.7
3/17/2021 12:15:00 PM 6.22 43.196 0.208 7.87 6.13 13.74
3/17/2021 12:30:00 PM 6.26 43.268 0.208 7.87 5.88 13.78
3/17/2021 12:45:00 PM 6.3 43.34 0.208 7.88 6.22 13.85
3/17/2021 1:00:00 PM 6.35 43.43 0.208 7.89 5.41 13.89
3/17/2021 1:15:00 PM 6.38 43.484 0.207 7.9 6.73 13.89
3/17/2021 1:30:00 PM 6.41 43.538 0.21 7.92 5.89 13.93
3/17/2021 1:45:00 PM 6.46 43.628 0.209 7.94 5.6 13.96
3/17/2021 2:00:00 PM 6.5 43.7 0.209 7.95 5.85 14
3/17/2021 2:15:00 PM 6.54 43.772 0.21 7.97 5.87 14
3/17/2021 2:30:00 PM 6.57 43.826 0.209 8 5.85 13.99
3/17/2021 2:45:00 PM 6.59 43.862 0.216 8.03 5.32 14.01
3/17/2021 3:00:00 PM 6.6 43.88 0.202 8.05 6.6 13.98
3/17/2021 3:15:00 PM 6.61 43.898 0.201 8.06 5.92 13.94
3/17/2021 3:30:00 PM 6.63 43.934 0.206 8.08 5.71 13.94
3/17/2021 3:45:00 PM 6.66 43.988 0.209 8.09 5.69 13.97
3/17/2021 4:00:00 PM 6.69 44.042 0.207 8.11 7.17 14
3/17/2021 4:15:00 PM 6.72 44.096 0.207 8.12 6.01 13.98
3/17/2021 4:30:00 PM 6.74 44.132 0.207 8.13 5.87 13.97
3/17/2021 4:45:00 PM 6.75 44.15 0.208 8.14 5.6 13.93
3/17/2021 5:00:00 PM 6.75 44.15 0.207 8.14 5.58 13.89
3/17/2021 5:15:00 PM 6.75 44.15 0.206 8.13 5.71 13.81
3/17/2021 5:30:00 PM 6.74 44.132 0.206 8.14 6.06 13.73
3/17/2021 5:45:00 PM 6.74 44.132 0.206 8.13 5.73 13.6
3/17/2021 6:00:00 PM 6.73 44.114 0.207 8.13 6.06 13.48
3/17/2021 6:15:00 PM 6.72 44.096 0.206 8.12 6.42 13.35
3/17/2021 6:30:00 PM 6.71 44.078 0.205 8.14 6.33 13.24
3/17/2021 6:45:00 PM 6.69 44.042 0.204 8.1 5.39 13.14
3/17/2021 7:00:00 PM 6.67 44.006 0.205 8.08 5.62 12.99
3/17/2021 7:15:00 PM 6.64 43.952 0.205 8.06 5.65 12.88
3/17/2021 7:30:00 PM 6.61 43.898 0.209 8.03 5.82 12.74
3/17/2021 7:45:00 PM 6.58 43.844 0.211 8 5.48 12.63
3/17/2021 8:00:00 PM 6.56 43.808 0.194 8 5.56 12.55
3/17/2021 8:15:00 PM 6.57 43.826 0.217 7.98 6.42 12.46
3/17/2021 8:30:00 PM 6.58 43.844 0.198 7.98 7.46 12.41
3/17/2021 8:45:00 PM 6.58 43.844 0.201 7.99 6.08 12.36
3/17/2021 9:00:00 PM 6.61 43.898 0.2 7.97 5.83 12.32
3/17/2021 9:15:00 PM 6.6 43.88 0.206 7.96 6.06 12.3
3/17/2021 9:30:00 PM 6.62 43.916 0.205 7.94 5.81 12.26
3/17/2021 9:45:00 PM 6.64 43.952 0.204 7.91 5.93 12.21
3/17/2021 10:00:00 PM 6.63 43.934 0.203 7.89 5.81 12.2
3/17/2021 10:15:00 PM 6.64 43.952 0.202 7.88 5.8 12.17
3/17/2021 10:30:00 PM 6.63 43.934 0.203 7.88 5.83 12.16
3/17/2021 10:45:00 PM 6.64 43.952 0.206 7.87 6.06 12.12
3/17/2021 11:00:00 PM 6.65 43.97 0.199 7.87 6.83 12.07
3/17/2021 11:15:00 PM 6.66 43.988 0.199 7.88 5.69 12.06
3/17/2021 11:30:00 PM 6.66 43.988 0.199 7.9 8.69 12.02
3/17/2021 11:45:00 PM 6.66 43.988 0.2 7.88 6.07 12.01
3/18/2021 12:00:00 AM 6.67 44.006 0.197 7.86 6.61 11.98
3/18/2021 12:15:00 AM 6.66 43.988 0.213 7.85 5.8 11.99
3/18/2021 12:30:00 AM 6.67 44.006 0.213 7.83 6.21 11.96
3/18/2021 12:45:00 AM 6.66 43.988 0.216 7.82 6.02 11.97
3/18/2021 1:00:00 AM 6.69 44.042 0.216 7.82 6.56 11.93
3/18/2021 1:15:00 AM 6.7 44.06 0.215 7.81 6.55 11.92
3/18/2021 1:30:00 AM 6.69 44.042 0.215 7.81 6.12 11.9
3/18/2021 1:45:00 AM 6.71 44.078 0.212 7.84 6.59 11.89
3/18/2021 2:00:00 AM 6.71 44.078 0.214 7.8 8.41 11.86
3/18/2021 2:15:00 AM 6.71 44.078 0.214 7.8 5.97 11.87
3/18/2021 2:30:00 AM 6.73 44.114 0.211 7.8 5.94 11.85
3/18/2021 2:45:00 AM 6.74 44.132 0.21 7.76 6.12 11.83
3/18/2021 3:00:00 AM 6.74 44.132 0.211 7.74 6.51 11.82
3/18/2021 3:15:00 AM 6.73 44.114 0.212 7.77 6.68 11.82
3/18/2021 3:30:00 AM 6.73 44.114 0.238 7.75 6.14 11.8
3/18/2021 3:45:00 AM 6.75 44.15 0.236 7.77 6.25 11.78
3/18/2021 4:00:00 AM 6.76 44.168 0.228 7.77 6.44 11.77
3/18/2021 4:15:00 AM 6.76 44.168 0.205 7.79 5.99 11.78
3/18/2021 4:30:00 AM 6.77 44.186 0.206 7.81 6.07 11.76
3/18/2021 4:45:00 AM 6.78 44.204 0.206 7.81 5.94 11.74
3/18/2021 5:00:00 AM 6.77 44.186 0.205 7.8 6.11 11.75
3/18/2021 5:15:00 AM 6.79 44.222 0.196 7.77 6 11.73
3/18/2021 5:30:00 AM 6.77 44.186 0.202 7.77 5.9 11.73
3/18/2021 5:45:00 AM 6.78 44.204 0.202 7.76 6.14 11.72
3/18/2021 6:00:00 AM 6.78 44.204 0.192 7.76 6.44 11.71
3/18/2021 6:15:00 AM 6.79 44.222 0.191 7.77 6.43 11.71
3/18/2021 6:30:00 AM 6.8 44.24 0.191 7.76 6.18 11.71
3/18/2021 6:45:00 AM 6.81 44.258 0.197 7.73 6.14 11.69
3/18/2021 7:00:00 AM 6.82 44.276 0.2 7.74 5.97 11.68
3/18/2021 7:15:00 AM 6.83 44.294 0.2 7.73 6.45 11.69
3/18/2021 7:30:00 AM 6.82 44.276 0.2 7.72 6.18 11.69
3/18/2021 7:45:00 AM 6.82 44.276 0.198 7.72 5.92 11.7
3/18/2021 8:00:00 AM 6.81 44.258 0.198 7.72 7.56 11.72
3/18/2021 8:15:00 AM 6.82 44.276 0.198 7.71 6.18 11.72
3/18/2021 8:30:00 AM 6.82 44.276 0.198 7.71 6.36 11.73
3/18/2021 8:45:00 AM 6.84 44.312 0.197 7.7 6.08 11.77
3/18/2021 9:00:00 AM 6.85 44.33 0.197 7.7 6.14 11.83
3/18/2021 9:15:00 AM 6.87 44.366 0.197 7.71 6.41 11.87
3/18/2021 9:30:00 AM 6.87 44.366 0.197 7.72 6.51 11.96
3/18/2021 9:45:00 AM 6.91 44.438 0.197 7.74 6.18 12.02
3/18/2021 10:00:00 AM 6.93 44.474 0.197 7.77 6.52 12.05
3/18/2021 10:15:00 AM 6.95 44.51 0.196 7.79 6.46 12.09
3/18/2021 10:30:00 AM 6.97 44.546 0.197 7.8 6.55 12.16
3/18/2021 10:45:00 AM 6.99 44.582 0.196 7.82 7.06 12.21
3/18/2021 11:00:00 AM 7 44.6 0.197 7.81 6.22 12.26
3/18/2021 11:15:00 AM 7 44.6 0.198 7.81 6.91 12.31
3/18/2021 11:30:00 AM 7.01 44.618 0.198 7.82 6.57 12.43
3/18/2021 11:45:00 AM 7.03 44.654 0.198 7.82 6.26 12.54
3/18/2021 12:00:00 PM 7.03 44.654 0.199 7.83 6.64 12.58
3/18/2021 12:15:00 PM 7.06 44.708 0.199 7.83 5.97 12.58
3/18/2021 12:30:00 PM 7.06 44.708 0.199 7.82 6.67 12.58
3/18/2021 12:45:00 PM 7.08 44.744 0.201 7.81 6.65 12.6
3/18/2021 1:00:00 PM 7.09 44.762 0.203 7.82 6.25 12.63
3/18/2021 1:15:00 PM 7.11 44.798 0.205 7.83 6.28 12.65
3/18/2021 1:30:00 PM 7.15 44.87 0.204 7.82 6.5 12.68
3/18/2021 1:45:00 PM 7.15 44.87 0.24 7.82 3554 9.69
3/18/2021 2:00:00 PM 7.17 44.906 0.24 6.86 3.78 12.74
3/18/2021 2:15:00 PM 7.16 44.888 0.24 7.02 4.1 12.58
3/18/2021 2:30:00 PM 7.17 44.906 0.239 7.14 4.92 12.57
3/18/2021 2:45:00 PM 7.17 44.906 0.239 7.31 5.53 12.67
3/18/2021 3:00:00 PM 7.17 44.906 0.24 7.47 4.81 12.7
3/18/2021 3:15:00 PM 7.19 44.942 0.24 7.59 4.36 12.67
3/18/2021 3:30:00 PM 7.19 44.942 0.241 7.64 5.18 12.66
3/18/2021 3:45:00 PM 7.25 45.05 0.239 7.67 5.12 12.64
3/18/2021 4:00:00 PM 7.26 45.068 0.239 7.71 4.9 12.69
3/18/2021 4:15:00 PM 7.24 45.032 0.24 7.78 4.96 12.7
3/18/2021 4:30:00 PM 7.28 45.104 0.239 7.81 5.16 12.76
3/18/2021 4:45:00 PM 7.3 45.14 0.238 7.86 4.59 12.77
3/18/2021 5:00:00 PM 7.3 45.14 0.239 7.89 5.22 12.68
3/18/2021 5:15:00 PM 7.31 45.158 0.239 7.86 5.28 12.6
3/18/2021 5:30:00 PM 7.34 45.212 0.239 7.87 5.17 12.5
3/18/2021 5:45:00 PM 7.33 45.194 0.239 7.88 4.98 12.45
3/18/2021 6:00:00 PM 7.34 45.212 0.238 7.89 4.88 12.42
3/18/2021 6:15:00 PM 7.34 45.212 0.238 7.91 5.11 12.35
3/18/2021 6:30:00 PM 7.34 45.212 0.237 7.92 5.31 12.29
3/18/2021 6:45:00 PM 7.3 45.14 0.238 7.89 6.89 12.22
3/18/2021 7:00:00 PM 7.33 45.194 0.237 7.82 6.48 12.15
3/18/2021 7:15:00 PM 7.29 45.122 0.238 7.84 5.47 12.07
3/18/2021 7:30:00 PM 7.3 45.14 0.237 7.82 5.74 12.02
3/18/2021 7:45:00 PM 7.3 45.14 0.238 7.78 7.23 11.97
3/18/2021 8:00:00 PM 7.3 45.14 0.238 7.81 6.52 11.93
3/18/2021 8:15:00 PM 7.32 45.176 0.237 7.76 7.7 11.88
3/18/2021 8:30:00 PM 7.31 45.158 0.237 7.75 5.43 11.86
3/18/2021 8:45:00 PM 7.32 45.176 0.237 7.72 8.3 11.83
3/18/2021 9:00:00 PM 7.28 45.104 0.238 7.71 7.18 11.81
3/18/2021 9:15:00 PM 7.3 45.14 0.237 7.7 30.73 11.78
3/18/2021 9:30:00 PM 7.3 45.14 0.237 7.68 7 11.76
3/18/2021 9:45:00 PM 7.27 45.086 0.238 7.72 7.41 11.75
3/18/2021 10:00:00 PM 7.29 45.122 0.237 7.67 7.03 11.73
3/18/2021 10:15:00 PM 7.27 45.086 0.238 7.69 6.71 11.72
3/18/2021 10:30:00 PM 7.27 45.086 0.238 7.66 6.06 11.71
3/18/2021 10:45:00 PM 7.3 45.14 0.238 7.65 6.18 11.7
3/18/2021 11:00:00 PM 7.29 45.122 0.238 7.65 6.56 11.69
3/18/2021 11:15:00 PM 7.29 45.122 0.239 7.65 6.68 11.65
3/18/2021 11:30:00 PM 7.3 45.14 0.238 7.63 7.38 11.66
3/18/2021 11:45:00 PM 7.26 45.068 0.238 7.62 5.58 11.63
3/19/2021 12:00:00 AM 7.3 45.14 0.236 7.59 6.87 11.65
3/19/2021 12:15:00 AM 7.25 45.05 0.238 7.6 5.87 11.63
3/19/2021 12:30:00 AM 7.22 44.996 0.238 7.59 6.27 11.64
3/19/2021 12:45:00 AM 7.22 44.996 0.238 7.57 10.1 11.63
3/19/2021 1:00:00 AM 7.23 45.014 0.237 7.54 6.49 11.57
3/19/2021 1:15:00 AM 7.17 44.906 0.239 7.56 6.93 11.58
3/19/2021 1:30:00 AM 7.18 44.924 0.239 7.58 7.63 11.6
3/19/2021 1:45:00 AM 7.17 44.906 0.239 7.54 6.62 11.6
3/19/2021 2:00:00 AM 7.14 44.852 0.239 7.53 6.38 11.59
3/19/2021 2:15:00 AM 7.15 44.87 0.238 7.53 7.26 11.57
3/19/2021 2:30:00 AM 7.12 44.816 0.238 7.54 5.86 11.59
3/19/2021 2:45:00 AM 7.1 44.78 0.238 7.52 7.67 11.6
3/19/2021 3:00:00 AM 7.06 44.708 0.238 7.54 6.43 11.6
3/19/2021 3:15:00 AM 7.08 44.744 0.238 7.52 4.9 11.59
3/19/2021 3:30:00 AM 7.05 44.69 0.238 7.54 5.88 11.61
3/19/2021 3:45:00 AM 7.01 44.618 0.239 7.52 5.42 11.58
3/19/2021 4:00:00 AM 6.97 44.546 0.239 7.51 6.55 11.61
3/19/2021 4:15:00 AM 6.9 44.42 0.24 7.5 6.18 11.63
3/19/2021 4:30:00 AM 6.87 44.366 0.24 7.5 5.74 11.63
3/19/2021 4:45:00 AM 6.86 44.348 0.238 7.51 5.84 11.62
3/19/2021 5:00:00 AM 6.78 44.204 0.239 7.49 6.11 11.65
3/19/2021 5:15:00 AM 6.75 44.15 0.239 7.5 5.28 11.65
3/19/2021 5:30:00 AM 6.73 44.114 0.239 7.52 5.61 11.67
3/19/2021 5:45:00 AM 6.7 44.06 0.24 7.48 6.26 11.69
3/19/2021 6:00:00 AM 6.66 43.988 0.241 7.51 5.62 11.69
3/19/2021 6:15:00 AM 6.66 43.988 0.24 7.49 5.79 11.69
3/19/2021 6:30:00 AM 6.61 43.898 0.241 7.5 8.84 11.72
3/19/2021 6:45:00 AM 6.57 43.826 0.241 7.48 5.83 11.73
3/19/2021 7:00:00 AM 6.53 43.754 0.241 7.49 5.55 11.73
3/19/2021 7:15:00 AM 6.51 43.718 0.24 7.47 6.09 11.75
3/19/2021 7:30:00 AM 6.46 43.628 0.241 7.47 5.18 11.77
3/19/2021 7:45:00 AM 6.44 43.592 0.24 7.46 5.59 11.81
3/19/2021 8:00:00 AM 6.42 43.556 0.241 7.47 4.95 11.91
3/19/2021 8:15:00 AM 6.4 43.52 0.242 7.46 5.93 12.02
3/19/2021 8:30:00 AM 6.38 43.484 0.242 7.48 6.73 12.17
3/19/2021 8:45:00 AM 6.38 43.484 0.242 7.51 4.94 12.34
3/19/2021 9:00:00 AM 6.39 43.502 0.242 7.54 4.69 12.49
3/19/2021 9:15:00 AM 6.42 43.556 0.242 7.54 5.34 12.63
3/19/2021 9:30:00 AM 6.44 43.592 0.241 7.54 6.97 12.71
3/19/2021 9:45:00 AM 6.43 43.574 0.241 7.56 5.02 12.81
3/19/2021 10:00:00 AM 6.45 43.61 0.241 7.57 4.53 12.88
3/19/2021 10:15:00 AM 6.52 43.736 0.241 7.63 4.76 13.01
3/19/2021 10:30:00 AM 6.57 43.826 0.24 7.63 4.39 13.09
3/19/2021 10:45:00 AM 6.65 43.97 0.242 7.64 4.4 13.17
3/19/2021 11:00:00 AM 6.72 44.096 0.242 7.67 4.38 13.26
3/19/2021 11:15:00 AM 6.81 44.258 0.241 7.71 4.31 13.29
3/19/2021 11:30:00 AM 6.89 44.402 0.241 7.74 4.29 13.36
3/19/2021 11:45:00 AM 6.97 44.546 0.242 7.79 4.89 13.39
3/19/2021 12:00:00 PM 7.07 44.726 0.241 7.81 4.38 13.44
3/19/2021 12:15:00 PM 7.2 44.96 0.24 7.85 4.5 13.53
3/19/2021 12:30:00 PM 7.34 45.212 0.241 7.87 4.75 13.58
3/19/2021 12:45:00 PM 7.47 45.446 0.241 7.9 4.43 13.62
3/19/2021 1:00:00 PM 7.62 45.716 0.241 7.93 4.51 13.63
3/19/2021 1:15:00 PM 7.72 45.896 0.242 7.99 4.9 13.64
3/19/2021 1:30:00 PM 7.84 46.112 0.241 8.02 4.44 13.65
3/19/2021 1:45:00 PM 7.93 46.274 0.242 8.07 4.11 13.66
3/19/2021 2:00:00 PM 8.03 46.454 0.241 8.1 4.45 13.7
3/19/2021 2:15:00 PM 8.08 46.544 0.242 8.16 4.16 13.71
3/19/2021 2:30:00 PM 8.17 46.706 0.241 8.18 4.3 13.73
3/19/2021 2:45:00 PM 8.22 46.796 0.24 8.22 4.35 13.73
3/19/2021 3:00:00 PM 8.24 46.832 0.241 8.26 4.26 13.72
3/19/2021 3:15:00 PM 8.31 46.958 0.239 8.29 4.3 13.72
3/19/2021 3:30:00 PM 8.31 46.958 0.241 8.32 4.4 13.71
3/19/2021 3:45:00 PM 8.34 47.012 0.241 8.37 4.25 13.72
3/19/2021 4:00:00 PM 8.36 47.048 0.241 8.4 4.16 13.7
3/19/2021 4:15:00 PM 8.34 47.012 0.241 8.43 6.12 13.66
3/19/2021 4:30:00 PM 8.32 46.976 0.241 8.44 4.33 13.65
3/19/2021 4:45:00 PM 8.26 46.868 0.241 8.48 5.16 13.63
3/19/2021 5:00:00 PM 8.24 46.832 0.24 8.47 4.48 13.56
3/19/2021 5:15:00 PM 8.17 46.706 0.24 8.5 4.12 13.56
3/19/2021 5:30:00 PM 8.13 46.634 0.24 8.51 4.29 13.48
3/19/2021 5:45:00 PM 8.08 46.544 0.24 8.49 4.29 13.43
3/19/2021 6:00:00 PM 8.02 46.436 0.241 8.5 3.9 13.37
3/19/2021 6:15:00 PM 7.88 46.184 0.242 8.51 4.54 13.27
3/19/2021 6:30:00 PM 7.87 46.166 0.241 8.5 4.13 13.18
3/19/2021 6:45:00 PM 7.77 45.986 0.242 8.47 4.36 13.09
3/19/2021 7:00:00 PM 7.74 45.932 0.241 8.44 4.32 12.99
3/19/2021 7:15:00 PM 7.61 45.698 0.241 8.42 4.21 12.87
3/19/2021 7:30:00 PM 7.54 45.572 0.241 8.39 4.51 12.78
3/19/2021 7:45:00 PM 7.51 45.518 0.241 8.34 4.23 12.65
3/19/2021 8:00:00 PM 7.45 45.41 0.241 8.3 4.09 12.56
3/19/2021 8:15:00 PM 7.41 45.338 0.241 8.29 4.29 12.47
3/19/2021 8:30:00 PM 7.39 45.302 0.242 8.24 4.19 12.39
3/19/2021 8:45:00 PM 7.33 45.194 0.242 8.19 5.72 12.34
3/19/2021 9:00:00 PM 7.32 45.176 0.242 8.13 4.33 12.28
3/19/2021 9:15:00 PM 7.34 45.212 0.241 8.09 4.55 12.24
3/19/2021 9:30:00 PM 7.24 45.032 0.243 8.06 4.2 12.2
3/19/2021 9:45:00 PM 7.22 44.996 0.242 8.03 4.76 12.18
3/19/2021 10:00:00 PM 7.19 44.942 0.242 8 3.91 12.15
3/19/2021 10:15:00 PM 7.18 44.924 0.242 7.97 4.71 12.11
3/19/2021 10:30:00 PM 7.13 44.834 0.242 7.96 6.46 12.1
3/19/2021 10:45:00 PM 7.11 44.798 0.243 7.95 4.6 12.05
3/19/2021 11:00:00 PM 7.11 44.798 0.243 7.92 3.86 12.06
3/19/2021 11:15:00 PM 7.1 44.78 0.242 7.89 4.43 12.04
3/19/2021 11:30:00 PM 7.04 44.672 0.243 7.88 4.45 12.04
3/19/2021 11:45:00 PM 7 44.6 0.243 7.87 4.08 12.02
3/20/2021 12:00:00 AM 6.96 44.528 0.243 7.86 4.62 12.03
3/20/2021 12:15:00 AM 6.97 44.546 0.242 7.85 4.72 12.02
3/20/2021 12:30:00 AM 6.9 44.42 0.242 7.79 4.39 12.03
3/20/2021 12:45:00 AM 6.85 44.33 0.242 7.78 4.63 12.03
3/20/2021 1:00:00 AM 6.79 44.222 0.243 7.76 4.5 11.99
3/20/2021 1:15:00 AM 6.77 44.186 0.243 7.74 6.77 12.02
3/20/2021 1:30:00 AM 6.72 44.096 0.243 7.72 5.5 12.01
3/20/2021 1:45:00 AM 6.64 43.952 0.244 7.71 4.58 12.01
3/20/2021 2:00:00 AM 6.59 43.862 0.244 7.7 4.74 12.01
3/20/2021 2:15:00 AM 6.57 43.826 0.243 7.7 5.06 12
3/20/2021 2:30:00 AM 6.52 43.736 0.243 7.68 7.04 12.02
3/20/2021 2:45:00 AM 6.47 43.646 0.243 7.67 4.91 12.03
3/20/2021 3:00:00 AM 6.43 43.574 0.243 7.66 4.18 12.01
3/20/2021 3:15:00 AM 6.37 43.466 0.243 7.63 4.84 12.03
3/20/2021 3:30:00 AM 6.33 43.394 0.243 7.64 4.32 12.04
3/20/2021 3:45:00 AM 6.27 43.286 0.244 7.6 4.18 12.04
3/20/2021 4:00:00 AM 6.23 43.214 0.244 7.62 4.81 12.05
3/20/2021 4:15:00 AM 6.2 43.16 0.244 7.61 5.24 12.06
3/20/2021 4:30:00 AM 6.14 43.052 0.245 7.6 7.95 12.06
3/20/2021 4:45:00 AM 6.11 42.998 0.243 7.56 6.53 12.06
3/20/2021 5:00:00 AM 6.07 42.926 0.243 7.56 4.6 12.07
3/20/2021 5:15:00 AM 6.03 42.854 0.244 7.57 5.41 12.08
3/20/2021 5:30:00 AM 5.99 42.782 0.243 7.56 6.26 12.1
3/20/2021 5:45:00 AM 5.95 42.71 0.243 7.53 4.9 12.11
3/20/2021 6:00:00 AM 5.9 42.62 0.243 7.51 5.16 12.12
3/20/2021 6:15:00 AM 5.86 42.548 0.243 7.51 5.03 12.14
3/20/2021 6:30:00 AM 5.81 42.458 0.243 7.53 5.3 12.14
3/20/2021 6:45:00 AM 5.77 42.386 0.244 7.49 4.52 12.16
3/20/2021 7:00:00 AM 5.74 42.332 0.244 7.5 4.43 12.18
3/20/2021 7:15:00 AM 5.7 42.26 0.243 7.48 4.75 12.19
3/20/2021 7:30:00 AM 5.66 42.188 0.243 7.48 4.08 12.22
3/20/2021 7:45:00 AM 5.63 42.134 0.242 7.47 5.88 12.3
3/20/2021 8:00:00 AM 5.61 42.098 0.242 7.48 4.41 12.4
3/20/2021 8:15:00 AM 5.61 42.098 0.243 7.49 4.44 12.52
3/20/2021 8:30:00 AM 5.6 42.08 0.243 7.5 4.69 12.71
3/20/2021 8:45:00 AM 5.62 42.116 0.242 7.49 4.58 12.84
3/20/2021 9:00:00 AM 5.66 42.188 0.242 7.51 4.21 12.98
3/20/2021 9:15:00 AM 5.73 42.314 0.242 7.53 4.55 13.1
3/20/2021 9:30:00 AM 5.78 42.404 0.242 7.54 4.34 13.23
3/20/2021 9:45:00 AM 5.85 42.53 0.242 7.57 3.64 13.34
3/20/2021 10:00:00 AM 5.95 42.71 0.242 7.59 4.28 13.43
3/20/2021 10:15:00 AM 6.06 42.908 0.242 7.63 4.76 13.53
3/20/2021 10:30:00 AM 6.2 43.16 0.242 7.63 4.72 13.6
3/20/2021 10:45:00 AM 6.3 43.34 0.241 7.68 4.09 13.68
3/20/2021 11:00:00 AM 6.44 43.592 0.242 7.71 3.96 13.76
3/20/2021 11:15:00 AM 6.59 43.862 0.242 7.75 4.04 13.81
3/20/2021 11:30:00 AM 6.74 44.132 0.242 7.78 3.51 13.85
3/20/2021 11:45:00 AM 6.9 44.42 0.242 7.82 5.87 13.89
3/20/2021 12:00:00 PM 7.06 44.708 0.241 7.83 3.79 13.9
3/20/2021 12:15:00 PM 7.21 44.978 0.241 7.87 3.99 13.97
3/20/2021 12:30:00 PM 7.35 45.23 0.241 7.9 3.62 13.97
3/20/2021 12:45:00 PM 7.53 45.554 0.242 7.92 4 13.98
3/20/2021 1:00:00 PM 7.66 45.788 0.241 7.95 3.52 14.02
3/20/2021 1:15:00 PM 7.8 46.04 0.242 7.98 3.79 14.03
3/20/2021 1:30:00 PM 7.94 46.292 0.242 8.05 4.77 14.02
3/20/2021 1:45:00 PM 8.06 46.508 0.242 8.07 6.29 14.06
3/20/2021 2:00:00 PM 8.16 46.688 0.242 8.1 4.15 14.05
3/20/2021 2:15:00 PM 8.27 46.886 0.242 8.16 3.96 14.05
3/20/2021 2:30:00 PM 8.35 47.03 0.242 8.19 3.68 14.03
3/20/2021 2:45:00 PM 8.43 47.174 0.242 8.22 4.21 14.03
3/20/2021 3:00:00 PM 8.49 47.282 0.242 8.26 3.97 14.03
3/20/2021 3:15:00 PM 8.52 47.336 0.242 8.28 3.48 14
3/20/2021 3:30:00 PM 8.56 47.408 0.241 8.31 3.81 13.99
3/20/2021 3:45:00 PM 8.58 47.444 0.242 8.35 3.82 13.95
3/20/2021 4:00:00 PM 8.56 47.408 0.243 8.36 3.61 13.92
3/20/2021 4:15:00 PM 8.56 47.408 0.243 8.4 4.38 13.89
3/20/2021 4:30:00 PM 8.54 47.372 0.243 8.41 4.22 13.84
3/20/2021 4:45:00 PM 8.51 47.318 0.242 8.43 3.52 13.83
3/20/2021 5:00:00 PM 8.44 47.192 0.243 8.45 4.29 13.79
3/20/2021 5:15:00 PM 8.41 47.138 0.242 8.47 3.37 13.72
3/20/2021 5:30:00 PM 8.35 47.03 0.242 8.49 3.75 13.66
3/20/2021 5:45:00 PM 8.29 46.922 0.242 8.47 3.6 13.57
3/20/2021 6:00:00 PM 8.26 46.868 0.242 8.46 4.16 13.49
3/20/2021 6:15:00 PM 8.18 46.724 0.243 8.47 3.5 13.37
3/20/2021 6:30:00 PM 8.13 46.634 0.243 8.44 3.57 13.25
3/20/2021 6:45:00 PM 8.05 46.49 0.244 8.4 3.94 13.16
3/20/2021 7:00:00 PM 8 46.4 0.244 8.38 3.62 13.02
3/20/2021 7:15:00 PM 7.94 46.292 0.243 8.35 3.56 12.91
3/20/2021 7:30:00 PM 7.87 46.166 0.243 8.31 3.5 12.76
3/20/2021 7:45:00 PM 7.76 45.968 0.243 8.25 3.5 12.65
3/20/2021 8:00:00 PM 7.68 45.824 0.243 8.2 3.72 12.53
3/20/2021 8:15:00 PM 7.62 45.716 0.243 8.14 3.6 12.45
3/20/2021 8:30:00 PM 7.56 45.608 0.244 8.11 3.4 12.35
3/20/2021 8:45:00 PM 7.51 45.518 0.244 8.07 4.35 12.31
3/20/2021 9:00:00 PM 7.44 45.392 0.245 8.04 3.73 12.27
3/20/2021 9:15:00 PM 7.44 45.392 0.244 7.99 4.06 12.21
3/20/2021 9:30:00 PM 7.36 45.248 0.245 7.99 3.96 12.15
3/20/2021 9:45:00 PM 7.34 45.212 0.244 7.93 4.26 12.13
3/20/2021 10:00:00 PM 7.3 45.14 0.244 7.89 13.88 12.1
3/20/2021 10:15:00 PM 7.28 45.104 0.243 7.89 13.89 12.08
3/20/2021 10:30:00 PM 7.27 45.086 0.243 7.85 4.09 12.01
3/20/2021 10:45:00 PM 7.26 45.068 0.243 7.82 5.14 12.02
3/20/2021 11:00:00 PM 7.23 45.014 0.244 7.8 3.82 11.99
3/20/2021 11:15:00 PM 7.23 45.014 0.244 7.79 3.95 11.97
3/20/2021 11:30:00 PM 7.25 45.05 0.243 7.75 3.66 11.93
3/20/2021 11:45:00 PM 7.25 45.05 0.243 7.74 4.44 11.91
3/21/2021 12:00:00 AM 7.19 44.942 0.244 7.71 5.04 11.92
3/21/2021 12:15:00 AM 7.17 44.906 0.243 7.72 3.39 11.9
3/21/2021 12:30:00 AM 7.17 44.906 0.242 7.7 5.73 11.89
3/21/2021 12:45:00 AM 7.14 44.852 0.242 7.68 3.87 11.89
3/21/2021 1:00:00 AM 7.06 44.708 0.243 7.67 4.19 11.89
3/21/2021 1:15:00 AM 7.03 44.654 0.243 7.65 3.58 11.87
3/21/2021 1:30:00 AM 6.96 44.528 0.244 7.63 3.89 11.89
3/21/2021 1:45:00 AM 6.92 44.456 0.244 7.64 4.22 11.84
3/21/2021 2:00:00 AM 6.88 44.384 0.244 7.6 3.88 11.88
3/21/2021 2:15:00 AM 6.83 44.294 0.244 7.61 4.14 11.86
3/21/2021 2:30:00 AM 6.77 44.186 0.244 7.61 5.31 11.86
3/21/2021 2:45:00 AM 6.73 44.114 0.243 7.58 4.41 11.87
3/21/2021 3:00:00 AM 6.67 44.006 0.244 7.57 4.19 11.88
3/21/2021 3:15:00 AM 6.63 43.934 0.243 7.55 3.84 11.87
3/21/2021 3:30:00 AM 6.58 43.844 0.243 7.56 3.93 11.88
3/21/2021 3:45:00 AM 6.53 43.754 0.243 7.54 4.28 11.88
3/21/2021 4:00:00 AM 6.47 43.646 0.244 7.53 4.61 11.88
3/21/2021 4:15:00 AM 6.42 43.556 0.244 7.53 6.27 11.9
3/21/2021 4:30:00 AM 6.38 43.484 0.244 7.52 4.34 11.9
3/21/2021 4:45:00 AM 6.34 43.412 0.244 7.52 4.54 11.89
3/21/2021 5:00:00 AM 6.29 43.322 0.244 7.52 4.02 11.92
3/21/2021 5:15:00 AM 6.26 43.268 0.243 7.48 4.17 11.92
3/21/2021 5:30:00 AM 6.22 43.196 0.243 7.49 4.73 11.92
3/21/2021 5:45:00 AM 6.17 43.106 0.243 7.49 4.65 11.93
3/21/2021 6:00:00 AM 6.12 43.016 0.243 7.48 11.45 11.95
3/21/2021 6:15:00 AM 6.07 42.926 0.243 7.45 4.51 11.95
3/21/2021 6:30:00 AM 6.03 42.854 0.244 7.45 6.28 11.97
3/21/2021 6:45:00 AM 5.98 42.764 0.244 7.44 4.61 11.98
3/21/2021 7:00:00 AM 5.95 42.71 0.244 7.45 4.58 11.98
3/21/2021 7:15:00 AM 5.91 42.638 0.243 7.45 4.39 11.98
3/21/2021 7:30:00 AM 5.88 42.584 0.243 7.45 4.85 12.05
3/21/2021 7:45:00 AM 5.86 42.548 0.243 7.42 4.62 12.12
3/21/2021 8:00:00 AM 5.84 42.512 0.243 7.46 4.48 12.24
3/21/2021 8:15:00 AM 5.83 42.494 0.242 7.46 4.17 12.37
3/21/2021 8:30:00 AM 5.85 42.53 0.243 7.43 3.59 12.54
3/21/2021 8:45:00 AM 5.86 42.548 0.242 7.45 3.72 12.69
3/21/2021 9:00:00 AM 5.91 42.638 0.242 7.47 3.86 12.83
3/21/2021 9:15:00 AM 5.98 42.764 0.242 7.47 3.77 12.94
3/21/2021 9:30:00 AM 6.06 42.908 0.241 7.52 3.72 13.05
3/21/2021 9:45:00 AM 6.16 43.088 0.241 7.52 3.82 13.18
3/21/2021 10:00:00 AM 6.28 43.304 0.24 7.57 4.52 13.27
3/21/2021 10:15:00 AM 6.43 43.574 0.241 7.58 3.63 13.37
3/21/2021 10:30:00 AM 6.58 43.844 0.241 7.6 3.73 13.43
3/21/2021 10:45:00 AM 6.71 44.078 0.239 7.62 3.63 13.53
3/21/2021 11:00:00 AM 6.9 44.42 0.241 7.64 3.48 13.58
3/21/2021 11:15:00 AM 7.03 44.654 0.24 7.65 3.65 13.66
3/21/2021 11:30:00 AM 7.23 45.014 0.24 7.69 3.53 13.68
3/21/2021 11:45:00 AM 7.42 45.356 0.24 7.71 3.69 13.73
3/21/2021 12:00:00 PM 7.61 45.698 0.24 7.75 3.57 13.76
3/21/2021 12:15:00 PM 7.8 46.04 0.24 7.78 4.04 13.79
3/21/2021 12:30:00 PM 7.98 46.364 0.24 7.83 4.06 13.8
3/21/2021 12:45:00 PM 8.14 46.652 0.24 7.84 3.54 13.81
3/21/2021 1:00:00 PM 8.3 46.94 0.239 7.89 3.96 13.83
3/21/2021 1:15:00 PM 8.46 47.228 0.24 7.93 6.58 13.85
3/21/2021 1:30:00 PM 8.61 47.498 0.24 7.97 3.65 13.83
3/21/2021 1:45:00 PM 8.74 47.732 0.24 8.02 4.05 13.83
3/21/2021 2:00:00 PM 8.86 47.948 0.24 8.07 4.32 13.86
3/21/2021 2:15:00 PM 8.96 48.128 0.24 8.09 4.05 13.85
3/21/2021 2:30:00 PM 9.04 48.272 0.241 8.13 3.63 13.8
3/21/2021 2:45:00 PM 9.12 48.416 0.24 8.17 3.67 13.84
3/21/2021 3:00:00 PM 9.18 48.524 0.24 8.21 3.55 13.82
3/21/2021 3:15:00 PM 9.24 48.632 0.239 8.23 3.63 13.8
3/21/2021 3:30:00 PM 9.24 48.632 0.241 8.25 3.84 13.77
3/21/2021 3:45:00 PM 9.29 48.722 0.241 8.28 3.37 13.74
3/21/2021 4:00:00 PM 9.31 48.758 0.241 8.29 3.25 13.68
3/21/2021 4:15:00 PM 9.29 48.722 0.241 8.31 3.6 13.67
3/21/2021 4:30:00 PM 9.27 48.686 0.242 8.33 4.23 13.62
3/21/2021 4:45:00 PM 9.27 48.686 0.242 8.34 4.22 13.56
3/21/2021 5:00:00 PM 9.21 48.578 0.242 8.35 3.7 13.51
3/21/2021 5:15:00 PM 9.16 48.488 0.242 8.37 3.64 13.44
3/21/2021 5:30:00 PM 9.1 48.38 0.242 8.37 4.86 13.37
3/21/2021 5:45:00 PM 9.02 48.236 0.242 8.35 3.59 13.28
3/21/2021 6:00:00 PM 8.95 48.11 0.242 8.35 3.73 13.18
3/21/2021 6:15:00 PM 8.87 47.966 0.243 8.33 4.12 13.05
3/21/2021 6:30:00 PM 8.79 47.822 0.243 8.31 3.91 12.94
3/21/2021 6:45:00 PM 8.77 47.786 0.243 8.29 3.59 12.83
3/21/2021 7:00:00 PM 8.65 47.57 0.244 8.24 4.13 12.72
3/21/2021 7:15:00 PM 8.65 47.57 0.243 8.2 3.43 12.57
3/21/2021 7:30:00 PM 8.53 47.354 0.244 8.16 3.52 12.42
3/21/2021 7:45:00 PM 8.49 47.282 0.244 8.12 3.67 12.32
3/21/2021 8:00:00 PM 8.41 47.138 0.244 8.06 3.3 12.2
3/21/2021 8:15:00 PM 8.35 47.03 0.244 8.02 3.92 12.09
3/21/2021 8:30:00 PM 8.33 46.994 0.244 7.96 3.71 12.01
3/21/2021 8:45:00 PM 8.26 46.868 0.245 7.91 3.82 11.93
3/21/2021 9:00:00 PM 8.25 46.85 0.245 7.86 3.99 11.87
3/21/2021 9:15:00 PM 8.16 46.688 0.245 7.83 4.15 11.82
3/21/2021 9:30:00 PM 8.12 46.616 0.246 7.79 3.93 11.79
3/21/2021 9:45:00 PM 8.14 46.652 0.245 7.76 3.72 11.72
3/21/2021 10:00:00 PM 8.12 46.616 0.244 7.73 4.02 11.68
3/21/2021 10:15:00 PM 8.08 46.544 0.244 7.7 3.63 11.64
3/21/2021 10:30:00 PM 8.01 46.418 0.244 7.67 3.71 11.66
3/21/2021 10:45:00 PM 7.98 46.364 0.244 7.64 4.78 11.63
3/21/2021 11:00:00 PM 8.01 46.418 0.244 7.62 5.44 11.59
3/21/2021 11:15:00 PM 7.96 46.328 0.244 7.61 3.98 11.56
3/21/2021 11:30:00 PM 7.97 46.346 0.244 7.6 3.36 11.56
3/21/2021 11:45:00 PM 7.9 46.22 0.244 7.57 4.27 11.54
3/22/2021 12:00:00 AM 7.88 46.184 0.244 7.55 3.97 11.52
3/22/2021 12:15:00 AM 7.86 46.148 0.243 7.54 4.04 11.51
3/22/2021 12:30:00 AM 7.85 46.13 0.243 7.52 3.79 11.49
3/22/2021 12:45:00 AM 7.77 45.986 0.243 7.5 3.95 11.49
3/22/2021 1:00:00 AM 7.72 45.896 0.243 7.47 4.03 11.49
3/22/2021 1:15:00 AM 7.7 45.86 0.243 7.46 3.8 11.49
3/22/2021 1:30:00 AM 7.62 45.716 0.244 7.47 4.33 11.49
3/22/2021 1:45:00 AM 7.58 45.644 0.244 7.45 3.86 11.5
3/22/2021 2:00:00 AM 7.54 45.572 0.244 7.42 4.24 11.5
3/22/2021 2:15:00 AM 7.44 45.392 0.245 7.43 4.06 11.49
3/22/2021 2:30:00 AM 7.44 45.392 0.244 7.4 4.18 11.47
3/22/2021 2:45:00 AM 7.35 45.23 0.244 7.4 4.45 11.52
3/22/2021 3:00:00 AM 7.34 45.212 0.243 7.38 4.03 11.5
3/22/2021 3:15:00 AM 7.28 45.104 0.243 7.37 4.34 11.52
3/22/2021 3:30:00 AM 7.21 44.978 0.244 7.37 3.83 11.53
3/22/2021 3:45:00 AM 7.17 44.906 0.244 7.35 3.96 11.52
3/22/2021 4:00:00 AM 7.12 44.816 0.244 7.34 4.3 11.53
3/22/2021 4:15:00 AM 7.06 44.708 0.244 7.33 6.16 11.54
3/22/2021 4:30:00 AM 7.01 44.618 0.244 7.32 4.96 11.53
3/22/2021 4:45:00 AM 6.98 44.564 0.244 7.29 4.33 11.53
3/22/2021 5:00:00 AM 6.92 44.456 0.245 7.3 5.05 11.55
3/22/2021 5:15:00 AM 6.89 44.402 0.244 7.28 6.15 11.52
3/22/2021 5:30:00 AM 6.83 44.294 0.243 7.27 4.37 11.56
3/22/2021 5:45:00 AM 6.78 44.204 0.243 7.27 4.45 11.57
3/22/2021 6:00:00 AM 6.76 44.168 0.243 7.27 4.85 11.56
3/22/2021 6:15:00 AM 6.7 44.06 0.244 7.26 5.52 11.59
3/22/2021 6:30:00 AM 6.66 43.988 0.244 7.25 4.39 11.61
3/22/2021 6:45:00 AM 6.61 43.898 0.244 7.24 4.55 11.63
3/22/2021 7:00:00 AM 6.58 43.844 0.243 7.23 4.33 11.63
3/22/2021 7:15:00 AM 6.54 43.772 0.244 7.22 4.37 11.68
3/22/2021 7:30:00 AM 6.5 43.7 0.243 7.21 4.65 11.71
3/22/2021 7:45:00 AM 6.48 43.664 0.243 7.22 4.29 11.81
3/22/2021 8:00:00 AM 6.47 43.646 0.243 7.2 4.13 11.92
3/22/2021 8:15:00 AM 6.46 43.628 0.242 7.22 3.64 12.07
3/22/2021 8:30:00 AM 6.47 43.646 0.242 7.22 4.04 12.23
3/22/2021 8:45:00 AM 6.49 43.682 0.243 7.23 3.76 12.41
3/22/2021 9:00:00 AM 6.55 43.79 0.242 7.25 3.81 12.54
3/22/2021 9:15:00 AM 6.62 43.916 0.241 7.27 3.71 12.67
3/22/2021 9:30:00 AM 6.7 44.06 0.241 7.29 4.12 12.8
3/22/2021 9:45:00 AM 6.8 44.24 0.24 7.32 4.12 12.89
3/22/2021 10:00:00 AM 6.92 44.456 0.24 7.35 4.4 13
3/22/2021 10:15:00 AM 7.05 44.69 0.241 7.37 3.96 13.1
3/22/2021 10:30:00 AM 7.19 44.942 0.24 7.41 3.71 13.19
3/22/2021 10:45:00 AM 7.34 45.212 0.24 7.44 3.37 13.26
3/22/2021 11:00:00 AM 7.49 45.482 0.241 7.48 3.97 13.34
3/22/2021 11:15:00 AM 7.65 45.77 0.24 7.51 3.63 13.41
3/22/2021 11:30:00 AM 7.82 46.076 0.24 7.53 3.57 13.43
3/22/2021 11:45:00 AM 8.01 46.418 0.24 7.56 4.35 13.47
3/22/2021 12:00:00 PM 8.19 46.742 0.24 7.62 3.83 13.52
3/22/2021 12:15:00 PM 8.37 47.066 0.24 7.65 3.89 13.55
3/22/2021 12:30:00 PM 8.54 47.372 0.24 7.71 4.01 13.58
3/22/2021 12:45:00 PM 8.71 47.678 0.24 7.75 4.07 13.6
3/22/2021 1:00:00 PM 8.87 47.966 0.24 7.79 3.49 13.61
3/22/2021 1:15:00 PM 9.03 48.254 0.24 7.83 4.34 13.63
3/22/2021 1:30:00 PM 9.18 48.524 0.24 7.87 4.54 13.63
3/22/2021 1:45:00 PM 9.3 48.74 0.24 7.91 3.38 13.65
3/22/2021 2:00:00 PM 9.43 48.974 0.24 7.96 4.08 13.64
3/22/2021 2:15:00 PM 9.53 49.154 0.241 8.01 4.18 13.63
3/22/2021 2:30:00 PM 9.63 49.334 0.24 8.05 3.84 13.63
3/22/2021 2:45:00 PM 9.71 49.478 0.24 8.1 4.95 13.61
3/22/2021 3:00:00 PM 9.79 49.622 0.24 8.12 4.32 13.59
3/22/2021 3:15:00 PM 9.85 49.73 0.239 8.16 3.97 13.58
3/22/2021 3:30:00 PM 9.82 49.676 0.24 8.21 5.04 13.56
3/22/2021 3:45:00 PM 9.84 49.712 0.241 8.22 4.66 13.51
3/22/2021 4:00:00 PM 9.86 49.748 0.241 8.24 4.3 13.5
3/22/2021 4:15:00 PM 9.88 49.784 0.241 8.3 4.13 13.45
3/22/2021 4:30:00 PM 9.83 49.694 0.242 8.32 4.21 13.38
3/22/2021 4:45:00 PM 9.79 49.622 0.242 8.35 4.17 13.35
3/22/2021 5:00:00 PM 9.77 49.586 0.242 8.36 3.98 13.3
3/22/2021 5:15:00 PM 9.72 49.496 0.242 8.37 3.98 13.24
3/22/2021 5:30:00 PM 9.67 49.406 0.241 8.37 4.01 13.19
3/22/2021 5:45:00 PM 9.55 49.19 0.242 8.39 3.87 13.09
3/22/2021 6:00:00 PM 9.44 48.992 0.242 8.38 3.85 13
3/22/2021 6:15:00 PM 9.4 48.92 0.242 8.37 3.55 12.88
3/22/2021 6:30:00 PM 9.3 48.74 0.243 8.34 3.83 12.77
3/22/2021 6:45:00 PM 9.25 48.65 0.243 8.3 3.78 12.67
3/22/2021 7:00:00 PM 9.2 48.56 0.243 8.31 3.99 12.52
3/22/2021 7:15:00 PM 9.12 48.416 0.243 8.28 4.1 12.38
3/22/2021 7:30:00 PM 9.05 48.29 0.243 8.22 3.88 12.24
3/22/2021 7:45:00 PM 9.05 48.29 0.242 8.17 4.16 12.09
3/22/2021 8:00:00 PM 8.88 47.984 0.243 8.11 3.76 11.98
3/22/2021 8:15:00 PM 8.79 47.822 0.243 8.05 3.55 11.87
3/22/2021 8:30:00 PM 8.77 47.786 0.243 8 4.69 11.78
3/22/2021 8:45:00 PM 8.68 47.624 0.244 7.93 4.45 11.7
3/22/2021 9:00:00 PM 8.63 47.534 0.244 7.89 3.63 11.64
3/22/2021 9:15:00 PM 8.61 47.498 0.244 7.85 4.12 11.57
3/22/2021 9:30:00 PM 8.63 47.534 0.244 7.82 3.85 11.5
3/22/2021 9:45:00 PM 8.51 47.318 0.245 7.77 4.11 11.45
3/22/2021 10:00:00 PM 8.52 47.336 0.244 7.73 4.49 11.42
3/22/2021 10:15:00 PM 8.46 47.228 0.244 7.69 4.38 11.4
3/22/2021 10:30:00 PM 8.41 47.138 0.243 7.67 4.19 11.36
3/22/2021 10:45:00 PM 8.31 46.958 0.244 7.64 3.74 11.33
3/22/2021 11:00:00 PM 8.38 47.084 0.244 7.61 3.89 11.31
3/22/2021 11:15:00 PM 8.37 47.066 0.244 7.6 4.19 11.28
3/22/2021 11:30:00 PM 8.34 47.012 0.244 7.56 3.99 11.28
3/22/2021 11:45:00 PM 8.27 46.886 0.244 7.54 3.88 11.28
3/23/2021 12:00:00 AM 8.3 46.94 0.244 7.54 3.72 11.26
3/23/2021 12:15:00 AM 8.24 46.832 0.244 7.51 4.23 11.25
3/23/2021 12:30:00 AM 8.27 46.886 0.243 7.49 4.43 11.23
3/23/2021 12:45:00 AM 8.21 46.778 0.243 7.46 3.84 11.22
3/23/2021 1:00:00 AM 8.18 46.724 0.242 7.46 7.48 11.24
3/23/2021 1:15:00 AM 8.07 46.526 0.243 7.44 3.81 11.25
3/23/2021 1:30:00 AM 8.06 46.508 0.244 7.42 3.94 11.25
3/23/2021 1:45:00 AM 8.03 46.454 0.244 7.42 5.54 11.26
3/23/2021 2:00:00 AM 7.98 46.364 0.244 7.41 4.13 11.26
3/23/2021 2:15:00 AM 7.94 46.292 0.244 7.4 4.24 11.26
3/23/2021 2:30:00 AM 7.9 46.22 0.244 7.4 3.89 11.28
3/23/2021 2:45:00 AM 7.82 46.076 0.245 7.37 3.64 11.29
3/23/2021 3:00:00 AM 7.8 46.04 0.244 7.37 4.15 11.27
3/23/2021 3:15:00 AM 7.73 45.914 0.244 7.36 4.07 11.27
3/23/2021 3:30:00 AM 7.68 45.824 0.243 7.34 4.32 11.28
3/23/2021 3:45:00 AM 7.59 45.662 0.244 7.33 4.99 11.28
3/23/2021 4:00:00 AM 7.57 45.626 0.244 7.33 5.45 11.28
3/23/2021 4:15:00 AM 7.52 45.536 0.244 7.3 4.71 11.32
3/23/2021 4:30:00 AM 7.47 45.446 0.244 7.3 4.35 11.32
3/23/2021 4:45:00 AM 7.42 45.356 0.245 7.3 4.66 11.33
3/23/2021 5:00:00 AM 7.41 45.338 0.244 7.27 5.93 11.3
3/23/2021 5:15:00 AM 7.35 45.23 0.244 7.27 5.08 11.32
3/23/2021 5:30:00 AM 7.28 45.104 0.244 7.26 4.78 11.32
3/23/2021 5:45:00 AM 7.25 45.05 0.243 7.28 6.81 11.35
3/23/2021 6:00:00 AM 7.18 44.924 0.243 7.24 4.24 11.36
3/23/2021 6:15:00 AM 7.14 44.852 0.244 7.24 4.42 11.34
3/23/2021 6:30:00 AM 7.1 44.78 0.244 7.22 5.1 11.35
3/23/2021 6:45:00 AM 7.06 44.708 0.244 7.21 4.61 11.35
3/23/2021 7:00:00 AM 7 44.6 0.244 7.22 4.44 11.36
3/23/2021 7:15:00 AM 6.97 44.546 0.243 7.19 3.98 11.37
3/23/2021 7:30:00 AM 6.93 44.474 0.243 7.18 4.43 11.44
3/23/2021 7:45:00 AM 6.89 44.402 0.243 7.19 15.3 11.54
3/23/2021 8:00:00 AM 6.91 44.438 0.242 7.18 4.26 11.66
3/23/2021 8:15:00 AM 6.91 44.438 0.242 7.19 4.31 11.83
3/23/2021 8:30:00 AM 6.91 44.438 0.243 7.21 4.3 12.02
3/23/2021 8:45:00 AM 6.95 44.51 0.243 7.21 3.91 12.18
3/23/2021 9:00:00 AM 7.04 44.672 0.241 7.25 4.51 12.34
3/23/2021 9:15:00 AM 7.08 44.744 0.242 7.25 4.41 12.5
3/23/2021 9:30:00 AM 7.17 44.906 0.241 7.29 4.09 12.64
3/23/2021 9:45:00 AM 7.27 45.086 0.241 7.3 3.93 12.76
3/23/2021 10:00:00 AM 7.38 45.284 0.241 7.33 4.43 12.85
3/23/2021 10:15:00 AM 7.52 45.536 0.241 7.36 3.76 12.99
3/23/2021 10:30:00 AM 7.65 45.77 0.24 7.4 3.68 13.08
3/23/2021 10:45:00 AM 7.78 46.004 0.24 7.43 4.06 13.17
3/23/2021 11:00:00 AM 7.93 46.274 0.241 7.46 3.91 13.25
3/23/2021 11:15:00 AM 8.11 46.598 0.24 7.51 4.29 13.31
3/23/2021 11:30:00 AM 8.28 46.904 0.241 7.55 3.86 13.36
3/23/2021 11:45:00 AM 8.48 47.264 0.24 7.61 3.9 13.39
3/23/2021 12:00:00 PM 8.66 47.588 0.239 7.63 3.56 13.44
3/23/2021 12:15:00 PM 8.82 47.876 0.239 7.67 3.94 13.45
3/23/2021 12:30:00 PM 8.96 48.128 0.239 7.7 3.73 13.51
3/23/2021 12:45:00 PM 9.06 48.308 0.239 7.77 3.67 13.54
3/23/2021 1:00:00 PM 9.21 48.578 0.239 7.81 4.15 13.57
3/23/2021 1:15:00 PM 9.37 48.866 0.239 7.88 4.03 13.6
3/23/2021 1:30:00 PM 9.56 49.208 0.239 7.92 3.96 13.6
3/23/2021 1:45:00 PM 9.69 49.442 0.24 7.97 4.2 13.62
3/23/2021 2:00:00 PM 9.81 49.658 0.24 8.03 3.97 13.61
3/23/2021 2:15:00 PM 9.89 49.802 0.24 8.06 3.88 13.61
3/23/2021 2:30:00 PM 9.91 49.838 0.241 8.12 4.27 13.61
3/23/2021 2:45:00 PM 10.05 50.09 0.239 8.15 3.57 13.58
3/23/2021 3:00:00 PM 10.07 50.126 0.24 8.22 4.46 13.6
3/23/2021 3:15:00 PM 10.09 50.162 0.24 8.23 3.63 13.57
3/23/2021 3:30:00 PM 10.06 50.108 0.24 8.27 3.98 13.51
3/23/2021 3:45:00 PM 10.04 50.072 0.241 8.3 3.85 13.5
3/23/2021 4:00:00 PM 10.11 50.198 0.241 8.34 4.2 13.51
3/23/2021 4:15:00 PM 10.13 50.234 0.241 8.35 4.02 13.43
3/23/2021 4:30:00 PM 10.1 50.18 0.241 8.41 7.1 13.41
3/23/2021 4:45:00 PM 10.09 50.162 0.241 8.43 4.19 13.38
3/23/2021 5:00:00 PM 10.02 50.036 0.241 8.43 3.92 13.22
3/23/2021 5:15:00 PM 9.98 49.964 0.241 8.43 4.27 13.15
3/23/2021 5:30:00 PM 9.88 49.784 0.241 8.44 4.52 13.07
3/23/2021 5:45:00 PM 9.8 49.64 0.241 8.43 4.01 13
3/23/2021 6:00:00 PM 9.71 49.478 0.242 8.41 3.85 12.91
3/23/2021 6:15:00 PM 9.72 49.496 0.241 8.41 4.29 12.81
3/23/2021 6:30:00 PM 9.68 49.424 0.242 8.4 4 12.71
3/23/2021 6:45:00 PM 9.6 49.28 0.242 8.35 4.06 12.59
3/23/2021 7:00:00 PM 9.54 49.172 0.243 8.34 3.73 12.47
3/23/2021 7:15:00 PM 9.49 49.082 0.243 8.3 3.6 12.3
3/23/2021 7:30:00 PM 9.43 48.974 0.243 8.28 3.94 12.12
3/23/2021 7:45:00 PM 9.39 48.902 0.243 8.22 4.74 11.96
3/23/2021 8:00:00 PM 9.3 48.74 0.243 8.17 4.25 11.84
3/23/2021 8:15:00 PM 9.31 48.758 0.242 8.11 3.82 11.72
3/23/2021 8:30:00 PM 9.26 48.668 0.242 8.07 3.77 11.63
3/23/2021 8:45:00 PM 9.24 48.632 0.243 8.02 5.17 11.55
3/23/2021 9:00:00 PM 9.16 48.488 0.244 7.96 3.84 11.48
3/23/2021 9:15:00 PM 9.19 48.542 0.243 7.89 3.9 11.4
3/23/2021 9:30:00 PM 9.11 48.398 0.244 7.85 5.24 11.38
3/23/2021 9:45:00 PM 9.16 48.488 0.243 7.81 4.46 11.31
3/23/2021 10:00:00 PM 9.17 48.506 0.243 7.79 3.93 11.27
3/23/2021 10:15:00 PM 9.04 48.272 0.244 7.75 4.69 11.26
3/23/2021 10:30:00 PM 9.06 48.308 0.243 7.71 4.3 11.23
3/23/2021 10:45:00 PM 9.1 48.38 0.242 7.69 4.04 11.18
3/23/2021 11:00:00 PM 9.04 48.272 0.244 7.68 4.18 11.15
3/23/2021 11:15:00 PM 9.06 48.308 0.244 7.63 6.29 11.12
3/23/2021 11:30:00 PM 9.05 48.29 0.244 7.64 4.49 11.11
3/23/2021 11:45:00 PM 9.04 48.272 0.244 7.58 4.27 11.09
3/24/2021 12:00:00 AM 9.06 48.308 0.243 7.56 4.41 11.06
3/24/2021 12:15:00 AM 8.97 48.146 0.243 7.56 4.43 11.05
3/24/2021 12:30:00 AM 9.04 48.272 0.242 7.55 4.46 11.04
3/24/2021 12:45:00 AM 9.01 48.218 0.242 7.53 3.92 11.03
3/24/2021 1:00:00 AM 9.03 48.254 0.242 7.51 3.92 11.03
3/24/2021 1:15:00 AM 9.09 48.362 0.242 7.51 4.32 11.01
3/24/2021 1:30:00 AM 9.08 48.344 0.243 7.49 5.04 11
3/24/2021 1:45:00 AM 9.06 48.308 0.243 7.5 3.87 11
3/24/2021 2:00:00 AM 9.08 48.344 0.243 7.47 3.94 10.98
3/24/2021 2:15:00 AM 9 48.2 0.244 7.45 4.77 11
3/24/2021 2:30:00 AM 9.02 48.236 0.244 7.43 4.33 10.98
3/24/2021 2:45:00 AM 9.03 48.254 0.243 7.44 4.18 10.97
3/24/2021 3:00:00 AM 8.97 48.146 0.244 7.43 4.33 10.96
3/24/2021 3:15:00 AM 8.97 48.146 0.243 7.42 4.49 10.95
3/24/2021 3:30:00 AM 8.99 48.182 0.243 7.39 4.4 10.94
3/24/2021 3:45:00 AM 8.99 48.182 0.243 7.4 4.31 10.94
3/24/2021 4:00:00 AM 9.01 48.218 0.243 7.37 4.71 10.92
3/24/2021 4:15:00 AM 8.98 48.164 0.244 7.38 4.58 10.9
3/24/2021 4:30:00 AM 8.98 48.164 0.244 7.35 4.57 10.84
3/24/2021 4:45:00 AM 8.95 48.11 0.244 7.34 4.94 10.81
3/24/2021 5:00:00 AM 8.96 48.128 0.243 7.33 5.08 10.78
3/24/2021 5:15:00 AM 8.88 47.984 0.244 7.31 4.51 10.78
3/24/2021 5:30:00 AM 8.9 48.02 0.243 7.29 4.56 10.77
3/24/2021 5:45:00 AM 8.88 47.984 0.243 7.29 5.15 10.76
3/24/2021 6:00:00 AM 8.93 48.074 0.242 7.28 4.58 10.75
3/24/2021 6:15:00 AM 8.9 48.02 0.243 7.28 5.99 10.73
3/24/2021 6:30:00 AM 8.86 47.948 0.243 7.27 4.92 10.72
3/24/2021 6:45:00 AM 8.88 47.984 0.243 7.27 5.54 10.71
3/24/2021 7:00:00 AM 8.9 48.02 0.243 7.27 4.75 10.73
3/24/2021 7:15:00 AM 8.86 47.948 0.243 7.24 4.59 10.72
3/24/2021 7:30:00 AM 8.83 47.894 0.243 7.24 4.69 10.76
3/24/2021 7:45:00 AM 8.89 48.002 0.242 7.25 4.67 10.75
3/24/2021 8:00:00 AM 8.93 48.074 0.241 7.23 4.39 10.79
3/24/2021 8:15:00 AM 8.87 47.966 0.241 7.25 4.79 10.85
3/24/2021 8:30:00 AM 8.93 48.074 0.241 7.25 4.79 10.87
3/24/2021 8:45:00 AM 8.94 48.092 0.241 7.27 4.55 10.87
3/24/2021 9:00:00 AM 8.97 48.146 0.24 7.25 4.63 10.9
3/24/2021 9:15:00 AM 8.95 48.11 0.241 7.25 5.06 10.92
3/24/2021 9:30:00 AM 8.97 48.146 0.24 7.25 4.43 10.97
3/24/2021 9:45:00 AM 9 48.2 0.239 7.25 4.49 11.05
3/24/2021 10:00:00 AM 8.99 48.182 0.24 7.26 4.37 11.14
3/24/2021 10:15:00 AM 9.01 48.218 0.239 7.27 3.83 11.25
3/24/2021 10:30:00 AM 9.05 48.29 0.239 7.29 4.26 11.42
3/24/2021 10:45:00 AM 9.03 48.254 0.239 7.31 4.21 11.51
3/24/2021 11:00:00 AM 9.06 48.308 0.24 7.31 4.09 11.52
3/24/2021 11:15:00 AM 9.09 48.362 0.239 7.33 4.16 11.64
3/24/2021 11:30:00 AM 9.15 48.47 0.239 7.35 4.24 11.8
3/24/2021 11:45:00 AM 9.18 48.524 0.238 7.36 4.07 11.79
3/24/2021 12:00:00 PM 9.14 48.452 0.239 7.36 5.1 11.75
3/24/2021 12:15:00 PM 9.14 48.452 0.239 7.37 4.06 11.73
3/24/2021 12:30:00 PM 9.19 48.542 0.238 7.37 4.3 11.75
3/24/2021 12:45:00 PM 9.21 48.578 0.238 7.39 4.15 11.77
3/24/2021 1:00:00 PM 9.19 48.542 0.238 7.4 4.62 11.81
3/24/2021 1:15:00 PM 9.27 48.686 0.238 7.42 4.64 11.82
3/24/2021 1:30:00 PM 9.25 48.65 0.239 7.46 5.6 11.84
3/24/2021 1:45:00 PM 9.27 48.686 0.239 7.43 4.32 11.85
3/24/2021 2:00:00 PM 9.28 48.704 0.239 7.46 5.22 11.84
3/24/2021 2:15:00 PM 9.31 48.758 0.239 7.47 5.85 11.83
3/24/2021 2:30:00 PM 9.28 48.704 0.24 7.48 7.02 11.82
3/24/2021 2:45:00 PM 9.31 48.758 0.242 7.49 5.69 11.8
3/24/2021 3:00:00 PM 9.41 48.938 0.243 7.49 6.18 11.78
3/24/2021 3:15:00 PM 9.45 49.01 0.246 7.5 6.96 11.77
3/24/2021 3:30:00 PM 9.54 49.172 0.247 7.51 8.54 11.81
3/24/2021 3:45:00 PM 9.59 49.262 0.247 7.5 8.22 11.86
3/24/2021 4:00:00 PM 9.62 49.316 0.247 7.55 7.2 11.88
3/24/2021 4:15:00 PM 9.66 49.388 0.246 7.54 10.23 11.89
3/24/2021 4:30:00 PM 9.66 49.388 0.245 7.56 8.39 11.83
3/24/2021 4:45:00 PM 9.69 49.442 0.243 7.57 8.67 11.75
3/24/2021 5:00:00 PM 9.75 49.55 0.241 7.57 7.04 11.72
3/24/2021 5:15:00 PM 9.8 49.64 0.239 7.56 7.23 11.72
3/24/2021 5:30:00 PM 9.77 49.586 0.238 7.55 8.03 11.63
3/24/2021 5:45:00 PM 9.76 49.568 0.237 7.56 6.89 11.51
3/24/2021 6:00:00 PM 9.76 49.568 0.237 7.56 7.49 11.38
3/24/2021 6:15:00 PM 9.79 49.622 0.236 7.54 6.76 11.28
3/24/2021 6:30:00 PM 9.84 49.712 0.236 7.53 9.77 11.24
3/24/2021 6:45:00 PM 9.89 49.802 0.235 7.51 16.61 11.19
3/24/2021 7:00:00 PM 9.91 49.838 0.235 7.51 16.82 11.14
3/24/2021 7:15:00 PM 10.05 50.09 0.233 7.49 27.72 11.09
3/24/2021 7:30:00 PM 10.1 50.18 0.232 7.49 30.13 11
3/24/2021 7:45:00 PM 10.14 50.252 0.231 7.48 36.98 10.97
3/24/2021 8:00:00 PM 10.15 50.27 0.231 7.48 73.16 10.92
3/24/2021 8:15:00 PM 10.17 50.306 0.231 7.47 53.16 10.88
3/24/2021 8:30:00 PM 10.19 50.342 0.231 7.46 65.56 10.85
3/24/2021 8:45:00 PM 10.19 50.342 0.23 7.44 55.7 10.82
3/24/2021 9:00:00 PM 10.18 50.324 0.23 7.43 63.08 10.78
3/24/2021 9:15:00 PM 10.11 50.198 0.23 7.42 102.2 10.75
3/24/2021 9:30:00 PM 10.09 50.162 0.23 7.41 44.61 10.73
3/24/2021 9:45:00 PM 10.12 50.216 0.228 7.4 51.05 10.69
3/24/2021 10:00:00 PM 10.06 50.108 0.229 7.39 45.31 10.67
3/24/2021 10:15:00 PM 10.08 50.144 0.229 7.39 48.45 10.63
3/24/2021 10:30:00 PM 10.09 50.162 0.229 7.36 33.15 10.63
3/24/2021 10:45:00 PM 10.12 50.216 0.228 7.36 39.42 10.61
3/24/2021 11:00:00 PM 10.14 50.252 0.229 7.34 40.68 10.59
3/24/2021 11:15:00 PM 10.13 50.234 0.23 7.33 38.62 10.6
3/24/2021 11:30:00 PM 10.13 50.234 0.231 7.33 35.75 10.58
3/24/2021 11:45:00 PM 10.12 50.216 0.231 7.32 28.48 10.58
3/25/2021 12:00:00 AM 10.08 50.144 0.233 7.3 27.11 10.59
3/25/2021 12:15:00 AM 10.07 50.126 0.233 7.3 33.13 10.6
3/25/2021 12:30:00 AM 10.05 50.09 0.233 7.3 30.85 10.6
3/25/2021 12:45:00 AM 10.07 50.126 0.231 7.3 29.61 10.59
3/25/2021 1:00:00 AM 10.05 50.09 0.23 7.27 31.65 10.6
3/25/2021 1:15:00 AM 10.08 50.144 0.228 7.29 27.88 10.57
3/25/2021 1:30:00 AM 10.03 50.054 0.228 7.29 32 10.6
3/25/2021 1:45:00 AM 10.05 50.09 0.226 7.27 27.53 10.6
3/25/2021 2:00:00 AM 10.03 50.054 0.226 7.28 30.09 10.6
3/25/2021 2:15:00 AM 10.02 50.036 0.225 7.27 27.18 10.59
3/25/2021 2:30:00 AM 10 50 0.225 7.27 31.68 10.59
3/25/2021 2:45:00 AM 10.01 50.018 0.223 7.25 28.1 10.6
3/25/2021 3:00:00 AM 10.02 50.036 0.222 7.25 31.87 10.59
3/25/2021 3:15:00 AM 9.97 49.946 0.224 7.25 35.59 10.6
3/25/2021 3:30:00 AM 9.97 49.946 0.223 7.25 33.66 10.6
3/25/2021 3:45:00 AM 9.97 49.946 0.223 7.23 25.97 10.6
3/25/2021 4:00:00 AM 9.97 49.946 0.222 7.24 31.63 10.62
3/25/2021 4:15:00 AM 9.93 49.874 0.224 7.21 32.02 10.62
3/25/2021 4:30:00 AM 9.92 49.856 0.223 7.23 30.6 10.64
3/25/2021 4:45:00 AM 9.91 49.838 0.223 7.23 29.87 10.64
3/25/2021 5:00:00 AM 9.9 49.82 0.222 7.22 26.58 10.65
3/25/2021 5:15:00 AM 9.84 49.712 0.224 7.23 26.34 10.65
3/25/2021 5:30:00 AM 9.84 49.712 0.224 7.22 24.73 10.66
3/25/2021 5:45:00 AM 9.84 49.712 0.223 7.22 20.34 10.64
3/25/2021 6:00:00 AM 9.81 49.658 0.225 7.21 26.59 10.67
3/25/2021 6:15:00 AM 9.8 49.64 0.225 7.21 22.08 10.67
3/25/2021 6:30:00 AM 9.78 49.604 0.225 7.21 21.01 10.67
3/25/2021 6:45:00 AM 9.77 49.586 0.225 7.2 25.88 10.67
3/25/2021 7:00:00 AM 9.71 49.478 0.226 7.21 21.94 10.67
3/25/2021 7:15:00 AM 9.69 49.442 0.226 7.2 19.07 10.69
3/25/2021 7:30:00 AM 9.72 49.496 0.225 7.19 18.4 10.68
3/25/2021 7:45:00 AM 9.72 49.496 0.226 7.2 19.77 10.71
3/25/2021 8:00:00 AM 9.74 49.532 0.226 7.2 21.22 10.76
3/25/2021 8:15:00 AM 9.71 49.478 0.227 7.22 18.52 10.81
3/25/2021 8:30:00 AM 9.69 49.442 0.228 7.2 30.42 10.9
3/25/2021 8:45:00 AM 9.75 49.55 0.227 7.21 18.95 10.96
3/25/2021 9:00:00 AM 9.77 49.586 0.227 7.22 18.94 11.03
3/25/2021 9:15:00 AM 9.76 49.568 0.228 7.25 17.93 11.12
3/25/2021 9:30:00 AM 9.8 49.64 0.229 7.24 22.22 11.18
3/25/2021 9:45:00 AM 9.82 49.676 0.229 7.27 23.83 11.21
3/25/2021 10:00:00 AM 9.86 49.748 0.228 7.27 15.19 11.26
3/25/2021 10:15:00 AM 9.84 49.712 0.23 7.28 21.18 11.33
3/25/2021 10:30:00 AM 9.95 49.91 0.229 7.29 16.31 11.36
3/25/2021 10:45:00 AM 9.94 49.892 0.231 7.3 12.61 11.44
3/25/2021 11:00:00 AM 10.01 50.018 0.231 7.33 12.25 11.51
3/25/2021 11:15:00 AM 10.08 50.144 0.23 7.34 16.69 11.55
3/25/2021 11:30:00 AM 10.09 50.162 0.231 7.35 13.02 11.62
3/25/2021 11:45:00 AM 10.16 50.288 0.23 7.37 13.02 11.64
3/25/2021 12:00:00 PM 10.21 50.378 0.231 7.4 11.41 11.66
3/25/2021 12:15:00 PM 10.19 50.342 0.232 7.43 10.74 11.72
3/25/2021 12:30:00 PM 10.25 50.45 0.232 7.43 9.92 11.78
3/25/2021 12:45:00 PM 10.29 50.522 0.233 7.43 13.09 11.81
3/25/2021 1:00:00 PM 10.42 50.756 0.233 7.48 9.33 11.86
3/25/2021 1:15:00 PM 10.47 50.846 0.234 7.52 15.57 11.93
3/25/2021 1:30:00 PM 10.55 50.99 0.235 7.53 9.82 11.96
3/25/2021 1:45:00 PM 10.67 51.206 0.235 7.56 11.02 11.98
3/25/2021 2:00:00 PM 10.79 51.422 0.234 7.58 9.23 12.01
3/25/2021 2:15:00 PM 10.85 51.53 0.234 7.59 8.52 12.03
3/25/2021 2:30:00 PM 10.94 51.692 0.234 7.63 8.36 12.06
3/25/2021 2:45:00 PM 11.06 51.908 0.234 7.65 7.99 12.1
3/25/2021 3:00:00 PM 11.09 51.962 0.235 7.68 10.57 12.11
3/25/2021 3:15:00 PM 11.15 52.07 0.235 7.7 9.07 12.1
3/25/2021 3:30:00 PM 11.24 52.232 0.236 7.73 7.5 12.13
3/25/2021 3:45:00 PM 11.3 52.34 0.236 7.76 8.72 12.11
3/25/2021 4:00:00 PM 11.31 52.358 0.236 7.78 7.3 12.09
3/25/2021 4:15:00 PM 11.27 52.286 0.238 7.81 7.15 12.06
3/25/2021 4:30:00 PM 11.39 52.502 0.236 7.82 9.39 11.98
3/25/2021 4:45:00 PM 11.33 52.394 0.238 7.83 8.11 11.95
3/25/2021 5:00:00 PM 11.43 52.574 0.237 7.83 6.56 11.93
3/25/2021 5:15:00 PM 11.44 52.592 0.237 7.85 11.06 11.88
3/25/2021 5:30:00 PM 11.48 52.664 0.237 7.85 7.27 11.82
3/25/2021 5:45:00 PM 11.48 52.664 0.237 7.85 6.69 11.72
3/25/2021 6:00:00 PM 11.5 52.7 0.237 7.85 7.67 11.67
3/25/2021 6:15:00 PM 11.45 52.61 0.238 7.85 6.69 11.56
3/25/2021 6:30:00 PM 11.44 52.592 0.238 7.83 6.66 11.41
3/25/2021 6:45:00 PM 11.33 52.394 0.239 7.8 5.59 11.27
3/25/2021 7:00:00 PM 11.28 52.304 0.239 7.78 6.36 11.17
3/25/2021 7:15:00 PM 11.25 52.25 0.239 7.75 5.87 11.08
3/25/2021 7:30:00 PM 11.16 52.088 0.239 7.72 5.82 10.98
3/25/2021 7:45:00 PM 11.15 52.07 0.239 7.7 6.4 10.91
3/25/2021 8:00:00 PM 11.14 52.052 0.239 7.67 6.56 10.83
3/25/2021 8:15:00 PM 11.13 52.034 0.24 7.64 6.69 10.75
3/25/2021 8:30:00 PM 11.12 52.016 0.24 7.61 7.49 10.66
3/25/2021 8:45:00 PM 11.08 51.944 0.241 7.58 7.61 10.62
3/25/2021 9:00:00 PM 11.16 52.088 0.24 7.56 7.28 10.54
3/25/2021 9:15:00 PM 11.05 51.89 0.241 7.54 7.05 10.52
3/25/2021 9:30:00 PM 11.11 51.998 0.241 7.52 7.42 10.5
3/25/2021 9:45:00 PM 11.02 51.836 0.241 7.5 7.64 10.51
3/25/2021 10:00:00 PM 11.08 51.944 0.24 7.49 8.52 10.49
3/25/2021 10:15:00 PM 11.02 51.836 0.24 7.47 12.36 10.49
3/25/2021 10:30:00 PM 11.08 51.944 0.24 7.46 8.21 10.45
3/25/2021 10:45:00 PM 11.03 51.854 0.241 7.46 7.24 10.43
3/25/2021 11:00:00 PM 11.02 51.836 0.241 7.44 7.85 10.43
3/25/2021 11:15:00 PM 11.03 51.854 0.241 7.43 7.04 10.42
3/25/2021 11:30:00 PM 11.06 51.908 0.241 7.43 7.25 10.42
3/25/2021 11:45:00 PM 11.03 51.854 0.241 7.41 8.14 10.42
3/26/2021 12:00:00 AM 10.91 51.638 0.242 7.41 7.39 10.44
3/26/2021 12:15:00 AM 11.07 51.926 0.24 7.4 7.26 10.4
3/26/2021 12:30:00 AM 11.14 52.052 0.24 7.4 6.71 10.36
3/26/2021 12:45:00 AM 11.07 51.926 0.24 7.4 8.08 10.39
3/26/2021 1:00:00 AM 11.06 51.908 0.241 7.4 6.8 10.37
3/26/2021 1:15:00 AM 11.03 51.854 0.241 7.39 7.79 10.36
3/26/2021 1:30:00 AM 10.97 51.746 0.242 7.37 7.92 10.34
3/26/2021 1:45:00 AM 10.99 51.782 0.242 7.39 7.42 10.34
3/26/2021 2:00:00 AM 11.13 52.034 0.241 7.37 6.81 10.29
3/26/2021 2:15:00 AM 11.03 51.854 0.242 7.36 8.81 10.3
3/26/2021 2:30:00 AM 10.99 51.782 0.242 7.35 7.91 10.28
3/26/2021 2:45:00 AM 10.98 51.764 0.241 7.34 7.28 10.3
3/26/2021 3:00:00 AM 10.99 51.782 0.241 7.34 6.79 10.3
3/26/2021 3:15:00 AM 10.95 51.71 0.241 7.33 7.42 10.29
3/26/2021 3:30:00 AM 10.95 51.71 0.242 7.35 7.61 10.23
3/26/2021 3:45:00 AM 10.88 51.584 0.242 7.33 6.31 10.22
3/26/2021 4:00:00 AM 11.02 51.836 0.241 7.32 7.64 10.18
3/26/2021 4:15:00 AM 10.93 51.674 0.242 7.33 6.59 10.19
3/26/2021 4:30:00 AM 10.94 51.692 0.242 7.3 9.14 10.17
3/26/2021 4:45:00 AM 10.9 51.62 0.242 7.31 7.29 10.19
3/26/2021 5:00:00 AM 10.95 51.71 0.241 7.31 8.16 10.16
3/26/2021 5:15:00 AM 10.81 51.458 0.241 7.28 9.37 10.15
3/26/2021 5:30:00 AM 10.79 51.422 0.241 7.28 7.93 10.14
3/26/2021 5:45:00 AM 10.8 51.44 0.241 7.27 6.78 10.1
3/26/2021 6:00:00 AM 10.82 51.476 0.241 7.26 7.07 10.1
3/26/2021 6:15:00 AM 10.79 51.422 0.242 7.25 6.63 10.1
3/26/2021 6:30:00 AM 10.75 51.35 0.242 7.25 6.79 10.11
3/26/2021 6:45:00 AM 10.76 51.368 0.242 7.24 7.35 10.1
3/26/2021 7:00:00 AM 10.78 51.404 0.242 7.25 6.92 10.12
3/26/2021 7:15:00 AM 10.79 51.422 0.242 7.25 9.31 10.13
3/26/2021 7:30:00 AM 10.8 51.44 0.242 7.25 6.71 10.15
3/26/2021 7:45:00 AM 10.93 51.674 0.241 7.24 9.77 10.18
3/26/2021 8:00:00 AM 10.89 51.602 0.241 7.25 6.21 10.27
3/26/2021 8:15:00 AM 10.98 51.764 0.241 7.26 6.59 10.29
3/26/2021 8:30:00 AM 11.01 51.818 0.242 7.26 5.4 10.36
3/26/2021 8:45:00 AM 11.1 51.98 0.241 7.28 7.9 10.51
3/26/2021 9:00:00 AM 11.14 52.052 0.241 7.29 5.93 10.63
3/26/2021 9:15:00 AM 11.13 52.034 0.242 7.31 6.23 10.8
3/26/2021 9:30:00 AM 11.33 52.394 0.241 7.33 6.08 10.91
3/26/2021 9:45:00 AM 11.45 52.61 0.241 7.35 6.41 11.01
3/26/2021 10:00:00 AM 11.57 52.826 0.241 7.37 6.18 11.1
3/26/2021 10:15:00 AM 11.76 53.168 0.24 7.39 5.82 11.16
3/26/2021 10:30:00 AM 11.83 53.294 0.241 7.41 5.52 11.23
3/26/2021 10:45:00 AM 12 53.6 0.242 7.43 6.84 11.26
3/26/2021 11:00:00 AM 12.17 53.906 0.242 7.45 5.41 11.34
3/26/2021 11:15:00 AM 12.18 53.924 0.243 7.48 7.44 11.41
3/26/2021 11:30:00 AM 12.36 54.248 0.242 7.51 5.26 11.44
3/26/2021 11:45:00 AM 12.5 54.5 0.242 7.53 5.37 11.53
3/26/2021 12:00:00 PM 12.7 54.86 0.242 7.56 5.74 11.57
3/26/2021 12:15:00 PM 12.81 55.058 0.242 7.59 5.58 11.62
3/26/2021 12:30:00 PM 12.87 55.166 0.242 7.61 5.8 11.63
3/26/2021 12:45:00 PM 12.95 55.31 0.242 7.66 7.01 11.67
3/26/2021 1:00:00 PM 12.99 55.382 0.243 7.67 9.37 11.68
3/26/2021 1:15:00 PM 13.05 55.49 0.243 7.7 9.05 11.67
3/26/2021 1:30:00 PM 13.15 55.67 0.243 7.72 6.07 11.69
3/26/2021 1:45:00 PM 13.19 55.742 0.243 7.75 6.18 11.72
3/26/2021 2:00:00 PM 13.26 55.868 0.243 7.78 8.01 11.73
3/26/2021 2:15:00 PM 13.24 55.832 0.243 7.83 6.09 11.76
3/26/2021 2:30:00 PM 13.18 55.724 0.243 7.83 5.28 11.77
3/26/2021 2:45:00 PM 13.4 56.12 0.242 7.85 6.49 11.79
3/26/2021 3:00:00 PM 13.13 55.634 0.243 7.88 5.15 11.82
3/26/2021 3:15:00 PM 13.23 55.814 0.242 7.89 5.31 11.83
3/26/2021 3:30:00 PM 13.22 55.796 0.243 7.94 5.88 11.79
3/26/2021 3:45:00 PM 13.29 55.922 0.243 7.96 6.54 11.77
3/26/2021 4:00:00 PM 13.15 55.67 0.243 7.98 4.58 11.72
3/26/2021 4:15:00 PM 13.12 55.616 0.243 8 5.68 11.69
3/26/2021 4:30:00 PM 13.03 55.454 0.243 8.01 5.91 11.65
3/26/2021 4:45:00 PM 13.01 55.418 0.243 8.01 5.92 11.58
3/26/2021 5:00:00 PM 13.08 55.544 0.241 8 5.03 11.44
3/26/2021 5:15:00 PM 12.77 54.986 0.242 8 4.96 11.48
3/26/2021 5:30:00 PM 12.69 54.842 0.242 7.98 6.14 11.4
3/26/2021 5:45:00 PM 12.68 54.824 0.242 7.97 5.2 11.34
3/26/2021 6:00:00 PM 12.77 54.986 0.242 7.97 5.67 11.24
3/26/2021 6:15:00 PM 12.4 54.32 0.243 7.94 5.6 11.16
3/26/2021 6:30:00 PM 12.35 54.23 0.243 7.92 5.63 11.04
3/26/2021 6:45:00 PM 12.41 54.338 0.242 7.91 5.32 10.98
3/26/2021 7:00:00 PM 12.35 54.23 0.242 7.89 5.26 10.95
3/26/2021 7:15:00 PM 12.35 54.23 0.242 7.87 5.31 10.89
3/26/2021 7:30:00 PM 12.36 54.248 0.241 7.85 5.14 10.77
3/26/2021 7:45:00 PM 12.11 53.798 0.242 7.82 5.33 10.74
3/26/2021 8:00:00 PM 12.09 53.762 0.242 7.81 5.14 10.64
3/26/2021 8:15:00 PM 11.97 53.546 0.242 7.78 5.6 10.6
3/26/2021 8:30:00 PM 12.07 53.726 0.242 7.75 5.36 10.48
3/26/2021 8:45:00 PM 12.1 53.78 0.243 7.72 6.84 10.4
3/26/2021 9:00:00 PM 12.08 53.744 0.243 7.69 6.1 10.36
3/26/2021 9:15:00 PM 12.03 53.654 0.243 7.68 7.34 10.31
3/26/2021 9:30:00 PM 11.97 53.546 0.243 7.65 6.03 10.29
3/26/2021 9:45:00 PM 11.93 53.474 0.243 7.63 6.11 10.26
3/26/2021 10:00:00 PM 11.92 53.456 0.243 7.62 6.28 10.25
3/26/2021 10:15:00 PM 11.92 53.456 0.242 7.6 9.73 10.21
3/26/2021 10:30:00 PM 11.87 53.366 0.242 7.59 13.7 10.19
3/26/2021 10:45:00 PM 11.93 53.474 0.243 7.56 5.94 10.13
3/26/2021 11:00:00 PM 12.1 53.78 0.242 7.54 6.81 10.1
3/26/2021 11:15:00 PM 11.8 53.24 0.244 7.53 7.24 10.12
3/26/2021 11:30:00 PM 11.86 53.348 0.243 7.52 6.85 10.09
3/26/2021 11:45:00 PM 11.78 53.204 0.243 7.5 10.43 10.09
3/27/2021 12:00:00 AM 11.61 52.898 0.243 7.49 5.96 10.14
3/27/2021 12:15:00 AM 11.73 53.114 0.242 7.47 11.86 10.12
3/27/2021 12:30:00 AM 11.63 52.934 0.242 7.45 7.82 10.13
3/27/2021 12:45:00 AM 11.56 52.808 0.242 7.45 7.12 10.12
3/27/2021 1:00:00 AM 11.47 52.646 0.242 7.44 6.39 10.14
3/27/2021 1:15:00 AM 11.4 52.52 0.243 7.42 7.42 10.12
3/27/2021 1:30:00 AM 11.45 52.61 0.243 7.41 6.91 10.12
3/27/2021 1:45:00 AM 11.28 52.304 0.244 7.41 7.02 10.14
3/27/2021 2:00:00 AM 11.38 52.484 0.243 7.4 7.44 10.13
3/27/2021 2:15:00 AM 11.31 52.358 0.243 7.39 7.69 10.15
3/27/2021 2:30:00 AM 11.19 52.142 0.243 7.38 7.27 10.15
3/27/2021 2:45:00 AM 11.18 52.124 0.242 7.36 6.76 10.11
3/27/2021 3:00:00 AM 11.1 51.98 0.242 7.35 6.53 10.14
3/27/2021 3:15:00 AM 10.92 51.656 0.242 7.33 6.59 10.19
3/27/2021 3:30:00 AM 10.87 51.566 0.243 7.33 9.53 10.17
3/27/2021 3:45:00 AM 10.92 51.656 0.243 7.32 8.58 10.16
3/27/2021 4:00:00 AM 10.75 51.35 0.243 7.31 6.1 10.15
3/27/2021 4:15:00 AM 10.68 51.224 0.244 7.3 6.35 10.16
3/27/2021 4:30:00 AM 10.71 51.278 0.243 7.3 6.66 10.14
3/27/2021 4:45:00 AM 10.72 51.296 0.243 7.29 6.5 10.15
3/27/2021 5:00:00 AM 10.57 51.026 0.243 7.27 7.23 10.17
3/27/2021 5:15:00 AM 10.55 50.99 0.242 7.27 6.42 10.16
3/27/2021 5:30:00 AM 10.44 50.792 0.242 7.26 7.33 10.19
3/27/2021 5:45:00 AM 10.46 50.828 0.242 7.26 6.54 10.19
3/27/2021 6:00:00 AM 10.28 50.504 0.243 7.25 7.35 10.21
3/27/2021 6:15:00 AM 10.24 50.432 0.243 7.24 7.95 10.23
3/27/2021 6:30:00 AM 10.25 50.45 0.243 7.24 7.23 10.24
3/27/2021 6:45:00 AM 10.21 50.378 0.243 7.23 9.19 10.25
3/27/2021 7:00:00 AM 10.15 50.27 0.243 7.23 6.9 10.27
3/27/2021 7:15:00 AM 10.15 50.27 0.242 7.22 6.66 10.33
3/27/2021 7:30:00 AM 10.06 50.108 0.242 7.23 5.88 10.38
3/27/2021 7:45:00 AM 10 50 0.242 7.23 6.14 10.48
3/27/2021 8:00:00 AM 9.96 49.928 0.242 7.22 6.11 10.58
3/27/2021 8:15:00 AM 10.01 50.018 0.242 7.24 5.35 10.7
3/27/2021 8:30:00 AM 10.03 50.054 0.242 7.23 5.51 10.81
3/27/2021 8:45:00 AM 10.04 50.072 0.242 7.26 5.43 10.95
3/27/2021 9:00:00 AM 10.12 50.216 0.242 7.27 5.53 11.08
3/27/2021 9:15:00 AM 10.17 50.306 0.242 7.28 5.57 11.21
3/27/2021 9:30:00 AM 10.29 50.522 0.241 7.3 5.51 11.35
3/27/2021 9:45:00 AM 10.35 50.63 0.241 7.32 5.27 11.47
3/27/2021 10:00:00 AM 10.45 50.81 0.242 7.34 5.04 11.57
3/27/2021 10:15:00 AM 10.73 51.314 0.24 7.37 5.83 11.62
3/27/2021 10:30:00 AM 10.79 51.422 0.241 7.39 5.03 11.69
3/27/2021 10:45:00 AM 10.87 51.566 0.241 7.42 4.86 11.77
3/27/2021 11:00:00 AM 11.06 51.908 0.242 7.44 6.13 11.79
3/27/2021 11:15:00 AM 11.18 52.124 0.242 7.46 5.03 11.83
3/27/2021 11:30:00 AM 11.35 52.43 0.242 7.49 4.72 11.87
3/27/2021 11:45:00 AM 11.51 52.718 0.241 7.53 5.09 11.89
3/27/2021 12:00:00 PM 11.65 52.97 0.241 7.55 4.91 11.95
3/27/2021 12:15:00 PM 11.79 53.222 0.241 7.57 4.66 11.98
3/27/2021 12:30:00 PM 11.96 53.528 0.242 7.6 5.32 12.02
3/27/2021 12:45:00 PM 12.13 53.834 0.241 7.61 5.44 12.02
3/27/2021 1:00:00 PM 12.19 53.942 0.242 7.66 5.03 12.09
3/27/2021 1:15:00 PM 12.38 54.284 0.242 7.68 4.89 12.1
3/27/2021 1:30:00 PM 12.44 54.392 0.242 7.7 5.04 12.13
3/27/2021 1:45:00 PM 12.47 54.446 0.243 7.75 5.81 12.16
3/27/2021 2:00:00 PM 12.56 54.608 0.242 7.78 4.92 12.19
3/27/2021 2:15:00 PM 12.49 54.482 0.242 7.81 5.93 12.24
3/27/2021 2:30:00 PM 12.54 54.572 0.242 7.84 5.64 12.23
3/27/2021 2:45:00 PM 12.59 54.662 0.242 7.88 5.48 12.22
3/27/2021 3:00:00 PM 12.48 54.464 0.242 7.9 5.02 12.25
3/27/2021 3:15:00 PM 12.53 54.554 0.242 7.93 5.22 12.21
3/27/2021 3:30:00 PM 12.44 54.392 0.242 7.96 4.74 12.22
3/27/2021 3:45:00 PM 12.46 54.428 0.243 7.99 5.13 12.17
3/27/2021 4:00:00 PM 12.45 54.41 0.243 8.01 6.15 12.14
3/27/2021 4:15:00 PM 12.34 54.212 0.243 8.04 5.83 12.1
3/27/2021 4:30:00 PM 12.22 53.996 0.244 8.05 5.18 12.06
3/27/2021 4:45:00 PM 12.29 54.122 0.243 8.06 5.48 11.99
3/27/2021 5:00:00 PM 12.17 53.906 0.244 8.05 7.32 11.93
3/27/2021 5:15:00 PM 12.15 53.87 0.243 8.05 6.08 11.87
3/27/2021 5:30:00 PM 12.08 53.744 0.243 8.06 4.68 11.81
3/27/2021 5:45:00 PM 11.93 53.474 0.243 8.04 5.06 11.74
3/27/2021 6:00:00 PM 11.89 53.402 0.243 8.03 4.66 11.64
3/27/2021 6:15:00 PM 11.92 53.456 0.243 8.01 5.04 11.5
3/27/2021 6:30:00 PM 11.76 53.168 0.244 7.99 5.72 11.43
3/27/2021 6:45:00 PM 11.81 53.258 0.243 7.95 4.77 11.31
3/27/2021 7:00:00 PM 11.82 53.276 0.243 7.92 4.81 11.15
3/27/2021 7:15:00 PM 11.83 53.294 0.243 7.89 5.56 11.01
3/27/2021 7:30:00 PM 11.63 52.934 0.244 7.84 5.16 10.9
3/27/2021 7:45:00 PM 11.7 53.06 0.243 7.8 5.68 10.76
3/27/2021 8:00:00 PM 11.61 52.898 0.243 7.76 5.41 10.67
3/27/2021 8:15:00 PM 11.49 52.682 0.243 7.72 5.29 10.6
3/27/2021 8:30:00 PM 11.4 52.52 0.244 7.67 9 10.5
3/27/2021 8:45:00 PM 11.44 52.592 0.244 7.66 5.95 10.44
3/27/2021 9:00:00 PM 11.46 52.628 0.244 7.63 6.31 10.41
3/27/2021 9:15:00 PM 11.43 52.574 0.244 7.61 6.41 10.37
3/27/2021 9:30:00 PM 11.35 52.43 0.244 7.58 5.35 10.38
3/27/2021 9:45:00 PM 11.37 52.466 0.244 7.56 6.5 10.36
3/27/2021 10:00:00 PM 11.37 52.466 0.243 7.53 5.93 10.36
3/27/2021 10:15:00 PM 11.33 52.394 0.243 7.52 5.78 10.31
3/27/2021 10:30:00 PM 11.22 52.196 0.243 7.5 7.2 10.35
3/27/2021 10:45:00 PM 11.32 52.376 0.243 7.49 5.95 10.32
3/27/2021 11:00:00 PM 11.34 52.412 0.243 7.48 6.23 10.3
3/27/2021 11:15:00 PM 11.36 52.448 0.243 7.47 9.47 10.29
3/27/2021 11:30:00 PM 11.21 52.178 0.244 7.46 5.69 10.3
3/27/2021 11:45:00 PM 11.33 52.394 0.243 7.44 6.17 10.28
3/28/2021 12:00:00 AM 11.2 52.16 0.243 7.43 6.33 10.3
3/28/2021 12:15:00 AM 11.19 52.142 0.243 7.43 6.69 10.3
3/28/2021 12:30:00 AM 11.14 52.052 0.243 7.42 6.05 10.3
3/28/2021 12:45:00 AM 11.18 52.124 0.242 7.41 6.55 10.29
3/28/2021 1:00:00 AM 11.07 51.926 0.242 7.4 7.61 10.26
3/28/2021 1:15:00 AM 11.04 51.872 0.243 7.39 5.5 10.27
3/28/2021 1:30:00 AM 11.02 51.836 0.243 7.39 6.8 10.27
3/28/2021 1:45:00 AM 10.95 51.71 0.243 7.37 6.14 10.24
3/28/2021 2:00:00 AM 10.87 51.566 0.244 7.35 6.69 10.26
3/28/2021 2:15:00 AM 10.85 51.53 0.243 7.34 6.5 10.24
3/28/2021 2:30:00 AM 10.88 51.584 0.243 7.34 6.62 10.23
3/28/2021 2:45:00 AM 10.84 51.512 0.242 7.33 7.15 10.23
3/28/2021 3:00:00 AM 10.75 51.35 0.242 7.32 5.72 10.24
3/28/2021 3:15:00 AM 10.73 51.314 0.242 7.3 6.96 10.22
3/28/2021 3:30:00 AM 10.67 51.206 0.243 7.31 6.76 10.22
3/28/2021 3:45:00 AM 10.61 51.098 0.243 7.3 10.62 10.18
3/28/2021 4:00:00 AM 10.57 51.026 0.244 7.29 6.84 10.17
3/28/2021 4:15:00 AM 10.69 51.242 0.243 7.29 8.1 10.15
3/28/2021 4:30:00 AM 10.67 51.206 0.243 7.27 8.42 10.14
3/28/2021 4:45:00 AM 10.59 51.062 0.243 7.27 10 10.13
3/28/2021 5:00:00 AM 10.62 51.116 0.243 7.25 7.26 10.11
3/28/2021 5:15:00 AM 10.52 50.936 0.243 7.24 6.25 10.14
3/28/2021 5:30:00 AM 10.55 50.99 0.242 7.23 6.52 10.12
3/28/2021 5:45:00 AM 10.55 50.99 0.242 7.22 6.65 10.14
3/28/2021 6:00:00 AM 10.54 50.972 0.243 7.23 7.57 10.14
3/28/2021 6:15:00 AM 10.56 51.008 0.243 7.22 8.6 10.12
3/28/2021 6:30:00 AM 10.55 50.99 0.243 7.22 7.56 10.1
3/28/2021 6:45:00 AM 10.51 50.918 0.243 7.21 7.4 10.12
3/28/2021 7:00:00 AM 10.56 51.008 0.242 7.22 8.57 10.14
3/28/2021 7:15:00 AM 10.65 51.17 0.241 7.22 6.71 10.14
3/28/2021 7:30:00 AM 10.57 51.026 0.241 7.22 7.81 10.17
3/28/2021 7:45:00 AM 10.59 51.062 0.24 7.23 6.59 10.22
3/28/2021 8:00:00 AM 10.58 51.044 0.24 7.23 7.83 10.23
3/28/2021 8:15:00 AM 10.54 50.972 0.24 7.23 7.79 10.28
3/28/2021 8:30:00 AM 10.56 51.008 0.24 7.24 6.34 10.29
3/28/2021 8:45:00 AM 10.57 51.026 0.24 7.23 6.36 10.31
3/28/2021 9:00:00 AM 10.55 50.99 0.239 7.23 6.5 10.29
3/28/2021 9:15:00 AM 10.53 50.954 0.239 7.24 9.56 10.27
3/28/2021 9:30:00 AM 10.57 51.026 0.239 7.24 5.62 10.26
3/28/2021 9:45:00 AM 10.56 51.008 0.239 7.22 6.27 10.25
3/28/2021 10:00:00 AM 10.51 50.918 0.24 7.22 5.31 10.21
3/28/2021 10:15:00 AM 10.48 50.864 0.24 7.22 6.16 10.24
3/28/2021 10:30:00 AM 10.55 50.99 0.239 7.21 6.46 10.23
3/28/2021 10:45:00 AM 10.54 50.972 0.24 7.21 6.2 10.3
3/28/2021 11:00:00 AM 10.61 51.098 0.24 7.21 6.31 10.35
3/28/2021 11:15:00 AM 10.58 51.044 0.24 7.22 6.34 10.48
3/28/2021 11:30:00 AM 10.6 51.08 0.24 7.24 6.44 10.57
3/28/2021 11:45:00 AM 10.66 51.188 0.24 7.26 5.75 10.64
3/28/2021 12:00:00 PM 10.69 51.242 0.24 7.25 5.76 10.73
3/28/2021 12:15:00 PM 10.82 51.476 0.239 7.27 6.87 10.75
3/28/2021 12:30:00 PM 10.72 51.296 0.24 7.29 6.07 10.83
3/28/2021 12:45:00 PM 10.76 51.368 0.24 7.3 6.43 10.85
3/28/2021 1:00:00 PM 10.8 51.44 0.241 7.3 6.08 10.88
3/28/2021 1:15:00 PM 10.86 51.548 0.241 7.33 7.93 10.94
3/28/2021 1:30:00 PM 10.9 51.62 0.241 7.33 6.53 11.02
3/28/2021 1:45:00 PM 11.01 51.818 0.24 7.36 5.79 11.14
3/28/2021 2:00:00 PM 11.07 51.926 0.24 7.38 5.39 11.23
3/28/2021 2:15:00 PM 11.11 51.998 0.24 7.4 5.22 11.25
3/28/2021 2:30:00 PM 11.18 52.124 0.24 7.43 5.68 11.31
3/28/2021 2:45:00 PM 11.26 52.268 0.24 7.45 6.33 11.37
3/28/2021 3:00:00 PM 11.34 52.412 0.24 7.46 6.53 11.41
3/28/2021 3:15:00 PM 11.41 52.538 0.241 7.49 6.34 11.41
3/28/2021 3:30:00 PM 11.44 52.592 0.241 7.51 8.36 11.34
3/28/2021 3:45:00 PM 11.47 52.646 0.241 7.52 5.48 11.37
3/28/2021 4:00:00 PM 11.47 52.646 0.242 7.54 5.99 11.4
3/28/2021 4:15:00 PM 11.58 52.844 0.241 7.56 6.48 11.45
3/28/2021 4:30:00 PM 11.64 52.952 0.241 7.57 8.51 11.42
3/28/2021 4:45:00 PM 11.65 52.97 0.241 7.59 6.64 11.37
3/28/2021 5:00:00 PM 11.62 52.916 0.241 7.59 9.7 11.26
3/28/2021 5:15:00 PM 11.66 52.988 0.24 7.59 5.79 11.14
3/28/2021 5:30:00 PM 11.53 52.754 0.24 7.58 6.74 10.99
3/28/2021 5:45:00 PM 11.5 52.7 0.239 7.56 6.9 10.82
3/28/2021 6:00:00 PM 11.56 52.808 0.238 7.54 7.89 10.72
3/28/2021 6:15:00 PM 11.48 52.664 0.239 7.52 7.88 10.67
3/28/2021 6:30:00 PM 11.47 52.646 0.239 7.52 7.8 10.66
3/28/2021 6:45:00 PM 11.49 52.682 0.239 7.51 8.09 10.61
3/28/2021 7:00:00 PM 11.38 52.484 0.239 7.5 9.48 10.59
3/28/2021 7:15:00 PM 11.27 52.286 0.24 7.5 7.74 10.61
3/28/2021 7:30:00 PM 11.3 52.34 0.24 7.47 9.3 10.54
3/28/2021 7:45:00 PM 11.25 52.25 0.242 7.45 10.7 10.46
3/28/2021 8:00:00 PM 11.3 52.34 0.242 7.45 8.5 10.41
3/28/2021 8:15:00 PM 11.18 52.124 0.244 7.44 9.14 10.38
3/28/2021 8:30:00 PM 11.11 51.998 0.244 7.42 9.06 10.34
3/28/2021 8:45:00 PM 11.05 51.89 0.243 7.4 9.9 10.34
3/28/2021 9:00:00 PM 11.02 51.836 0.241 7.41 9.35 10.32
3/28/2021 9:15:00 PM 10.91 51.638 0.241 7.39 9.53 10.32
3/28/2021 9:30:00 PM 10.9 51.62 0.24 7.39 8.65 10.33
3/28/2021 9:45:00 PM 10.88 51.584 0.239 7.38 8.22 10.35
3/28/2021 10:00:00 PM 10.78 51.404 0.24 7.37 9.83 10.35
3/28/2021 10:15:00 PM 10.67 51.206 0.24 7.37 10.96 10.4
3/28/2021 10:30:00 PM 10.66 51.188 0.238 7.36 13.9 10.36
3/28/2021 10:45:00 PM 10.45 50.81 0.24 7.33 8.53 10.37
3/28/2021 11:00:00 PM 10.35 50.63 0.24 7.33 9.15 10.35
3/28/2021 11:15:00 PM 10.31 50.558 0.239 7.33 18.4 10.32
3/28/2021 11:30:00 PM 10.25 50.45 0.239 7.33 8.34 10.35
3/28/2021 11:45:00 PM 10.15 50.27 0.239 7.3 8.3 10.38
3/29/2021 12:00:00 AM 10.03 50.054 0.24 7.3 8.75 10.37
3/29/2021 12:15:00 AM 10.15 50.27 0.238 7.3 9.66 10.39
3/29/2021 12:30:00 AM 10.25 50.45 0.237 7.31 10 10.35
3/29/2021 12:45:00 AM 10.24 50.432 0.238 7.28 9.32 10.36
3/29/2021 1:00:00 AM 10.2 50.36 0.239 7.31 9.49 10.38
3/29/2021 1:15:00 AM 10.1 50.18 0.239 7.3 14.82 10.42
3/29/2021 1:30:00 AM 10 50 0.24 7.29 9.31 10.41
3/29/2021 1:45:00 AM 10.01 50.018 0.239 7.29 12.21 10.4
3/29/2021 2:00:00 AM 9.99 49.982 0.239 7.28 10.77 10.41
3/29/2021 2:15:00 AM 10.08 50.144 0.237 7.28 26.74 10.41
3/29/2021 2:30:00 AM 9.9 49.82 0.239 7.28 10.28 10.42
3/29/2021 2:45:00 AM 9.86 49.748 0.238 7.27 10.3 10.43
3/29/2021 3:00:00 AM 9.85 49.73 0.237 7.26 13.02 10.44
3/29/2021 3:15:00 AM 9.85 49.73 0.237 7.25 9.79 10.45
3/29/2021 3:30:00 AM 9.78 49.604 0.237 7.24 11.38 10.43
3/29/2021 3:45:00 AM 9.71 49.478 0.237 7.26 12.52 10.44
3/29/2021 4:00:00 AM 9.66 49.388 0.238 7.25 9.52 10.45
3/29/2021 4:15:00 AM 9.69 49.442 0.237 7.24 12.48 10.44
3/29/2021 4:30:00 AM 9.65 49.37 0.238 7.23 13.37 10.45
3/29/2021 4:45:00 AM 9.61 49.298 0.237 7.24 9.69 10.48
3/29/2021 5:00:00 AM 9.57 49.226 0.238 7.22 11.3 10.51
3/29/2021 5:15:00 AM 9.46 49.028 0.239 7.23 8.91 10.52
3/29/2021 5:30:00 AM 9.45 49.01 0.238 7.22 11.52 10.53
3/29/2021 5:45:00 AM 9.42 48.956 0.239 7.21 10.33 10.54
3/29/2021 6:00:00 AM 9.38 48.884 0.239 7.22 10.04 10.56
3/29/2021 6:15:00 AM 9.36 48.848 0.239 7.21 11.4 10.58
3/29/2021 6:30:00 AM 9.35 48.83 0.239 7.21 9.72 10.6
3/29/2021 6:45:00 AM 9.27 48.686 0.239 7.19 13.69 10.62
3/29/2021 7:00:00 AM 9.25 48.65 0.239 7.2 9.36 10.62
3/29/2021 7:15:00 AM 9.22 48.596 0.238 7.2 16.3 10.64
3/29/2021 7:30:00 AM 9.17 48.506 0.239 7.2 9.51 10.68
3/29/2021 7:45:00 AM 9.14 48.452 0.239 7.21 10.04 10.7
3/29/2021 8:00:00 AM 9.13 48.434 0.238 7.19 9.67 10.77
3/29/2021 8:15:00 AM 9.09 48.362 0.239 7.2 8.72 10.83
3/29/2021 8:30:00 AM 9.08 48.344 0.239 7.21 9.03 10.98
3/29/2021 8:45:00 AM 9.04 48.272 0.24 7.22 9.9 11.13
3/29/2021 9:00:00 AM 9.15 48.47 0.238 7.23 8.51 11.22
3/29/2021 9:15:00 AM 9.16 48.488 0.239 7.23 7.94 11.33
3/29/2021 9:30:00 AM 9.25 48.65 0.239 7.25 9.27 11.43
3/29/2021 9:45:00 AM 9.25 48.65 0.24 7.26 9.35 11.5
3/29/2021 10:00:00 AM 9.27 48.686 0.239 7.28 8.23 11.53
3/29/2021 10:15:00 AM 9.26 48.668 0.239 7.28 8.61 11.59
3/29/2021 10:30:00 AM 9.34 48.812 0.239 7.29 17.13 11.68
3/29/2021 10:45:00 AM 9.36 48.848 0.24 7.32 7.68 11.75
3/29/2021 11:00:00 AM 9.4 48.92 0.241 7.33 7.77 11.83
3/29/2021 11:15:00 AM 9.48 49.064 0.241 7.35 16.5 11.89
3/29/2021 11:30:00 AM 9.64 49.352 0.24 7.37 11.07 11.94
3/29/2021 11:45:00 AM 9.76 49.568 0.241 7.39 8.19 11.96
3/29/2021 12:00:00 PM 9.89 49.802 0.241 7.41 7.17 12.02
3/29/2021 12:15:00 PM 10.04 50.072 0.241 7.44 8.86 12.06
3/29/2021 12:30:00 PM 10.17 50.306 0.241 7.44 6.23 12.09
3/29/2021 12:45:00 PM 10.28 50.504 0.241 7.47 6.92 12.15
3/29/2021 1:00:00 PM 10.42 50.756 0.241 7.48 6.67 12.19
3/29/2021 1:15:00 PM 10.53 50.954 0.242 7.52 6.54 12.24
3/29/2021 1:30:00 PM 10.64 51.152 0.242 7.53 6.94 12.26
3/29/2021 1:45:00 PM 10.74 51.332 0.243 7.58 6.16 12.25
3/29/2021 2:00:00 PM 10.85 51.53 0.243 7.6 6.44 12.27
3/29/2021 2:15:00 PM 10.9 51.62 0.243 7.62 6.31 12.3
3/29/2021 2:30:00 PM 10.93 51.674 0.242 7.64 6.14 12.32
3/29/2021 2:45:00 PM 11.09 51.962 0.241 7.67 6.21 12.32
3/29/2021 3:00:00 PM 11.07 51.926 0.241 7.68 6.18 12.31
3/29/2021 3:15:00 PM 11.15 52.07 0.24 7.71 6.58 12.28
3/29/2021 3:30:00 PM 11.17 52.106 0.24 7.72 6.34 12.25
3/29/2021 3:45:00 PM 11.13 52.034 0.241 7.74 7.43 12.25
3/29/2021 4:00:00 PM 11.14 52.052 0.24 7.76 6.65 12.23
3/29/2021 4:15:00 PM 11.05 51.89 0.241 7.76 6.2 12.2
3/29/2021 4:30:00 PM 11.1 51.98 0.24 7.78 5.57 12.18
3/29/2021 4:45:00 PM 11 51.8 0.24 7.8 6.69 12.15
3/29/2021 5:00:00 PM 10.99 51.782 0.239 7.8 6.41 12.08
3/29/2021 5:15:00 PM 10.86 51.548 0.239 7.8 6.54 12.06
3/29/2021 5:30:00 PM 10.81 51.458 0.239 7.79 6.77 11.99
3/29/2021 5:45:00 PM 10.74 51.332 0.239 7.78 5.76 11.91
3/29/2021 6:00:00 PM 10.71 51.278 0.239 7.78 5.84 11.82
3/29/2021 6:15:00 PM 10.55 50.99 0.24 7.78 6.28 11.77
3/29/2021 6:30:00 PM 10.6 51.08 0.239 7.76 6.27 11.63
3/29/2021 6:45:00 PM 10.53 50.954 0.24 7.75 6.4 11.59
3/29/2021 7:00:00 PM 10.48 50.864 0.24 7.73 5.89 11.52
3/29/2021 7:15:00 PM 10.43 50.774 0.239 7.71 6.79 11.42
3/29/2021 7:30:00 PM 10.28 50.504 0.24 7.68 6.87 11.33
3/29/2021 7:45:00 PM 10.23 50.414 0.24 7.66 5.79 11.27
3/29/2021 8:00:00 PM 10.24 50.432 0.239 7.62 7.87 11.18
3/29/2021 8:15:00 PM 10.19 50.342 0.24 7.61 6.02 11.09
3/29/2021 8:30:00 PM 10.17 50.306 0.24 7.58 7.33 11.01
3/29/2021 8:45:00 PM 10.11 50.198 0.241 7.55 9.49 10.92
3/29/2021 9:00:00 PM 10.1 50.18 0.241 7.51 6.71 10.88
3/29/2021 9:15:00 PM 9.96 49.928 0.242 7.5 6.61 10.84
3/29/2021 9:30:00 PM 10.06 50.108 0.241 7.48 7.56 10.79
3/29/2021 9:45:00 PM 10.03 50.054 0.241 7.46 6.68 10.75
3/29/2021 10:00:00 PM 9.87 49.766 0.242 7.44 6.92 10.73
3/29/2021 10:15:00 PM 9.88 49.784 0.241 7.41 8.21 10.7
3/29/2021 10:30:00 PM 9.86 49.748 0.241 7.4 7.33 10.64
3/29/2021 10:45:00 PM 9.81 49.658 0.242 7.4 6.92 10.63
3/29/2021 11:00:00 PM 9.76 49.568 0.242 7.37 7.86 10.62
3/29/2021 11:15:00 PM 9.72 49.496 0.242 7.36 6.99 10.63
3/29/2021 11:30:00 PM 9.68 49.424 0.242 7.34 7.25 10.6
3/29/2021 11:45:00 PM 9.64 49.352 0.242 7.33 8.82 10.6
3/30/2021 12:00:00 AM 9.56 49.208 0.243 7.33 10.35 10.59
3/30/2021 12:15:00 AM 9.55 49.19 0.242 7.32 7.91 10.58
3/30/2021 12:30:00 AM 9.44 48.992 0.242 7.29 7.06 10.59
3/30/2021 12:45:00 AM 9.46 49.028 0.241 7.3 8.64 10.6
3/30/2021 1:00:00 AM 9.37 48.866 0.242 7.27 8.7 10.61
3/30/2021 1:15:00 AM 9.31 48.758 0.242 7.27 6.86 10.62
3/30/2021 1:30:00 AM 9.26 48.668 0.242 7.26 7.01 10.61
3/30/2021 1:45:00 AM 9.23 48.614 0.242 7.25 10.59 10.6
3/30/2021 2:00:00 AM 9.16 48.488 0.243 7.24 7.5 10.6
3/30/2021 2:15:00 AM 9.11 48.398 0.243 7.23 7.55 10.58
3/30/2021 2:30:00 AM 9.07 48.326 0.243 7.23 7.78 10.6
3/30/2021 2:45:00 AM 8.97 48.146 0.243 7.22 8.07 10.65
3/30/2021 3:00:00 AM 8.99 48.182 0.242 7.21 7.56 10.65
3/30/2021 3:15:00 AM 8.9 48.02 0.242 7.21 8.66 10.68
3/30/2021 3:30:00 AM 8.88 47.984 0.242 7.19 8.19 10.68
3/30/2021 3:45:00 AM 8.82 47.876 0.243 7.19 9.57 10.68
3/30/2021 4:00:00 AM 8.78 47.804 0.243 7.18 8.83 10.68
3/30/2021 4:15:00 AM 8.7 47.66 0.243 7.18 9.58 10.69
3/30/2021 4:30:00 AM 8.66 47.588 0.243 7.17 8.17 10.7
3/30/2021 4:45:00 AM 8.66 47.588 0.243 7.16 7.98 10.7
3/30/2021 5:00:00 AM 8.59 47.462 0.243 7.17 8.33 10.71
3/30/2021 5:15:00 AM 8.53 47.354 0.243 7.16 7.85 10.73
3/30/2021 5:30:00 AM 8.48 47.264 0.243 7.15 8.62 10.76
3/30/2021 5:45:00 AM 8.46 47.228 0.243 7.14 8.25 10.78
3/30/2021 6:00:00 AM 8.45 47.21 0.243 7.15 9.41 10.8
3/30/2021 6:15:00 AM 8.39 47.102 0.244 7.15 9.13 10.83
3/30/2021 6:30:00 AM 8.38 47.084 0.243 7.14 8.18 10.86
3/30/2021 6:45:00 AM 8.36 47.048 0.243 7.13 7.66 10.87
3/30/2021 7:00:00 AM 8.34 47.012 0.243 7.14 6.64 10.9
3/30/2021 7:15:00 AM 8.3 46.94 0.243 7.13 11.37 10.93
3/30/2021 7:30:00 AM 8.31 46.958 0.242 7.14 7.33 10.99
3/30/2021 7:45:00 AM 8.28 46.904 0.242 7.13 8.32 11.06
3/30/2021 8:00:00 AM 8.26 46.868 0.242 7.14 7.36 11.14
3/30/2021 8:15:00 AM 8.26 46.868 0.242 7.14 6.78 11.23
3/30/2021 8:30:00 AM 8.27 46.886 0.243 7.14 7.5 11.33
3/30/2021 8:45:00 AM 8.32 46.976 0.242 7.16 6.18 11.41
3/30/2021 9:00:00 AM 8.39 47.102 0.242 7.16 7.04 11.51
3/30/2021 9:15:00 AM 8.48 47.264 0.242 7.17 6.77 11.58
3/30/2021 9:30:00 AM 8.58 47.444 0.241 7.19 6.55 11.64
3/30/2021 9:45:00 AM 8.68 47.624 0.242 7.2 5.87 11.72
3/30/2021 10:00:00 AM 8.84 47.912 0.24 7.21 6.75 11.79
3/30/2021 10:15:00 AM 8.97 48.146 0.241 7.22 6.04 11.87
3/30/2021 10:30:00 AM 9.12 48.416 0.241 7.25 9.49 11.93
3/30/2021 10:45:00 AM 9.28 48.704 0.241 7.27 5.61 11.99
3/30/2021 11:00:00 AM 9.46 49.028 0.241 7.28 8.6 12.06
3/30/2021 11:15:00 AM 9.62 49.316 0.242 7.3 6.89 12.08
3/30/2021 11:30:00 AM 9.78 49.604 0.242 7.32 7.31 12.13
3/30/2021 11:45:00 AM 9.96 49.928 0.241 7.34 6.69 12.17
3/30/2021 12:00:00 PM 10.12 50.216 0.241 7.35 6.4 12.21
3/30/2021 12:15:00 PM 10.28 50.504 0.241 7.38 6.69 12.21
3/30/2021 12:30:00 PM 10.42 50.756 0.241 7.4 6.13 12.21
3/30/2021 12:45:00 PM 10.56 51.008 0.241 7.41 5.84 12.2
3/30/2021 1:00:00 PM 10.71 51.278 0.242 7.43 6.1 12.23
3/30/2021 1:15:00 PM 10.86 51.548 0.242 7.46 6.27 12.22
3/30/2021 1:30:00 PM 11.05 51.89 0.242 7.47 5.87 12.25
3/30/2021 1:45:00 PM 11.2 52.16 0.242 7.49 5.77 12.26
3/30/2021 2:00:00 PM 11.32 52.376 0.243 7.51 6.53 12.27
3/30/2021 2:15:00 PM 11.39 52.502 0.243 7.54 5.68 12.28
3/30/2021 2:30:00 PM 11.49 52.682 0.242 7.56 8.46 12.28
3/30/2021 2:45:00 PM 11.56 52.808 0.242 7.59 5.28 12.26
3/30/2021 3:00:00 PM 11.65 52.97 0.242 7.61 5.68 12.26
3/30/2021 3:15:00 PM 11.7 53.06 0.242 7.62 11.84 12.25
3/30/2021 3:30:00 PM 11.71 53.078 0.242 7.63 5.72 12.22
3/30/2021 3:45:00 PM 11.67 53.006 0.243 7.64 6.01 12.17
3/30/2021 4:00:00 PM 11.67 53.006 0.243 7.66 7.03 12.07
3/30/2021 4:15:00 PM 11.69 53.042 0.243 7.66 5.88 12.03
3/30/2021 4:30:00 PM 11.68 53.024 0.243 7.66 5.48 11.98
3/30/2021 4:45:00 PM 11.61 52.898 0.244 7.67 5.45 11.93
3/30/2021 5:00:00 PM 11.57 52.826 0.243 7.67 5.81 11.89
3/30/2021 5:15:00 PM 11.49 52.682 0.243 7.67 5.69 11.85
3/30/2021 5:30:00 PM 11.41 52.538 0.243 7.67 5.67 11.82
3/30/2021 5:45:00 PM 11.39 52.502 0.242 7.67 8.64 11.79
3/30/2021 6:00:00 PM 11.38 52.484 0.243 7.67 5.85 11.72
3/30/2021 6:15:00 PM 11.34 52.412 0.243 7.66 5.23 11.6
3/30/2021 6:30:00 PM 11.18 52.124 0.244 7.64 6.2 11.5
3/30/2021 6:45:00 PM 11.23 52.214 0.243 7.64 5.96 11.39
3/30/2021 7:00:00 PM 11.1 51.98 0.243 7.64 6.04 11.33
3/30/2021 7:15:00 PM 11.03 51.854 0.243 7.61 6.15 11.26
3/30/2021 7:30:00 PM 10.98 51.764 0.243 7.59 5.74 11.16
3/30/2021 7:45:00 PM 10.95 51.71 0.243 7.58 6.19 11.05
3/30/2021 8:00:00 PM 10.88 51.584 0.243 7.56 5.97 10.97
3/30/2021 8:15:00 PM 10.84 51.512 0.243 7.53 6.63 10.91
3/30/2021 8:30:00 PM 10.9 51.62 0.243 7.51 6.26 10.83
3/30/2021 8:45:00 PM 10.83 51.494 0.243 7.5 6.19 10.78
3/30/2021 9:00:00 PM 10.82 51.476 0.244 7.48 6.58 10.73
3/30/2021 9:15:00 PM 10.79 51.422 0.244 7.46 6.43 10.68
3/30/2021 9:30:00 PM 10.68 51.224 0.244 7.45 7.8 10.61
3/30/2021 9:45:00 PM 10.61 51.098 0.244 7.42 7.37 10.58
3/30/2021 10:00:00 PM 10.64 51.152 0.243 7.39 7.48 10.47
3/30/2021 10:15:00 PM 10.5 50.9 0.243 7.37 6.44 10.42
3/30/2021 10:30:00 PM 10.47 50.846 0.243 7.36 7.58 10.37
3/30/2021 10:45:00 PM 10.55 50.99 0.243 7.34 8.05 10.33
3/30/2021 11:00:00 PM 10.48 50.864 0.244 7.33 11.8 10.31
3/30/2021 11:15:00 PM 10.46 50.828 0.244 7.31 7.12 10.29
3/30/2021 11:30:00 PM 10.48 50.864 0.244 7.31 7.94 10.26
3/30/2021 11:45:00 PM 10.48 50.864 0.243 7.28 8.8 10.24
3/31/2021 12:00:00 AM 10.4 50.72 0.244 7.28 6.73 10.23
3/31/2021 12:15:00 AM 10.38 50.684 0.243 7.26 8.68 10.24
3/31/2021 12:30:00 AM 10.42 50.756 0.243 7.25 8.64 10.21
3/31/2021 12:45:00 AM 10.4 50.72 0.242 7.24 9.12 10.23
3/31/2021 1:00:00 AM 10.37 50.666 0.242 7.23 7.35 10.22
3/31/2021 1:15:00 AM 10.33 50.594 0.243 7.22 8.1 10.27
3/31/2021 1:30:00 AM 10.35 50.63 0.243 7.21 9.23 10.27
3/31/2021 1:45:00 AM 10.29 50.522 0.244 7.21 6.96 10.28
3/31/2021 2:00:00 AM 10.24 50.432 0.244 7.21 7.13 10.31
3/31/2021 2:15:00 AM 10.23 50.414 0.244 7.21 7.3 10.31
3/31/2021 2:30:00 AM 10.21 50.378 0.244 7.2 8.53 10.32
3/31/2021 2:45:00 AM 10.2 50.36 0.243 7.2 7.55 10.33
3/31/2021 3:00:00 AM 10.14 50.252 0.243 7.19 7.35 10.33
3/31/2021 3:15:00 AM 10.05 50.09 0.243 7.18 7.83 10.31
3/31/2021 3:30:00 AM 10.01 50.018 0.243 7.17 7.41 10.28
3/31/2021 3:45:00 AM 9.95 49.91 0.244 7.16 7.49 10.24
3/31/2021 4:00:00 AM 9.92 49.856 0.244 7.16 7.13 10.2
3/31/2021 4:15:00 AM 9.9 49.82 0.244 7.15 10.26 10.19
3/31/2021 4:30:00 AM 9.86 49.748 0.244 7.14 7.28 10.15
3/31/2021 4:45:00 AM 9.86 49.748 0.244 7.13 9.51 10.13
3/31/2021 5:00:00 AM 9.87 49.766 0.243 7.12 8.45 10.12
3/31/2021 5:15:00 AM 9.79 49.622 0.243 7.14 7.99 10.13
3/31/2021 5:30:00 AM 9.8 49.64 0.242 7.11 9.02 10.13
3/31/2021 5:45:00 AM 9.71 49.478 0.243 7.11 9.35 10.14
3/31/2021 6:00:00 AM 9.71 49.478 0.243 7.1 9.04 10.15
3/31/2021 6:15:00 AM 9.73 49.514 0.243 7.09 8.72 10.18
3/31/2021 6:30:00 AM 9.73 49.514 0.243 7.09 7.61 10.18
3/31/2021 6:45:00 AM 9.75 49.55 0.243 7.1 8.39 10.19
3/31/2021 7:00:00 AM 9.71 49.478 0.243 7.1 8.09 10.23
3/31/2021 7:15:00 AM 9.71 49.478 0.243 7.1 7.92 10.27
3/31/2021 7:30:00 AM 9.79 49.622 0.242 7.09 8.59 10.33
3/31/2021 7:45:00 AM 9.81 49.658 0.242 7.1 6.57 10.41
3/31/2021 8:00:00 AM 9.78 49.604 0.242 7.1 7.83 10.51
3/31/2021 8:15:00 AM 9.81 49.658 0.242 7.11 6.82 10.57
3/31/2021 8:30:00 AM 9.92 49.856 0.242 7.11 6.87 10.67
3/31/2021 8:45:00 AM 10 50 0.241 7.13 7.4 10.75
3/31/2021 9:00:00 AM 10.05 50.09 0.241 7.13 6.31 10.88
3/31/2021 9:15:00 AM 10.09 50.162 0.241 7.17 6.22 10.98
3/31/2021 9:30:00 AM 10.16 50.288 0.241 7.17 7.6 11.08
3/31/2021 9:45:00 AM 10.24 50.432 0.24 7.19 5.8 11.13
3/31/2021 10:00:00 AM 10.29 50.522 0.24 7.2 6.99 11.15
3/31/2021 10:15:00 AM 10.36 50.648 0.24 7.21 7.3 11.23
3/31/2021 10:30:00 AM 10.45 50.81 0.24 7.21 7.63 11.3
3/31/2021 10:45:00 AM 10.48 50.864 0.241 7.24 6.78 11.35
3/31/2021 11:00:00 AM 10.54 50.972 0.241 7.24 7.56 11.39
3/31/2021 11:15:00 AM 10.6 51.08 0.241 7.26 8.2 11.39
3/31/2021 11:30:00 AM 10.7 51.26 0.241 7.27 8.24 11.43
3/31/2021 11:45:00 AM 10.72 51.296 0.242 7.28 8.22 11.44
3/31/2021 12:00:00 PM 10.73 51.314 0.242 7.29 7.71 11.36
3/31/2021 12:15:00 PM 10.76 51.368 0.241 7.3